<?xml version="1.0" encoding="UTF-8" standalone="no" ?>
<gpx xmlns="http://www.topografix.com/GPX/1/1" xmlns:xsi="http://www.w3.org/2001/XMLSchema-instance" xsi:schemaLocation="http://www.topografix.com/GPX/1/1 http://www.topografix.com/GPX/1/1/gpx.xsd" version="1.1" creator="VisuGPX - https://www.visugpx.com">
  <metadata>
    <name>VTT Meyrargues (6 Aout)</name>
    <desc><![CDATA[VTT Meyrargues 
retour par peyrolles]]></desc>
  </metadata>
  <trk>
    <name><![CDATA[2015-08-06 08:49]]></name>
    <desc><![CDATA[<h1>OruxMaps</h1><br /><hr align="center" width="480" style="height: 2px; width: 517px"/><h2>Nom: 2015-08-06 08:49</h2><br /><p>Temps de départ: 08/06/2015 08:49</p><p>Temps d'arrivée: 08/06/2015 12:10</p><p>Distance: 35,9km (03:21)</p><p>Temps déplacement: 02:02</p><p>Vitesse moyenne: 10,7km/h</p><p>Vitesse moyenne: 17,6km/h</p><p>Vitess Max.: 38,4km/h</p><p>Altitude minimale: 251m</p><p>Altitude maximale: 594m</p><p>Vitesse d'élévation: 783,7m/h</p><p>Vitesse de descente: -413,1m/h</p><p>Gain Altitude: 746m</p><p>Perte Altitude: -716m</p><p>Temps d'élévation: 00:57</p><p>Temps de descente: 01:44</p><hr align="center" width="480" style="height: 2px; width: 517px"/>]]></desc>
    <trkseg>
      <trkpt lat="43.6326" lon="5.51071">
        <ele>294.68</ele>
        <time>2015-08-06T06:49:19Z</time>
      </trkpt>
      <trkpt lat="43.63279" lon="5.51038">
        <ele>312.43</ele>
        <time>2015-08-06T06:49:36Z</time>
      </trkpt>
      <trkpt lat="43.63269" lon="5.51017">
        <ele>326.18</ele>
        <time>2015-08-06T06:57:04Z</time>
      </trkpt>
      <trkpt lat="43.6325" lon="5.51015">
        <ele>329.51</ele>
        <time>2015-08-06T07:01:12Z</time>
      </trkpt>
      <trkpt lat="43.6324" lon="5.51038">
        <ele>330.43</ele>
        <time>2015-08-06T07:01:16Z</time>
      </trkpt>
      <trkpt lat="43.63232" lon="5.51062">
        <ele>331.21</ele>
        <time>2015-08-06T07:01:20Z</time>
      </trkpt>
      <trkpt lat="43.63214" lon="5.51079">
        <ele>333.07</ele>
        <time>2015-08-06T07:01:25Z</time>
      </trkpt>
      <trkpt lat="43.63196" lon="5.51094">
        <ele>334.98</ele>
        <time>2015-08-06T07:01:29Z</time>
      </trkpt>
      <trkpt lat="43.63185" lon="5.5112">
        <ele>335.9</ele>
        <time>2015-08-06T07:01:33Z</time>
      </trkpt>
      <trkpt lat="43.63167" lon="5.51139">
        <ele>338.92</ele>
        <time>2015-08-06T07:01:37Z</time>
      </trkpt>
      <trkpt lat="43.63146" lon="5.51146">
        <ele>340.52</ele>
        <time>2015-08-06T07:01:43Z</time>
      </trkpt>
      <trkpt lat="43.63126" lon="5.51148">
        <ele>343.37</ele>
        <time>2015-08-06T07:01:48Z</time>
      </trkpt>
      <trkpt lat="43.63107" lon="5.51134">
        <ele>348.03</ele>
        <time>2015-08-06T07:01:52Z</time>
      </trkpt>
      <trkpt lat="43.63088" lon="5.5115">
        <ele>353.47</ele>
        <time>2015-08-06T07:01:57Z</time>
      </trkpt>
      <trkpt lat="43.63079" lon="5.51172">
        <ele>355.22</ele>
        <time>2015-08-06T07:02:01Z</time>
      </trkpt>
      <trkpt lat="43.63074" lon="5.51196">
        <ele>355.26</ele>
        <time>2015-08-06T07:02:06Z</time>
      </trkpt>
      <trkpt lat="43.63065" lon="5.5122">
        <ele>355.01</ele>
        <time>2015-08-06T07:02:11Z</time>
      </trkpt>
      <trkpt lat="43.63062" lon="5.51245">
        <ele>354.2</ele>
        <time>2015-08-06T07:02:26Z</time>
      </trkpt>
      <trkpt lat="43.63075" lon="5.51269">
        <ele>351.85</ele>
        <time>2015-08-06T07:02:31Z</time>
      </trkpt>
      <trkpt lat="43.6309" lon="5.51291">
        <ele>349.49</ele>
        <time>2015-08-06T07:02:35Z</time>
      </trkpt>
      <trkpt lat="43.63102" lon="5.5131">
        <ele>348.18</ele>
        <time>2015-08-06T07:02:38Z</time>
      </trkpt>
      <trkpt lat="43.63115" lon="5.51329">
        <ele>347.26</ele>
        <time>2015-08-06T07:02:41Z</time>
      </trkpt>
      <trkpt lat="43.6313" lon="5.51351">
        <ele>346.46</ele>
        <time>2015-08-06T07:02:44Z</time>
      </trkpt>
      <trkpt lat="43.63145" lon="5.51373">
        <ele>345.87</ele>
        <time>2015-08-06T07:02:47Z</time>
      </trkpt>
      <trkpt lat="43.63159" lon="5.51398">
        <ele>344.91</ele>
        <time>2015-08-06T07:02:50Z</time>
      </trkpt>
      <trkpt lat="43.63172" lon="5.51428">
        <ele>344.11</ele>
        <time>2015-08-06T07:02:53Z</time>
      </trkpt>
      <trkpt lat="43.63182" lon="5.5146">
        <ele>343.14</ele>
        <time>2015-08-06T07:02:56Z</time>
      </trkpt>
      <trkpt lat="43.63188" lon="5.51494">
        <ele>342.32</ele>
        <time>2015-08-06T07:02:59Z</time>
      </trkpt>
      <trkpt lat="43.63194" lon="5.5153">
        <ele>340.97</ele>
        <time>2015-08-06T07:03:02Z</time>
      </trkpt>
      <trkpt lat="43.63201" lon="5.51566">
        <ele>338.9</ele>
        <time>2015-08-06T07:03:05Z</time>
      </trkpt>
      <trkpt lat="43.63212" lon="5.516">
        <ele>336.86</ele>
        <time>2015-08-06T07:03:08Z</time>
      </trkpt>
      <trkpt lat="43.63223" lon="5.5162">
        <ele>335.64</ele>
        <time>2015-08-06T07:03:10Z</time>
      </trkpt>
      <trkpt lat="43.63236" lon="5.51637">
        <ele>334.73</ele>
        <time>2015-08-06T07:03:12Z</time>
      </trkpt>
      <trkpt lat="43.63251" lon="5.51652">
        <ele>333.88</ele>
        <time>2015-08-06T07:03:14Z</time>
      </trkpt>
      <trkpt lat="43.63267" lon="5.51663">
        <ele>333.02</ele>
        <time>2015-08-06T07:03:16Z</time>
      </trkpt>
      <trkpt lat="43.63292" lon="5.51679">
        <ele>332.56</ele>
        <time>2015-08-06T07:03:19Z</time>
      </trkpt>
      <trkpt lat="43.63314" lon="5.51691">
        <ele>332.33</ele>
        <time>2015-08-06T07:03:22Z</time>
      </trkpt>
      <trkpt lat="43.63338" lon="5.51698">
        <ele>332.21</ele>
        <time>2015-08-06T07:03:25Z</time>
      </trkpt>
      <trkpt lat="43.6336" lon="5.51703">
        <ele>331.48</ele>
        <time>2015-08-06T07:03:28Z</time>
      </trkpt>
      <trkpt lat="43.63384" lon="5.51704">
        <ele>330.88</ele>
        <time>2015-08-06T07:03:31Z</time>
      </trkpt>
      <trkpt lat="43.63407" lon="5.51702">
        <ele>330.19</ele>
        <time>2015-08-06T07:03:34Z</time>
      </trkpt>
      <trkpt lat="43.63431" lon="5.51699">
        <ele>329.37</ele>
        <time>2015-08-06T07:03:37Z</time>
      </trkpt>
      <trkpt lat="43.63454" lon="5.51696">
        <ele>328.66</ele>
        <time>2015-08-06T07:03:40Z</time>
      </trkpt>
      <trkpt lat="43.63477" lon="5.51692">
        <ele>328.06</ele>
        <time>2015-08-06T07:03:43Z</time>
      </trkpt>
      <trkpt lat="43.63497" lon="5.51701">
        <ele>327.3</ele>
        <time>2015-08-06T07:03:46Z</time>
      </trkpt>
      <trkpt lat="43.63512" lon="5.51726">
        <ele>326.47</ele>
        <time>2015-08-06T07:03:49Z</time>
      </trkpt>
      <trkpt lat="43.63523" lon="5.51761">
        <ele>324.92</ele>
        <time>2015-08-06T07:03:52Z</time>
      </trkpt>
      <trkpt lat="43.63523" lon="5.51787">
        <ele>323.73</ele>
        <time>2015-08-06T07:03:54Z</time>
      </trkpt>
      <trkpt lat="43.63522" lon="5.51815">
        <ele>322.6</ele>
        <time>2015-08-06T07:03:56Z</time>
      </trkpt>
      <trkpt lat="43.6352" lon="5.5184">
        <ele>321.58</ele>
        <time>2015-08-06T07:03:58Z</time>
      </trkpt>
      <trkpt lat="43.63513" lon="5.51876">
        <ele>319.52</ele>
        <time>2015-08-06T07:04:01Z</time>
      </trkpt>
      <trkpt lat="43.63504" lon="5.51898">
        <ele>318.12</ele>
        <time>2015-08-06T07:04:03Z</time>
      </trkpt>
      <trkpt lat="43.63492" lon="5.51918">
        <ele>316.79</ele>
        <time>2015-08-06T07:04:05Z</time>
      </trkpt>
      <trkpt lat="43.63474" lon="5.51933">
        <ele>315.49</ele>
        <time>2015-08-06T07:04:07Z</time>
      </trkpt>
      <trkpt lat="43.63455" lon="5.51941">
        <ele>314.22</ele>
        <time>2015-08-06T07:04:09Z</time>
      </trkpt>
      <trkpt lat="43.63436" lon="5.51948">
        <ele>313.01</ele>
        <time>2015-08-06T07:04:11Z</time>
      </trkpt>
      <trkpt lat="43.63418" lon="5.51954">
        <ele>312.07</ele>
        <time>2015-08-06T07:04:13Z</time>
      </trkpt>
      <trkpt lat="43.63399" lon="5.51959">
        <ele>311.42</ele>
        <time>2015-08-06T07:04:15Z</time>
      </trkpt>
      <trkpt lat="43.63382" lon="5.51969">
        <ele>310.61</ele>
        <time>2015-08-06T07:04:17Z</time>
      </trkpt>
      <trkpt lat="43.63367" lon="5.51985">
        <ele>309.45</ele>
        <time>2015-08-06T07:04:19Z</time>
      </trkpt>
      <trkpt lat="43.63352" lon="5.52003">
        <ele>308.48</ele>
        <time>2015-08-06T07:04:21Z</time>
      </trkpt>
      <trkpt lat="43.63335" lon="5.52032">
        <ele>307.19</ele>
        <time>2015-08-06T07:04:24Z</time>
      </trkpt>
      <trkpt lat="43.63324" lon="5.52054">
        <ele>306.4</ele>
        <time>2015-08-06T07:04:26Z</time>
      </trkpt>
      <trkpt lat="43.63313" lon="5.52076">
        <ele>305.56</ele>
        <time>2015-08-06T07:04:28Z</time>
      </trkpt>
      <trkpt lat="43.63303" lon="5.52098">
        <ele>304.45</ele>
        <time>2015-08-06T07:04:30Z</time>
      </trkpt>
      <trkpt lat="43.63293" lon="5.52121">
        <ele>302.75</ele>
        <time>2015-08-06T07:04:32Z</time>
      </trkpt>
      <trkpt lat="43.63284" lon="5.52143">
        <ele>300.97</ele>
        <time>2015-08-06T07:04:34Z</time>
      </trkpt>
      <trkpt lat="43.63272" lon="5.52172">
        <ele>298.9</ele>
        <time>2015-08-06T07:04:37Z</time>
      </trkpt>
      <trkpt lat="43.63256" lon="5.52188">
        <ele>296.95</ele>
        <time>2015-08-06T07:04:41Z</time>
      </trkpt>
      <trkpt lat="43.63244" lon="5.52164">
        <ele>296.31</ele>
        <time>2015-08-06T07:04:46Z</time>
      </trkpt>
      <trkpt lat="43.63229" lon="5.52138">
        <ele>297.1</ele>
        <time>2015-08-06T07:04:50Z</time>
      </trkpt>
      <trkpt lat="43.63216" lon="5.52114">
        <ele>297.69</ele>
        <time>2015-08-06T07:04:53Z</time>
      </trkpt>
      <trkpt lat="43.63202" lon="5.52093">
        <ele>297.2</ele>
        <time>2015-08-06T07:04:56Z</time>
      </trkpt>
      <trkpt lat="43.63189" lon="5.52074">
        <ele>296.43</ele>
        <time>2015-08-06T07:04:59Z</time>
      </trkpt>
      <trkpt lat="43.63172" lon="5.52055">
        <ele>296.01</ele>
        <time>2015-08-06T07:05:03Z</time>
      </trkpt>
      <trkpt lat="43.6315" lon="5.52057">
        <ele>296.33</ele>
        <time>2015-08-06T07:05:07Z</time>
      </trkpt>
      <trkpt lat="43.63131" lon="5.52071">
        <ele>297.23</ele>
        <time>2015-08-06T07:05:11Z</time>
      </trkpt>
      <trkpt lat="43.63113" lon="5.52085">
        <ele>298.26</ele>
        <time>2015-08-06T07:05:15Z</time>
      </trkpt>
      <trkpt lat="43.63094" lon="5.52097">
        <ele>299.44</ele>
        <time>2015-08-06T07:05:19Z</time>
      </trkpt>
      <trkpt lat="43.63074" lon="5.5211">
        <ele>300.33</ele>
        <time>2015-08-06T07:05:23Z</time>
      </trkpt>
      <trkpt lat="43.63054" lon="5.52123">
        <ele>300.42</ele>
        <time>2015-08-06T07:05:27Z</time>
      </trkpt>
      <trkpt lat="43.63035" lon="5.52141">
        <ele>301.33</ele>
        <time>2015-08-06T07:05:31Z</time>
      </trkpt>
      <trkpt lat="43.63024" lon="5.52163">
        <ele>300.33</ele>
        <time>2015-08-06T07:05:34Z</time>
      </trkpt>
      <trkpt lat="43.63017" lon="5.52189">
        <ele>299.05</ele>
        <time>2015-08-06T07:05:38Z</time>
      </trkpt>
      <trkpt lat="43.63012" lon="5.52217">
        <ele>298.04</ele>
        <time>2015-08-06T07:05:42Z</time>
      </trkpt>
      <trkpt lat="43.63006" lon="5.52244">
        <ele>297.63</ele>
        <time>2015-08-06T07:05:46Z</time>
      </trkpt>
      <trkpt lat="43.62996" lon="5.52271">
        <ele>297.59</ele>
        <time>2015-08-06T07:05:50Z</time>
      </trkpt>
      <trkpt lat="43.62982" lon="5.52297">
        <ele>297.2</ele>
        <time>2015-08-06T07:05:54Z</time>
      </trkpt>
      <trkpt lat="43.62965" lon="5.5231">
        <ele>298.32</ele>
        <time>2015-08-06T07:05:57Z</time>
      </trkpt>
      <trkpt lat="43.62942" lon="5.52305">
        <ele>299.79</ele>
        <time>2015-08-06T07:06:01Z</time>
      </trkpt>
      <trkpt lat="43.62927" lon="5.52291">
        <ele>299.89</ele>
        <time>2015-08-06T07:06:04Z</time>
      </trkpt>
      <trkpt lat="43.62907" lon="5.5227">
        <ele>299.9</ele>
        <time>2015-08-06T07:06:08Z</time>
      </trkpt>
      <trkpt lat="43.62892" lon="5.52256">
        <ele>300.27</ele>
        <time>2015-08-06T07:06:11Z</time>
      </trkpt>
      <trkpt lat="43.62876" lon="5.52243">
        <ele>300.24</ele>
        <time>2015-08-06T07:06:14Z</time>
      </trkpt>
      <trkpt lat="43.62858" lon="5.52229">
        <ele>301.21</ele>
        <time>2015-08-06T07:06:18Z</time>
      </trkpt>
      <trkpt lat="43.6284" lon="5.52208">
        <ele>303.69</ele>
        <time>2015-08-06T07:06:22Z</time>
      </trkpt>
      <trkpt lat="43.62831" lon="5.52177">
        <ele>304.8</ele>
        <time>2015-08-06T07:06:26Z</time>
      </trkpt>
      <trkpt lat="43.62827" lon="5.52149">
        <ele>306.5</ele>
        <time>2015-08-06T07:06:30Z</time>
      </trkpt>
      <trkpt lat="43.62804" lon="5.52139">
        <ele>308.51</ele>
        <time>2015-08-06T07:06:37Z</time>
      </trkpt>
      <trkpt lat="43.62781" lon="5.52139">
        <ele>308.51</ele>
        <time>2015-08-06T07:06:40Z</time>
      </trkpt>
      <trkpt lat="43.62763" lon="5.52135">
        <ele>307.97</ele>
        <time>2015-08-06T07:06:42Z</time>
      </trkpt>
      <trkpt lat="43.62745" lon="5.52131">
        <ele>307.02</ele>
        <time>2015-08-06T07:06:44Z</time>
      </trkpt>
      <trkpt lat="43.6272" lon="5.52124">
        <ele>305.85</ele>
        <time>2015-08-06T07:06:47Z</time>
      </trkpt>
      <trkpt lat="43.62699" lon="5.52111">
        <ele>305.2</ele>
        <time>2015-08-06T07:06:50Z</time>
      </trkpt>
      <trkpt lat="43.62681" lon="5.521">
        <ele>305.59</ele>
        <time>2015-08-06T07:06:54Z</time>
      </trkpt>
      <trkpt lat="43.6266" lon="5.52106">
        <ele>306.28</ele>
        <time>2015-08-06T07:06:59Z</time>
      </trkpt>
      <trkpt lat="43.62637" lon="5.52098">
        <ele>306.78</ele>
        <time>2015-08-06T07:07:03Z</time>
      </trkpt>
      <trkpt lat="43.62621" lon="5.52083">
        <ele>306.35</ele>
        <time>2015-08-06T07:07:06Z</time>
      </trkpt>
      <trkpt lat="43.62604" lon="5.52071">
        <ele>305.87</ele>
        <time>2015-08-06T07:07:09Z</time>
      </trkpt>
      <trkpt lat="43.62588" lon="5.5206">
        <ele>304.93</ele>
        <time>2015-08-06T07:07:12Z</time>
      </trkpt>
      <trkpt lat="43.62567" lon="5.52046">
        <ele>303.88</ele>
        <time>2015-08-06T07:07:16Z</time>
      </trkpt>
      <trkpt lat="43.62547" lon="5.52031">
        <ele>303.79</ele>
        <time>2015-08-06T07:07:20Z</time>
      </trkpt>
      <trkpt lat="43.62526" lon="5.52019">
        <ele>305.66</ele>
        <time>2015-08-06T07:07:24Z</time>
      </trkpt>
      <trkpt lat="43.62505" lon="5.52006">
        <ele>306.84</ele>
        <time>2015-08-06T07:07:28Z</time>
      </trkpt>
      <trkpt lat="43.62484" lon="5.51995">
        <ele>307.59</ele>
        <time>2015-08-06T07:07:32Z</time>
      </trkpt>
      <trkpt lat="43.62463" lon="5.51984">
        <ele>308.37</ele>
        <time>2015-08-06T07:07:36Z</time>
      </trkpt>
      <trkpt lat="43.62442" lon="5.51974">
        <ele>309.14</ele>
        <time>2015-08-06T07:07:40Z</time>
      </trkpt>
      <trkpt lat="43.62425" lon="5.51966">
        <ele>309.61</ele>
        <time>2015-08-06T07:07:43Z</time>
      </trkpt>
      <trkpt lat="43.62405" lon="5.51958">
        <ele>310.47</ele>
        <time>2015-08-06T07:07:47Z</time>
      </trkpt>
      <trkpt lat="43.62394" lon="5.51978">
        <ele>310.59</ele>
        <time>2015-08-06T07:07:52Z</time>
      </trkpt>
      <trkpt lat="43.62375" lon="5.51985">
        <ele>311.29</ele>
        <time>2015-08-06T07:07:56Z</time>
      </trkpt>
      <trkpt lat="43.62354" lon="5.5198">
        <ele>313.56</ele>
        <time>2015-08-06T07:08:00Z</time>
      </trkpt>
      <trkpt lat="43.62334" lon="5.5198">
        <ele>315.98</ele>
        <time>2015-08-06T07:08:03Z</time>
      </trkpt>
      <trkpt lat="43.62315" lon="5.51981">
        <ele>317.08</ele>
        <time>2015-08-06T07:08:06Z</time>
      </trkpt>
      <trkpt lat="43.62296" lon="5.51982">
        <ele>318.08</ele>
        <time>2015-08-06T07:08:10Z</time>
      </trkpt>
      <trkpt lat="43.62276" lon="5.51985">
        <ele>319.52</ele>
        <time>2015-08-06T07:08:14Z</time>
      </trkpt>
      <trkpt lat="43.62254" lon="5.5199">
        <ele>320.89</ele>
        <time>2015-08-06T07:08:18Z</time>
      </trkpt>
      <trkpt lat="43.62233" lon="5.51996">
        <ele>322.18</ele>
        <time>2015-08-06T07:08:22Z</time>
      </trkpt>
      <trkpt lat="43.62215" lon="5.52001">
        <ele>322.99</ele>
        <time>2015-08-06T07:08:25Z</time>
      </trkpt>
      <trkpt lat="43.62197" lon="5.52007">
        <ele>322.64</ele>
        <time>2015-08-06T07:08:28Z</time>
      </trkpt>
      <trkpt lat="43.62177" lon="5.52018">
        <ele>320.92</ele>
        <time>2015-08-06T07:08:32Z</time>
      </trkpt>
      <trkpt lat="43.6217" lon="5.52046">
        <ele>317.82</ele>
        <time>2015-08-06T07:08:36Z</time>
      </trkpt>
      <trkpt lat="43.62172" lon="5.5207">
        <ele>319.32</ele>
        <time>2015-08-06T07:08:40Z</time>
      </trkpt>
      <trkpt lat="43.62173" lon="5.52096">
        <ele>320.13</ele>
        <time>2015-08-06T07:08:44Z</time>
      </trkpt>
      <trkpt lat="43.62174" lon="5.52124">
        <ele>320.63</ele>
        <time>2015-08-06T07:08:49Z</time>
      </trkpt>
      <trkpt lat="43.62174" lon="5.52149">
        <ele>321.84</ele>
        <time>2015-08-06T07:08:53Z</time>
      </trkpt>
      <trkpt lat="43.62178" lon="5.52177">
        <ele>325.51</ele>
        <time>2015-08-06T07:08:57Z</time>
      </trkpt>
      <trkpt lat="43.62183" lon="5.52203">
        <ele>327.78</ele>
        <time>2015-08-06T07:09:01Z</time>
      </trkpt>
      <trkpt lat="43.62187" lon="5.52228">
        <ele>328.94</ele>
        <time>2015-08-06T07:09:05Z</time>
      </trkpt>
      <trkpt lat="43.62187" lon="5.52254">
        <ele>330.18</ele>
        <time>2015-08-06T07:09:09Z</time>
      </trkpt>
      <trkpt lat="43.62181" lon="5.52283">
        <ele>331.74</ele>
        <time>2015-08-06T07:09:13Z</time>
      </trkpt>
      <trkpt lat="43.62175" lon="5.5231">
        <ele>332.22</ele>
        <time>2015-08-06T07:09:17Z</time>
      </trkpt>
      <trkpt lat="43.62171" lon="5.52338">
        <ele>334.76</ele>
        <time>2015-08-06T07:09:21Z</time>
      </trkpt>
      <trkpt lat="43.62173" lon="5.52366">
        <ele>338.37</ele>
        <time>2015-08-06T07:09:26Z</time>
      </trkpt>
      <trkpt lat="43.62173" lon="5.52396">
        <ele>341.75</ele>
        <time>2015-08-06T07:09:30Z</time>
      </trkpt>
      <trkpt lat="43.62174" lon="5.52425">
        <ele>343.24</ele>
        <time>2015-08-06T07:09:35Z</time>
      </trkpt>
      <trkpt lat="43.62173" lon="5.52455">
        <ele>344.61</ele>
        <time>2015-08-06T07:09:40Z</time>
      </trkpt>
      <trkpt lat="43.62169" lon="5.52481">
        <ele>345.16</ele>
        <time>2015-08-06T07:09:44Z</time>
      </trkpt>
      <trkpt lat="43.62162" lon="5.52507">
        <ele>348.67</ele>
        <time>2015-08-06T07:09:49Z</time>
      </trkpt>
      <trkpt lat="43.62153" lon="5.52532">
        <ele>352.44</ele>
        <time>2015-08-06T07:09:54Z</time>
      </trkpt>
      <trkpt lat="43.62148" lon="5.52557">
        <ele>353.89</ele>
        <time>2015-08-06T07:09:58Z</time>
      </trkpt>
      <trkpt lat="43.6214" lon="5.52581">
        <ele>356.16</ele>
        <time>2015-08-06T07:10:02Z</time>
      </trkpt>
      <trkpt lat="43.62136" lon="5.52609">
        <ele>359.13</ele>
        <time>2015-08-06T07:10:07Z</time>
      </trkpt>
      <trkpt lat="43.62136" lon="5.52635">
        <ele>360.53</ele>
        <time>2015-08-06T07:10:11Z</time>
      </trkpt>
      <trkpt lat="43.62151" lon="5.52656">
        <ele>363.2</ele>
        <time>2015-08-06T07:10:15Z</time>
      </trkpt>
      <trkpt lat="43.62171" lon="5.52669">
        <ele>364.95</ele>
        <time>2015-08-06T07:10:20Z</time>
      </trkpt>
      <trkpt lat="43.62192" lon="5.52666">
        <ele>365.82</ele>
        <time>2015-08-06T07:10:25Z</time>
      </trkpt>
      <trkpt lat="43.62209" lon="5.52655">
        <ele>367.33</ele>
        <time>2015-08-06T07:10:28Z</time>
      </trkpt>
      <trkpt lat="43.62229" lon="5.5265">
        <ele>370.87</ele>
        <time>2015-08-06T07:10:33Z</time>
      </trkpt>
      <trkpt lat="43.62248" lon="5.52662">
        <ele>374.5</ele>
        <time>2015-08-06T07:10:38Z</time>
      </trkpt>
      <trkpt lat="43.62259" lon="5.52688">
        <ele>375.95</ele>
        <time>2015-08-06T07:10:43Z</time>
      </trkpt>
      <trkpt lat="43.62259" lon="5.52713">
        <ele>376.14</ele>
        <time>2015-08-06T07:10:48Z</time>
      </trkpt>
      <trkpt lat="43.62257" lon="5.52742">
        <ele>376.71</ele>
        <time>2015-08-06T07:10:53Z</time>
      </trkpt>
      <trkpt lat="43.62263" lon="5.5277">
        <ele>377.88</ele>
        <time>2015-08-06T07:11:00Z</time>
      </trkpt>
      <trkpt lat="43.62267" lon="5.52795">
        <ele>378.94</ele>
        <time>2015-08-06T07:11:05Z</time>
      </trkpt>
      <trkpt lat="43.62265" lon="5.52824">
        <ele>380.26</ele>
        <time>2015-08-06T07:11:11Z</time>
      </trkpt>
      <trkpt lat="43.62263" lon="5.5285">
        <ele>381.76</ele>
        <time>2015-08-06T07:11:17Z</time>
      </trkpt>
      <trkpt lat="43.62278" lon="5.52864">
        <ele>385.28</ele>
        <time>2015-08-06T07:11:22Z</time>
      </trkpt>
      <trkpt lat="43.623" lon="5.52868">
        <ele>387.45</ele>
        <time>2015-08-06T07:11:28Z</time>
      </trkpt>
      <trkpt lat="43.62317" lon="5.52854">
        <ele>388.76</ele>
        <time>2015-08-06T07:11:32Z</time>
      </trkpt>
      <trkpt lat="43.6233" lon="5.52833">
        <ele>392.63</ele>
        <time>2015-08-06T07:11:36Z</time>
      </trkpt>
      <trkpt lat="43.62348" lon="5.52828">
        <ele>394.34</ele>
        <time>2015-08-06T07:11:46Z</time>
      </trkpt>
      <trkpt lat="43.62363" lon="5.52844">
        <ele>395.19</ele>
        <time>2015-08-06T07:11:53Z</time>
      </trkpt>
      <trkpt lat="43.62376" lon="5.52868">
        <ele>397.75</ele>
        <time>2015-08-06T07:11:57Z</time>
      </trkpt>
      <trkpt lat="43.6239" lon="5.52889">
        <ele>399.86</ele>
        <time>2015-08-06T07:12:01Z</time>
      </trkpt>
      <trkpt lat="43.62406" lon="5.52904">
        <ele>401.16</ele>
        <time>2015-08-06T07:12:05Z</time>
      </trkpt>
      <trkpt lat="43.62424" lon="5.52913">
        <ele>401.6</ele>
        <time>2015-08-06T07:12:12Z</time>
      </trkpt>
      <trkpt lat="43.62441" lon="5.52933">
        <ele>402.15</ele>
        <time>2015-08-06T07:12:17Z</time>
      </trkpt>
      <trkpt lat="43.62457" lon="5.52949">
        <ele>401.42</ele>
        <time>2015-08-06T07:12:21Z</time>
      </trkpt>
      <trkpt lat="43.62474" lon="5.52961">
        <ele>401.61</ele>
        <time>2015-08-06T07:12:26Z</time>
      </trkpt>
      <trkpt lat="43.62487" lon="5.52981">
        <ele>402.06</ele>
        <time>2015-08-06T07:12:31Z</time>
      </trkpt>
      <trkpt lat="43.62503" lon="5.52993">
        <ele>403.2</ele>
        <time>2015-08-06T07:12:35Z</time>
      </trkpt>
      <trkpt lat="43.62519" lon="5.53012">
        <ele>405.04</ele>
        <time>2015-08-06T07:12:41Z</time>
      </trkpt>
      <trkpt lat="43.62536" lon="5.53031">
        <ele>406.26</ele>
        <time>2015-08-06T07:12:46Z</time>
      </trkpt>
      <trkpt lat="43.62549" lon="5.53053">
        <ele>406.51</ele>
        <time>2015-08-06T07:12:51Z</time>
      </trkpt>
      <trkpt lat="43.62569" lon="5.53062">
        <ele>407.59</ele>
        <time>2015-08-06T07:12:56Z</time>
      </trkpt>
      <trkpt lat="43.62586" lon="5.53072">
        <ele>408.16</ele>
        <time>2015-08-06T07:13:01Z</time>
      </trkpt>
      <trkpt lat="43.62605" lon="5.53072">
        <ele>408.41</ele>
        <time>2015-08-06T07:13:07Z</time>
      </trkpt>
      <trkpt lat="43.62622" lon="5.53077">
        <ele>411.6</ele>
        <time>2015-08-06T07:13:38Z</time>
      </trkpt>
      <trkpt lat="43.62611" lon="5.53097">
        <ele>412.43</ele>
        <time>2015-08-06T07:14:16Z</time>
      </trkpt>
      <trkpt lat="43.62605" lon="5.53121">
        <ele>412.71</ele>
        <time>2015-08-06T07:14:22Z</time>
      </trkpt>
      <trkpt lat="43.62606" lon="5.53151">
        <ele>413.05</ele>
        <time>2015-08-06T07:14:28Z</time>
      </trkpt>
      <trkpt lat="43.62606" lon="5.53176">
        <ele>413.54</ele>
        <time>2015-08-06T07:14:33Z</time>
      </trkpt>
      <trkpt lat="43.62593" lon="5.53201">
        <ele>413.98</ele>
        <time>2015-08-06T07:14:39Z</time>
      </trkpt>
      <trkpt lat="43.6258" lon="5.53223">
        <ele>414.25</ele>
        <time>2015-08-06T07:14:44Z</time>
      </trkpt>
      <trkpt lat="43.62564" lon="5.53237">
        <ele>416.59</ele>
        <time>2015-08-06T07:15:20Z</time>
      </trkpt>
      <trkpt lat="43.62549" lon="5.53252">
        <ele>417.31</ele>
        <time>2015-08-06T07:15:25Z</time>
      </trkpt>
      <trkpt lat="43.62532" lon="5.53266">
        <ele>418.47</ele>
        <time>2015-08-06T07:15:32Z</time>
      </trkpt>
      <trkpt lat="43.62514" lon="5.53282">
        <ele>418.92</ele>
        <time>2015-08-06T07:15:37Z</time>
      </trkpt>
      <trkpt lat="43.62496" lon="5.53293">
        <ele>419.79</ele>
        <time>2015-08-06T07:15:44Z</time>
      </trkpt>
      <trkpt lat="43.62475" lon="5.53302">
        <ele>420.98</ele>
        <time>2015-08-06T07:15:50Z</time>
      </trkpt>
      <trkpt lat="43.62455" lon="5.53304">
        <ele>422.98</ele>
        <time>2015-08-06T07:15:58Z</time>
      </trkpt>
      <trkpt lat="43.62439" lon="5.53314">
        <ele>424.17</ele>
        <time>2015-08-06T07:16:03Z</time>
      </trkpt>
      <trkpt lat="43.62421" lon="5.53324">
        <ele>425.46</ele>
        <time>2015-08-06T07:16:08Z</time>
      </trkpt>
      <trkpt lat="43.62406" lon="5.53341">
        <ele>426.78</ele>
        <time>2015-08-06T07:16:13Z</time>
      </trkpt>
      <trkpt lat="43.6239" lon="5.53357">
        <ele>432.35</ele>
        <time>2015-08-06T07:16:17Z</time>
      </trkpt>
      <trkpt lat="43.62376" lon="5.53373">
        <ele>436.68</ele>
        <time>2015-08-06T07:16:21Z</time>
      </trkpt>
      <trkpt lat="43.62357" lon="5.53393">
        <ele>437.93</ele>
        <time>2015-08-06T07:16:26Z</time>
      </trkpt>
      <trkpt lat="43.62343" lon="5.53413">
        <ele>438.81</ele>
        <time>2015-08-06T07:16:31Z</time>
      </trkpt>
      <trkpt lat="43.62327" lon="5.53429">
        <ele>439.92</ele>
        <time>2015-08-06T07:16:36Z</time>
      </trkpt>
      <trkpt lat="43.6231" lon="5.53441">
        <ele>440.73</ele>
        <time>2015-08-06T07:16:40Z</time>
      </trkpt>
      <trkpt lat="43.62293" lon="5.5345">
        <ele>441.13</ele>
        <time>2015-08-06T07:16:46Z</time>
      </trkpt>
      <trkpt lat="43.62275" lon="5.53461">
        <ele>441.48</ele>
        <time>2015-08-06T07:16:52Z</time>
      </trkpt>
      <trkpt lat="43.62254" lon="5.53469">
        <ele>441.8</ele>
        <time>2015-08-06T07:16:57Z</time>
      </trkpt>
      <trkpt lat="43.62232" lon="5.53472">
        <ele>442.46</ele>
        <time>2015-08-06T07:17:02Z</time>
      </trkpt>
      <trkpt lat="43.6221" lon="5.53476">
        <ele>443.33</ele>
        <time>2015-08-06T07:17:08Z</time>
      </trkpt>
      <trkpt lat="43.62193" lon="5.53488">
        <ele>445.71</ele>
        <time>2015-08-06T07:17:12Z</time>
      </trkpt>
      <trkpt lat="43.62172" lon="5.53502">
        <ele>446.46</ele>
        <time>2015-08-06T07:17:16Z</time>
      </trkpt>
      <trkpt lat="43.62156" lon="5.53513">
        <ele>446.62</ele>
        <time>2015-08-06T07:17:19Z</time>
      </trkpt>
      <trkpt lat="43.62139" lon="5.53524">
        <ele>446.22</ele>
        <time>2015-08-06T07:17:23Z</time>
      </trkpt>
      <trkpt lat="43.62117" lon="5.53535">
        <ele>447.85</ele>
        <time>2015-08-06T07:17:28Z</time>
      </trkpt>
      <trkpt lat="43.62097" lon="5.53543">
        <ele>449.45</ele>
        <time>2015-08-06T07:17:33Z</time>
      </trkpt>
      <trkpt lat="43.62082" lon="5.53559">
        <ele>450.21</ele>
        <time>2015-08-06T07:17:42Z</time>
      </trkpt>
      <trkpt lat="43.62065" lon="5.53572">
        <ele>450.72</ele>
        <time>2015-08-06T07:17:47Z</time>
      </trkpt>
      <trkpt lat="43.62047" lon="5.53581">
        <ele>454.37</ele>
        <time>2015-08-06T07:17:51Z</time>
      </trkpt>
      <trkpt lat="43.62027" lon="5.53589">
        <ele>456.82</ele>
        <time>2015-08-06T07:17:55Z</time>
      </trkpt>
      <trkpt lat="43.62009" lon="5.53598">
        <ele>456.87</ele>
        <time>2015-08-06T07:17:59Z</time>
      </trkpt>
      <trkpt lat="43.61988" lon="5.53602">
        <ele>456.39</ele>
        <time>2015-08-06T07:18:04Z</time>
      </trkpt>
      <trkpt lat="43.6197" lon="5.53603">
        <ele>457.26</ele>
        <time>2015-08-06T07:18:08Z</time>
      </trkpt>
      <trkpt lat="43.61951" lon="5.53613">
        <ele>457.71</ele>
        <time>2015-08-06T07:18:13Z</time>
      </trkpt>
      <trkpt lat="43.61931" lon="5.53615">
        <ele>457.61</ele>
        <time>2015-08-06T07:18:19Z</time>
      </trkpt>
      <trkpt lat="43.61912" lon="5.53615">
        <ele>457.99</ele>
        <time>2015-08-06T07:18:23Z</time>
      </trkpt>
      <trkpt lat="43.61892" lon="5.53608">
        <ele>457.44</ele>
        <time>2015-08-06T07:18:28Z</time>
      </trkpt>
      <trkpt lat="43.61873" lon="5.53605">
        <ele>456.71</ele>
        <time>2015-08-06T07:18:32Z</time>
      </trkpt>
      <trkpt lat="43.61855" lon="5.53602">
        <ele>457.04</ele>
        <time>2015-08-06T07:18:36Z</time>
      </trkpt>
      <trkpt lat="43.61836" lon="5.53596">
        <ele>456.68</ele>
        <time>2015-08-06T07:18:41Z</time>
      </trkpt>
      <trkpt lat="43.61813" lon="5.536">
        <ele>458.01</ele>
        <time>2015-08-06T07:18:46Z</time>
      </trkpt>
      <trkpt lat="43.61795" lon="5.53605">
        <ele>458.62</ele>
        <time>2015-08-06T07:18:51Z</time>
      </trkpt>
      <trkpt lat="43.61776" lon="5.5361">
        <ele>458.78</ele>
        <time>2015-08-06T07:18:56Z</time>
      </trkpt>
      <trkpt lat="43.61756" lon="5.53618">
        <ele>459.04</ele>
        <time>2015-08-06T07:19:02Z</time>
      </trkpt>
      <trkpt lat="43.61744" lon="5.53637">
        <ele>459.47</ele>
        <time>2015-08-06T07:19:08Z</time>
      </trkpt>
      <trkpt lat="43.61732" lon="5.53657">
        <ele>460.14</ele>
        <time>2015-08-06T07:19:16Z</time>
      </trkpt>
      <trkpt lat="43.61722" lon="5.53679">
        <ele>460.91</ele>
        <time>2015-08-06T07:19:22Z</time>
      </trkpt>
      <trkpt lat="43.61714" lon="5.53703">
        <ele>462.3</ele>
        <time>2015-08-06T07:19:29Z</time>
      </trkpt>
      <trkpt lat="43.61713" lon="5.5373">
        <ele>463.56</ele>
        <time>2015-08-06T07:19:35Z</time>
      </trkpt>
      <trkpt lat="43.617" lon="5.5375">
        <ele>464.84</ele>
        <time>2015-08-06T07:19:42Z</time>
      </trkpt>
      <trkpt lat="43.61681" lon="5.53746">
        <ele>465.81</ele>
        <time>2015-08-06T07:19:49Z</time>
      </trkpt>
      <trkpt lat="43.61662" lon="5.53739">
        <ele>466.6</ele>
        <time>2015-08-06T07:19:54Z</time>
      </trkpt>
      <trkpt lat="43.61645" lon="5.53728">
        <ele>467.04</ele>
        <time>2015-08-06T07:19:59Z</time>
      </trkpt>
      <trkpt lat="43.61627" lon="5.53717">
        <ele>467.09</ele>
        <time>2015-08-06T07:20:04Z</time>
      </trkpt>
      <trkpt lat="43.61611" lon="5.53706">
        <ele>466.71</ele>
        <time>2015-08-06T07:20:10Z</time>
      </trkpt>
      <trkpt lat="43.61593" lon="5.537">
        <ele>466.03</ele>
        <time>2015-08-06T07:20:17Z</time>
      </trkpt>
      <trkpt lat="43.61576" lon="5.53686">
        <ele>465.01</ele>
        <time>2015-08-06T07:20:25Z</time>
      </trkpt>
      <trkpt lat="43.61561" lon="5.53671">
        <ele>463.39</ele>
        <time>2015-08-06T07:20:36Z</time>
      </trkpt>
      <trkpt lat="43.61542" lon="5.53677">
        <ele>461.7</ele>
        <time>2015-08-06T07:20:45Z</time>
      </trkpt>
      <trkpt lat="43.61524" lon="5.53687">
        <ele>459.98</ele>
        <time>2015-08-06T07:20:53Z</time>
      </trkpt>
      <trkpt lat="43.61507" lon="5.53697">
        <ele>458.5</ele>
        <time>2015-08-06T07:21:00Z</time>
      </trkpt>
      <trkpt lat="43.61488" lon="5.53706">
        <ele>456.6</ele>
        <time>2015-08-06T07:21:07Z</time>
      </trkpt>
      <trkpt lat="43.61467" lon="5.53718">
        <ele>454.19</ele>
        <time>2015-08-06T07:21:12Z</time>
      </trkpt>
      <trkpt lat="43.61448" lon="5.53731">
        <ele>446.89</ele>
        <time>2015-08-06T07:21:16Z</time>
      </trkpt>
      <trkpt lat="43.61431" lon="5.53744">
        <ele>442.03</ele>
        <time>2015-08-06T07:21:21Z</time>
      </trkpt>
      <trkpt lat="43.61415" lon="5.53758">
        <ele>441.93</ele>
        <time>2015-08-06T07:21:28Z</time>
      </trkpt>
      <trkpt lat="43.61399" lon="5.53773">
        <ele>441.86</ele>
        <time>2015-08-06T07:21:34Z</time>
      </trkpt>
      <trkpt lat="43.61379" lon="5.53778">
        <ele>441.33</ele>
        <time>2015-08-06T07:21:40Z</time>
      </trkpt>
      <trkpt lat="43.61361" lon="5.53781">
        <ele>440.36</ele>
        <time>2015-08-06T07:21:46Z</time>
      </trkpt>
      <trkpt lat="43.61341" lon="5.53789">
        <ele>439.5</ele>
        <time>2015-08-06T07:21:52Z</time>
      </trkpt>
      <trkpt lat="43.61321" lon="5.53784">
        <ele>438.88</ele>
        <time>2015-08-06T07:21:58Z</time>
      </trkpt>
      <trkpt lat="43.61302" lon="5.53783">
        <ele>438.46</ele>
        <time>2015-08-06T07:22:03Z</time>
      </trkpt>
      <trkpt lat="43.61282" lon="5.5378">
        <ele>437.65</ele>
        <time>2015-08-06T07:22:09Z</time>
      </trkpt>
      <trkpt lat="43.61261" lon="5.53775">
        <ele>433.56</ele>
        <time>2015-08-06T07:22:14Z</time>
      </trkpt>
      <trkpt lat="43.61242" lon="5.53766">
        <ele>433.02</ele>
        <time>2015-08-06T07:22:20Z</time>
      </trkpt>
      <trkpt lat="43.61222" lon="5.53756">
        <ele>432.66</ele>
        <time>2015-08-06T07:22:25Z</time>
      </trkpt>
      <trkpt lat="43.61203" lon="5.53749">
        <ele>432.19</ele>
        <time>2015-08-06T07:22:30Z</time>
      </trkpt>
      <trkpt lat="43.61189" lon="5.53732">
        <ele>432.13</ele>
        <time>2015-08-06T07:22:35Z</time>
      </trkpt>
      <trkpt lat="43.61171" lon="5.53718">
        <ele>431.5</ele>
        <time>2015-08-06T07:24:28Z</time>
      </trkpt>
      <trkpt lat="43.61156" lon="5.53704">
        <ele>431.27</ele>
        <time>2015-08-06T07:24:33Z</time>
      </trkpt>
      <trkpt lat="43.61139" lon="5.53692">
        <ele>430.86</ele>
        <time>2015-08-06T07:24:38Z</time>
      </trkpt>
      <trkpt lat="43.61119" lon="5.5369">
        <ele>431.39</ele>
        <time>2015-08-06T07:24:43Z</time>
      </trkpt>
      <trkpt lat="43.61097" lon="5.53691">
        <ele>431.78</ele>
        <time>2015-08-06T07:24:49Z</time>
      </trkpt>
      <trkpt lat="43.61077" lon="5.53691">
        <ele>432.96</ele>
        <time>2015-08-06T07:24:54Z</time>
      </trkpt>
      <trkpt lat="43.61056" lon="5.53693">
        <ele>434.3</ele>
        <time>2015-08-06T07:24:59Z</time>
      </trkpt>
      <trkpt lat="43.61036" lon="5.53703">
        <ele>435.8</ele>
        <time>2015-08-06T07:25:04Z</time>
      </trkpt>
      <trkpt lat="43.61018" lon="5.53719">
        <ele>437.65</ele>
        <time>2015-08-06T07:25:09Z</time>
      </trkpt>
      <trkpt lat="43.61004" lon="5.53737">
        <ele>436.78</ele>
        <time>2015-08-06T07:25:13Z</time>
      </trkpt>
      <trkpt lat="43.60991" lon="5.53756">
        <ele>436.57</ele>
        <time>2015-08-06T07:25:17Z</time>
      </trkpt>
      <trkpt lat="43.60978" lon="5.53775">
        <ele>437.93</ele>
        <time>2015-08-06T07:25:21Z</time>
      </trkpt>
      <trkpt lat="43.60964" lon="5.53792">
        <ele>438.82</ele>
        <time>2015-08-06T07:25:25Z</time>
      </trkpt>
      <trkpt lat="43.60949" lon="5.53808">
        <ele>439.37</ele>
        <time>2015-08-06T07:25:29Z</time>
      </trkpt>
      <trkpt lat="43.60931" lon="5.53824">
        <ele>440.57</ele>
        <time>2015-08-06T07:25:34Z</time>
      </trkpt>
      <trkpt lat="43.60911" lon="5.53827">
        <ele>441.41</ele>
        <time>2015-08-06T07:25:39Z</time>
      </trkpt>
      <trkpt lat="43.60892" lon="5.53818">
        <ele>441.92</ele>
        <time>2015-08-06T07:25:44Z</time>
      </trkpt>
      <trkpt lat="43.60871" lon="5.5382">
        <ele>444.74</ele>
        <time>2015-08-06T07:25:49Z</time>
      </trkpt>
      <trkpt lat="43.60852" lon="5.5382">
        <ele>446.78</ele>
        <time>2015-08-06T07:25:53Z</time>
      </trkpt>
      <trkpt lat="43.60833" lon="5.53824">
        <ele>448.51</ele>
        <time>2015-08-06T07:25:57Z</time>
      </trkpt>
      <trkpt lat="43.60813" lon="5.53827">
        <ele>449.5</ele>
        <time>2015-08-06T07:26:01Z</time>
      </trkpt>
      <trkpt lat="43.60792" lon="5.53827">
        <ele>450.32</ele>
        <time>2015-08-06T07:26:06Z</time>
      </trkpt>
      <trkpt lat="43.60773" lon="5.53829">
        <ele>450.82</ele>
        <time>2015-08-06T07:26:11Z</time>
      </trkpt>
      <trkpt lat="43.60752" lon="5.53831">
        <ele>452.65</ele>
        <time>2015-08-06T07:26:16Z</time>
      </trkpt>
      <trkpt lat="43.60732" lon="5.53839">
        <ele>453.22</ele>
        <time>2015-08-06T07:26:22Z</time>
      </trkpt>
      <trkpt lat="43.60713" lon="5.53847">
        <ele>455.03</ele>
        <time>2015-08-06T07:26:27Z</time>
      </trkpt>
      <trkpt lat="43.60694" lon="5.53852">
        <ele>456.68</ele>
        <time>2015-08-06T07:26:31Z</time>
      </trkpt>
      <trkpt lat="43.60673" lon="5.53858">
        <ele>457.84</ele>
        <time>2015-08-06T07:26:36Z</time>
      </trkpt>
      <trkpt lat="43.60651" lon="5.53862">
        <ele>458.8</ele>
        <time>2015-08-06T07:26:41Z</time>
      </trkpt>
      <trkpt lat="43.6063" lon="5.5387">
        <ele>459.56</ele>
        <time>2015-08-06T07:26:47Z</time>
      </trkpt>
      <trkpt lat="43.60615" lon="5.53889">
        <ele>459.75</ele>
        <time>2015-08-06T07:26:53Z</time>
      </trkpt>
      <trkpt lat="43.60602" lon="5.53909">
        <ele>460.1</ele>
        <time>2015-08-06T07:26:59Z</time>
      </trkpt>
      <trkpt lat="43.60589" lon="5.53925">
        <ele>460.54</ele>
        <time>2015-08-06T07:27:04Z</time>
      </trkpt>
      <trkpt lat="43.60573" lon="5.53939">
        <ele>465.04</ele>
        <time>2015-08-06T07:27:09Z</time>
      </trkpt>
      <trkpt lat="43.60554" lon="5.53951">
        <ele>466.53</ele>
        <time>2015-08-06T07:27:15Z</time>
      </trkpt>
      <trkpt lat="43.60535" lon="5.53962">
        <ele>468.31</ele>
        <time>2015-08-06T07:27:21Z</time>
      </trkpt>
      <trkpt lat="43.60517" lon="5.53974">
        <ele>470.16</ele>
        <time>2015-08-06T07:27:26Z</time>
      </trkpt>
      <trkpt lat="43.605" lon="5.53994">
        <ele>472.02</ele>
        <time>2015-08-06T07:27:31Z</time>
      </trkpt>
      <trkpt lat="43.60484" lon="5.54011">
        <ele>480.09</ele>
        <time>2015-08-06T07:27:35Z</time>
      </trkpt>
      <trkpt lat="43.6047" lon="5.54034">
        <ele>482.98</ele>
        <time>2015-08-06T07:27:39Z</time>
      </trkpt>
      <trkpt lat="43.60456" lon="5.54058">
        <ele>483.05</ele>
        <time>2015-08-06T07:27:44Z</time>
      </trkpt>
      <trkpt lat="43.60448" lon="5.54082">
        <ele>483.05</ele>
        <time>2015-08-06T07:27:48Z</time>
      </trkpt>
      <trkpt lat="43.60437" lon="5.54108">
        <ele>483.6</ele>
        <time>2015-08-06T07:27:53Z</time>
      </trkpt>
      <trkpt lat="43.60425" lon="5.54133">
        <ele>487.36</ele>
        <time>2015-08-06T07:27:58Z</time>
      </trkpt>
      <trkpt lat="43.60422" lon="5.5416">
        <ele>490.65</ele>
        <time>2015-08-06T07:28:03Z</time>
      </trkpt>
      <trkpt lat="43.60418" lon="5.54188">
        <ele>491.59</ele>
        <time>2015-08-06T07:28:10Z</time>
      </trkpt>
      <trkpt lat="43.60407" lon="5.54213">
        <ele>492.42</ele>
        <time>2015-08-06T07:28:17Z</time>
      </trkpt>
      <trkpt lat="43.60397" lon="5.54235">
        <ele>495.18</ele>
        <time>2015-08-06T07:28:21Z</time>
      </trkpt>
      <trkpt lat="43.60389" lon="5.5426">
        <ele>498.28</ele>
        <time>2015-08-06T07:28:25Z</time>
      </trkpt>
      <trkpt lat="43.60385" lon="5.54285">
        <ele>500.28</ele>
        <time>2015-08-06T07:28:29Z</time>
      </trkpt>
      <trkpt lat="43.60381" lon="5.54313">
        <ele>502.9</ele>
        <time>2015-08-06T07:28:34Z</time>
      </trkpt>
      <trkpt lat="43.60377" lon="5.54339">
        <ele>504.42</ele>
        <time>2015-08-06T07:28:39Z</time>
      </trkpt>
      <trkpt lat="43.6038" lon="5.54364">
        <ele>504.93</ele>
        <time>2015-08-06T07:28:45Z</time>
      </trkpt>
      <trkpt lat="43.60387" lon="5.54393">
        <ele>505.66</ele>
        <time>2015-08-06T07:28:51Z</time>
      </trkpt>
      <trkpt lat="43.60392" lon="5.54418">
        <ele>506.19</ele>
        <time>2015-08-06T07:28:56Z</time>
      </trkpt>
      <trkpt lat="43.604" lon="5.54441">
        <ele>508.11</ele>
        <time>2015-08-06T07:29:01Z</time>
      </trkpt>
      <trkpt lat="43.60416" lon="5.54459">
        <ele>511.05</ele>
        <time>2015-08-06T07:29:06Z</time>
      </trkpt>
      <trkpt lat="43.60434" lon="5.54471">
        <ele>514.8</ele>
        <time>2015-08-06T07:29:11Z</time>
      </trkpt>
      <trkpt lat="43.60453" lon="5.54482">
        <ele>517.58</ele>
        <time>2015-08-06T07:29:16Z</time>
      </trkpt>
      <trkpt lat="43.6047" lon="5.54491">
        <ele>519.23</ele>
        <time>2015-08-06T07:29:20Z</time>
      </trkpt>
      <trkpt lat="43.60488" lon="5.54497">
        <ele>521.38</ele>
        <time>2015-08-06T07:29:24Z</time>
      </trkpt>
      <trkpt lat="43.60508" lon="5.545">
        <ele>523.29</ele>
        <time>2015-08-06T07:29:29Z</time>
      </trkpt>
      <trkpt lat="43.60526" lon="5.54511">
        <ele>524.45</ele>
        <time>2015-08-06T07:29:34Z</time>
      </trkpt>
      <trkpt lat="43.60543" lon="5.54527">
        <ele>526.99</ele>
        <time>2015-08-06T07:29:39Z</time>
      </trkpt>
      <trkpt lat="43.6056" lon="5.54543">
        <ele>530.35</ele>
        <time>2015-08-06T07:29:44Z</time>
      </trkpt>
      <trkpt lat="43.60574" lon="5.54563">
        <ele>531.5</ele>
        <time>2015-08-06T07:29:49Z</time>
      </trkpt>
      <trkpt lat="43.60584" lon="5.54583">
        <ele>531.99</ele>
        <time>2015-08-06T07:29:54Z</time>
      </trkpt>
      <trkpt lat="43.60595" lon="5.54603">
        <ele>532.1</ele>
        <time>2015-08-06T07:29:59Z</time>
      </trkpt>
      <trkpt lat="43.60596" lon="5.54633">
        <ele>532.06</ele>
        <time>2015-08-06T07:30:05Z</time>
      </trkpt>
      <trkpt lat="43.60588" lon="5.54656">
        <ele>531.31</ele>
        <time>2015-08-06T07:30:09Z</time>
      </trkpt>
      <trkpt lat="43.60579" lon="5.5468">
        <ele>529.89</ele>
        <time>2015-08-06T07:30:13Z</time>
      </trkpt>
      <trkpt lat="43.60569" lon="5.54702">
        <ele>528.83</ele>
        <time>2015-08-06T07:30:17Z</time>
      </trkpt>
      <trkpt lat="43.60561" lon="5.54724">
        <ele>526.77</ele>
        <time>2015-08-06T07:30:21Z</time>
      </trkpt>
      <trkpt lat="43.60553" lon="5.54751">
        <ele>526.44</ele>
        <time>2015-08-06T07:30:25Z</time>
      </trkpt>
      <trkpt lat="43.60542" lon="5.54777">
        <ele>527.08</ele>
        <time>2015-08-06T07:30:29Z</time>
      </trkpt>
      <trkpt lat="43.60535" lon="5.54806">
        <ele>526.87</ele>
        <time>2015-08-06T07:30:34Z</time>
      </trkpt>
      <trkpt lat="43.60533" lon="5.54836">
        <ele>526.84</ele>
        <time>2015-08-06T07:30:39Z</time>
      </trkpt>
      <trkpt lat="43.60528" lon="5.54862">
        <ele>528.26</ele>
        <time>2015-08-06T07:30:43Z</time>
      </trkpt>
      <trkpt lat="43.60527" lon="5.54888">
        <ele>528.91</ele>
        <time>2015-08-06T07:30:47Z</time>
      </trkpt>
      <trkpt lat="43.60532" lon="5.54916">
        <ele>530.1</ele>
        <time>2015-08-06T07:30:52Z</time>
      </trkpt>
      <trkpt lat="43.60536" lon="5.54946">
        <ele>530.45</ele>
        <time>2015-08-06T07:30:57Z</time>
      </trkpt>
      <trkpt lat="43.60538" lon="5.54973">
        <ele>530.76</ele>
        <time>2015-08-06T07:31:01Z</time>
      </trkpt>
      <trkpt lat="43.60535" lon="5.55004">
        <ele>532.69</ele>
        <time>2015-08-06T07:31:06Z</time>
      </trkpt>
      <trkpt lat="43.60533" lon="5.55031">
        <ele>535.23</ele>
        <time>2015-08-06T07:31:10Z</time>
      </trkpt>
      <trkpt lat="43.60529" lon="5.55062">
        <ele>536.73</ele>
        <time>2015-08-06T07:31:15Z</time>
      </trkpt>
      <trkpt lat="43.60526" lon="5.55087">
        <ele>537.78</ele>
        <time>2015-08-06T07:31:19Z</time>
      </trkpt>
      <trkpt lat="43.60525" lon="5.55114">
        <ele>538.14</ele>
        <time>2015-08-06T07:31:23Z</time>
      </trkpt>
      <trkpt lat="43.60522" lon="5.55141">
        <ele>539.07</ele>
        <time>2015-08-06T07:31:28Z</time>
      </trkpt>
      <trkpt lat="43.60516" lon="5.55168">
        <ele>539.17</ele>
        <time>2015-08-06T07:31:33Z</time>
      </trkpt>
      <trkpt lat="43.60499" lon="5.55188">
        <ele>537.09</ele>
        <time>2015-08-06T07:31:38Z</time>
      </trkpt>
      <trkpt lat="43.6048" lon="5.55202">
        <ele>534.44</ele>
        <time>2015-08-06T07:31:43Z</time>
      </trkpt>
      <trkpt lat="43.60461" lon="5.55213">
        <ele>533.98</ele>
        <time>2015-08-06T07:31:47Z</time>
      </trkpt>
      <trkpt lat="43.60442" lon="5.55222">
        <ele>533.56</ele>
        <time>2015-08-06T07:31:51Z</time>
      </trkpt>
      <trkpt lat="43.60422" lon="5.5522">
        <ele>532.43</ele>
        <time>2015-08-06T07:31:55Z</time>
      </trkpt>
      <trkpt lat="43.60405" lon="5.55211">
        <ele>531.35</ele>
        <time>2015-08-06T07:31:59Z</time>
      </trkpt>
      <trkpt lat="43.6039" lon="5.55197">
        <ele>530.98</ele>
        <time>2015-08-06T07:32:03Z</time>
      </trkpt>
      <trkpt lat="43.60375" lon="5.55183">
        <ele>530.58</ele>
        <time>2015-08-06T07:32:07Z</time>
      </trkpt>
      <trkpt lat="43.60357" lon="5.55185">
        <ele>530.16</ele>
        <time>2015-08-06T07:32:12Z</time>
      </trkpt>
      <trkpt lat="43.60348" lon="5.55211">
        <ele>529.11</ele>
        <time>2015-08-06T07:32:18Z</time>
      </trkpt>
      <trkpt lat="43.60337" lon="5.55236">
        <ele>527.67</ele>
        <time>2015-08-06T07:32:24Z</time>
      </trkpt>
      <trkpt lat="43.60319" lon="5.55242">
        <ele>527.36</ele>
        <time>2015-08-06T07:32:29Z</time>
      </trkpt>
      <trkpt lat="43.60303" lon="5.55254">
        <ele>526.84</ele>
        <time>2015-08-06T07:32:35Z</time>
      </trkpt>
      <trkpt lat="43.60307" lon="5.55282">
        <ele>526.34</ele>
        <time>2015-08-06T07:32:41Z</time>
      </trkpt>
      <trkpt lat="43.60318" lon="5.55307">
        <ele>526.18</ele>
        <time>2015-08-06T07:32:46Z</time>
      </trkpt>
      <trkpt lat="43.60325" lon="5.55332">
        <ele>525.93</ele>
        <time>2015-08-06T07:32:51Z</time>
      </trkpt>
      <trkpt lat="43.60334" lon="5.55358">
        <ele>525.57</ele>
        <time>2015-08-06T07:32:56Z</time>
      </trkpt>
      <trkpt lat="43.60337" lon="5.55383">
        <ele>523.25</ele>
        <time>2015-08-06T07:33:00Z</time>
      </trkpt>
      <trkpt lat="43.60337" lon="5.55416">
        <ele>519.94</ele>
        <time>2015-08-06T07:33:04Z</time>
      </trkpt>
      <trkpt lat="43.60331" lon="5.55444">
        <ele>516.15</ele>
        <time>2015-08-06T07:33:08Z</time>
      </trkpt>
      <trkpt lat="43.60324" lon="5.55468">
        <ele>513.83</ele>
        <time>2015-08-06T07:33:12Z</time>
      </trkpt>
      <trkpt lat="43.60316" lon="5.55493">
        <ele>514</ele>
        <time>2015-08-06T07:33:16Z</time>
      </trkpt>
      <trkpt lat="43.60306" lon="5.55514">
        <ele>514.46</ele>
        <time>2015-08-06T07:33:21Z</time>
      </trkpt>
      <trkpt lat="43.60292" lon="5.55531">
        <ele>513.93</ele>
        <time>2015-08-06T07:33:25Z</time>
      </trkpt>
      <trkpt lat="43.60277" lon="5.55551">
        <ele>513.95</ele>
        <time>2015-08-06T07:33:29Z</time>
      </trkpt>
      <trkpt lat="43.60265" lon="5.55571">
        <ele>514.36</ele>
        <time>2015-08-06T07:33:33Z</time>
      </trkpt>
      <trkpt lat="43.60255" lon="5.55594">
        <ele>514.8</ele>
        <time>2015-08-06T07:33:38Z</time>
      </trkpt>
      <trkpt lat="43.60251" lon="5.55623">
        <ele>517.05</ele>
        <time>2015-08-06T07:33:42Z</time>
      </trkpt>
      <trkpt lat="43.60248" lon="5.5565">
        <ele>518.93</ele>
        <time>2015-08-06T07:33:46Z</time>
      </trkpt>
      <trkpt lat="43.60244" lon="5.55675">
        <ele>520.53</ele>
        <time>2015-08-06T07:33:50Z</time>
      </trkpt>
      <trkpt lat="43.60243" lon="5.557">
        <ele>522.77</ele>
        <time>2015-08-06T07:33:54Z</time>
      </trkpt>
      <trkpt lat="43.60248" lon="5.55726">
        <ele>524.88</ele>
        <time>2015-08-06T07:33:58Z</time>
      </trkpt>
      <trkpt lat="43.60259" lon="5.55749">
        <ele>525.6</ele>
        <time>2015-08-06T07:34:02Z</time>
      </trkpt>
      <trkpt lat="43.60262" lon="5.55774">
        <ele>526.94</ele>
        <time>2015-08-06T07:34:06Z</time>
      </trkpt>
      <trkpt lat="43.60262" lon="5.55799">
        <ele>528.76</ele>
        <time>2015-08-06T07:34:10Z</time>
      </trkpt>
      <trkpt lat="43.60261" lon="5.55824">
        <ele>530.24</ele>
        <time>2015-08-06T07:34:14Z</time>
      </trkpt>
      <trkpt lat="43.60259" lon="5.55855">
        <ele>532.46</ele>
        <time>2015-08-06T07:34:19Z</time>
      </trkpt>
      <trkpt lat="43.60259" lon="5.55881">
        <ele>534.57</ele>
        <time>2015-08-06T07:34:23Z</time>
      </trkpt>
      <trkpt lat="43.60255" lon="5.55909">
        <ele>536.55</ele>
        <time>2015-08-06T07:34:28Z</time>
      </trkpt>
      <trkpt lat="43.60244" lon="5.55929">
        <ele>536.99</ele>
        <time>2015-08-06T07:34:33Z</time>
      </trkpt>
      <trkpt lat="43.60228" lon="5.55944">
        <ele>537.37</ele>
        <time>2015-08-06T07:34:40Z</time>
      </trkpt>
      <trkpt lat="43.60211" lon="5.55959">
        <ele>538.42</ele>
        <time>2015-08-06T07:34:48Z</time>
      </trkpt>
      <trkpt lat="43.60194" lon="5.55974">
        <ele>539.71</ele>
        <time>2015-08-06T07:34:56Z</time>
      </trkpt>
      <trkpt lat="43.60182" lon="5.55995">
        <ele>540.86</ele>
        <time>2015-08-06T07:35:02Z</time>
      </trkpt>
      <trkpt lat="43.60167" lon="5.56009">
        <ele>541.96</ele>
        <time>2015-08-06T07:35:07Z</time>
      </trkpt>
      <trkpt lat="43.60149" lon="5.56022">
        <ele>545.15</ele>
        <time>2015-08-06T07:35:13Z</time>
      </trkpt>
      <trkpt lat="43.60134" lon="5.56035">
        <ele>546.56</ele>
        <time>2015-08-06T07:35:19Z</time>
      </trkpt>
      <trkpt lat="43.60117" lon="5.56047">
        <ele>548.04</ele>
        <time>2015-08-06T07:35:25Z</time>
      </trkpt>
      <trkpt lat="43.60101" lon="5.56061">
        <ele>550.64</ele>
        <time>2015-08-06T07:35:30Z</time>
      </trkpt>
      <trkpt lat="43.60084" lon="5.56076">
        <ele>557.46</ele>
        <time>2015-08-06T07:35:34Z</time>
      </trkpt>
      <trkpt lat="43.60068" lon="5.56088">
        <ele>561.69</ele>
        <time>2015-08-06T07:35:38Z</time>
      </trkpt>
      <trkpt lat="43.60049" lon="5.56103">
        <ele>564.42</ele>
        <time>2015-08-06T07:35:43Z</time>
      </trkpt>
      <trkpt lat="43.60035" lon="5.56122">
        <ele>566.1</ele>
        <time>2015-08-06T07:35:47Z</time>
      </trkpt>
      <trkpt lat="43.60021" lon="5.56142">
        <ele>567.34</ele>
        <time>2015-08-06T07:35:51Z</time>
      </trkpt>
      <trkpt lat="43.60009" lon="5.56161">
        <ele>568.34</ele>
        <time>2015-08-06T07:35:55Z</time>
      </trkpt>
      <trkpt lat="43.59996" lon="5.56185">
        <ele>571.35</ele>
        <time>2015-08-06T07:36:00Z</time>
      </trkpt>
      <trkpt lat="43.59986" lon="5.56209">
        <ele>573.95</ele>
        <time>2015-08-06T07:36:05Z</time>
      </trkpt>
      <trkpt lat="43.59977" lon="5.56233">
        <ele>575.92</ele>
        <time>2015-08-06T07:36:10Z</time>
      </trkpt>
      <trkpt lat="43.59961" lon="5.56246">
        <ele>576.52</ele>
        <time>2015-08-06T07:36:16Z</time>
      </trkpt>
      <trkpt lat="43.59942" lon="5.56251">
        <ele>577.61</ele>
        <time>2015-08-06T07:36:21Z</time>
      </trkpt>
      <trkpt lat="43.59923" lon="5.56271">
        <ele>580.06</ele>
        <time>2015-08-06T07:36:26Z</time>
      </trkpt>
      <trkpt lat="43.59907" lon="5.56288">
        <ele>582.71</ele>
        <time>2015-08-06T07:36:31Z</time>
      </trkpt>
      <trkpt lat="43.59891" lon="5.56302">
        <ele>583.14</ele>
        <time>2015-08-06T07:36:36Z</time>
      </trkpt>
      <trkpt lat="43.59875" lon="5.56319">
        <ele>583.37</ele>
        <time>2015-08-06T07:36:42Z</time>
      </trkpt>
      <trkpt lat="43.5986" lon="5.56334">
        <ele>583.43</ele>
        <time>2015-08-06T07:36:49Z</time>
      </trkpt>
      <trkpt lat="43.59844" lon="5.56351">
        <ele>583.52</ele>
        <time>2015-08-06T07:36:55Z</time>
      </trkpt>
      <trkpt lat="43.59828" lon="5.56368">
        <ele>583.69</ele>
        <time>2015-08-06T07:37:00Z</time>
      </trkpt>
      <trkpt lat="43.59812" lon="5.56386">
        <ele>584.05</ele>
        <time>2015-08-06T07:37:05Z</time>
      </trkpt>
      <trkpt lat="43.59792" lon="5.56399">
        <ele>583.54</ele>
        <time>2015-08-06T07:37:10Z</time>
      </trkpt>
      <trkpt lat="43.59773" lon="5.56408">
        <ele>582.51</ele>
        <time>2015-08-06T07:37:14Z</time>
      </trkpt>
      <trkpt lat="43.59755" lon="5.5642">
        <ele>580.87</ele>
        <time>2015-08-06T07:37:18Z</time>
      </trkpt>
      <trkpt lat="43.59738" lon="5.56433">
        <ele>579.39</ele>
        <time>2015-08-06T07:37:22Z</time>
      </trkpt>
      <trkpt lat="43.59719" lon="5.56442">
        <ele>579.01</ele>
        <time>2015-08-06T07:37:27Z</time>
      </trkpt>
      <trkpt lat="43.59703" lon="5.56461">
        <ele>578.18</ele>
        <time>2015-08-06T07:37:32Z</time>
      </trkpt>
      <trkpt lat="43.59689" lon="5.56481">
        <ele>575.62</ele>
        <time>2015-08-06T07:37:37Z</time>
      </trkpt>
      <trkpt lat="43.59676" lon="5.56502">
        <ele>575.32</ele>
        <time>2015-08-06T07:37:42Z</time>
      </trkpt>
      <trkpt lat="43.59665" lon="5.56522">
        <ele>575.48</ele>
        <time>2015-08-06T07:37:48Z</time>
      </trkpt>
      <trkpt lat="43.59653" lon="5.56541">
        <ele>575.64</ele>
        <time>2015-08-06T07:37:53Z</time>
      </trkpt>
      <trkpt lat="43.5964" lon="5.5656">
        <ele>575.58</ele>
        <time>2015-08-06T07:37:58Z</time>
      </trkpt>
      <trkpt lat="43.59623" lon="5.56578">
        <ele>575.07</ele>
        <time>2015-08-06T07:38:03Z</time>
      </trkpt>
      <trkpt lat="43.59606" lon="5.5659">
        <ele>574.88</ele>
        <time>2015-08-06T07:38:07Z</time>
      </trkpt>
      <trkpt lat="43.59588" lon="5.56604">
        <ele>574.91</ele>
        <time>2015-08-06T07:38:13Z</time>
      </trkpt>
      <trkpt lat="43.59569" lon="5.56604">
        <ele>575.28</ele>
        <time>2015-08-06T07:38:20Z</time>
      </trkpt>
      <trkpt lat="43.59561" lon="5.56582">
        <ele>575.35</ele>
        <time>2015-08-06T07:38:24Z</time>
      </trkpt>
      <trkpt lat="43.59553" lon="5.56556">
        <ele>575.35</ele>
        <time>2015-08-06T07:38:30Z</time>
      </trkpt>
      <trkpt lat="43.59547" lon="5.56533">
        <ele>575.33</ele>
        <time>2015-08-06T07:38:37Z</time>
      </trkpt>
      <trkpt lat="43.5955" lon="5.56504">
        <ele>575.11</ele>
        <time>2015-08-06T07:38:43Z</time>
      </trkpt>
      <trkpt lat="43.59548" lon="5.56474">
        <ele>574.22</ele>
        <time>2015-08-06T07:38:48Z</time>
      </trkpt>
      <trkpt lat="43.59544" lon="5.56448">
        <ele>572.3</ele>
        <time>2015-08-06T07:38:52Z</time>
      </trkpt>
      <trkpt lat="43.5954" lon="5.56417">
        <ele>570.58</ele>
        <time>2015-08-06T07:38:57Z</time>
      </trkpt>
      <trkpt lat="43.59538" lon="5.56391">
        <ele>570.96</ele>
        <time>2015-08-06T07:39:01Z</time>
      </trkpt>
      <trkpt lat="43.59539" lon="5.56361">
        <ele>571.53</ele>
        <time>2015-08-06T07:39:06Z</time>
      </trkpt>
      <trkpt lat="43.59544" lon="5.56333">
        <ele>571.81</ele>
        <time>2015-08-06T07:39:12Z</time>
      </trkpt>
      <trkpt lat="43.59544" lon="5.56306">
        <ele>571.89</ele>
        <time>2015-08-06T07:39:17Z</time>
      </trkpt>
      <trkpt lat="43.59541" lon="5.56276">
        <ele>570.79</ele>
        <time>2015-08-06T07:39:22Z</time>
      </trkpt>
      <trkpt lat="43.5954" lon="5.5625">
        <ele>568.51</ele>
        <time>2015-08-06T07:39:26Z</time>
      </trkpt>
      <trkpt lat="43.5954" lon="5.56222">
        <ele>566.82</ele>
        <time>2015-08-06T07:39:30Z</time>
      </trkpt>
      <trkpt lat="43.5954" lon="5.56196">
        <ele>566.34</ele>
        <time>2015-08-06T07:39:34Z</time>
      </trkpt>
      <trkpt lat="43.59539" lon="5.5617">
        <ele>565.97</ele>
        <time>2015-08-06T07:39:38Z</time>
      </trkpt>
      <trkpt lat="43.59538" lon="5.56143">
        <ele>565.48</ele>
        <time>2015-08-06T07:39:42Z</time>
      </trkpt>
      <trkpt lat="43.59537" lon="5.56114">
        <ele>563.89</ele>
        <time>2015-08-06T07:39:47Z</time>
      </trkpt>
      <trkpt lat="43.59533" lon="5.56085">
        <ele>561.14</ele>
        <time>2015-08-06T07:39:52Z</time>
      </trkpt>
      <trkpt lat="43.5953" lon="5.56055">
        <ele>559.04</ele>
        <time>2015-08-06T07:39:57Z</time>
      </trkpt>
      <trkpt lat="43.59525" lon="5.56029">
        <ele>558.59</ele>
        <time>2015-08-06T07:40:02Z</time>
      </trkpt>
      <trkpt lat="43.5951" lon="5.56012">
        <ele>558.95</ele>
        <time>2015-08-06T07:40:13Z</time>
      </trkpt>
      <trkpt lat="43.59491" lon="5.55999">
        <ele>558.67</ele>
        <time>2015-08-06T07:40:19Z</time>
      </trkpt>
      <trkpt lat="43.5947" lon="5.5599">
        <ele>556.71</ele>
        <time>2015-08-06T07:40:24Z</time>
      </trkpt>
      <trkpt lat="43.59449" lon="5.5599">
        <ele>555.82</ele>
        <time>2015-08-06T07:40:29Z</time>
      </trkpt>
      <trkpt lat="43.5943" lon="5.55989">
        <ele>554.2</ele>
        <time>2015-08-06T07:40:33Z</time>
      </trkpt>
      <trkpt lat="43.59409" lon="5.55981">
        <ele>554.22</ele>
        <time>2015-08-06T07:40:38Z</time>
      </trkpt>
      <trkpt lat="43.59391" lon="5.55974">
        <ele>552.18</ele>
        <time>2015-08-06T07:40:42Z</time>
      </trkpt>
      <trkpt lat="43.59369" lon="5.55977">
        <ele>549.37</ele>
        <time>2015-08-06T07:40:47Z</time>
      </trkpt>
      <trkpt lat="43.59355" lon="5.55992">
        <ele>548.73</ele>
        <time>2015-08-06T07:40:51Z</time>
      </trkpt>
      <trkpt lat="43.5934" lon="5.56008">
        <ele>548.65</ele>
        <time>2015-08-06T07:40:55Z</time>
      </trkpt>
      <trkpt lat="43.5932" lon="5.56005">
        <ele>547.64</ele>
        <time>2015-08-06T07:41:02Z</time>
      </trkpt>
      <trkpt lat="43.59301" lon="5.56019">
        <ele>546.91</ele>
        <time>2015-08-06T07:41:10Z</time>
      </trkpt>
      <trkpt lat="43.59284" lon="5.56033">
        <ele>546.38</ele>
        <time>2015-08-06T07:41:15Z</time>
      </trkpt>
      <trkpt lat="43.59266" lon="5.56044">
        <ele>545.76</ele>
        <time>2015-08-06T07:41:20Z</time>
      </trkpt>
      <trkpt lat="43.59253" lon="5.56061">
        <ele>543.59</ele>
        <time>2015-08-06T07:41:59Z</time>
      </trkpt>
      <trkpt lat="43.59236" lon="5.56071">
        <ele>542.25</ele>
        <time>2015-08-06T08:30:53Z</time>
      </trkpt>
      <trkpt lat="43.59217" lon="5.56076">
        <ele>541.41</ele>
        <time>2015-08-06T08:31:00Z</time>
      </trkpt>
      <trkpt lat="43.59197" lon="5.56074">
        <ele>540.29</ele>
        <time>2015-08-06T08:31:08Z</time>
      </trkpt>
      <trkpt lat="43.59178" lon="5.56069">
        <ele>539.59</ele>
        <time>2015-08-06T08:31:17Z</time>
      </trkpt>
      <trkpt lat="43.59159" lon="5.56074">
        <ele>538.97</ele>
        <time>2015-08-06T08:31:24Z</time>
      </trkpt>
      <trkpt lat="43.59139" lon="5.56083">
        <ele>538.4</ele>
        <time>2015-08-06T08:31:30Z</time>
      </trkpt>
      <trkpt lat="43.5912" lon="5.56086">
        <ele>537.37</ele>
        <time>2015-08-06T08:31:37Z</time>
      </trkpt>
      <trkpt lat="43.59104" lon="5.56097">
        <ele>535.41</ele>
        <time>2015-08-06T08:31:46Z</time>
      </trkpt>
      <trkpt lat="43.59085" lon="5.56093">
        <ele>533.97</ele>
        <time>2015-08-06T08:31:56Z</time>
      </trkpt>
      <trkpt lat="43.5907" lon="5.56075">
        <ele>532.87</ele>
        <time>2015-08-06T08:32:03Z</time>
      </trkpt>
      <trkpt lat="43.59061" lon="5.56053">
        <ele>531.8</ele>
        <time>2015-08-06T08:32:09Z</time>
      </trkpt>
      <trkpt lat="43.59045" lon="5.56033">
        <ele>530.98</ele>
        <time>2015-08-06T08:32:15Z</time>
      </trkpt>
      <trkpt lat="43.59029" lon="5.56018">
        <ele>530.14</ele>
        <time>2015-08-06T08:32:23Z</time>
      </trkpt>
      <trkpt lat="43.5901" lon="5.56004">
        <ele>528.94</ele>
        <time>2015-08-06T08:32:31Z</time>
      </trkpt>
      <trkpt lat="43.58994" lon="5.55994">
        <ele>527.85</ele>
        <time>2015-08-06T08:32:37Z</time>
      </trkpt>
      <trkpt lat="43.58976" lon="5.55994">
        <ele>526.57</ele>
        <time>2015-08-06T08:32:44Z</time>
      </trkpt>
      <trkpt lat="43.58957" lon="5.55999">
        <ele>525.53</ele>
        <time>2015-08-06T08:32:50Z</time>
      </trkpt>
      <trkpt lat="43.58936" lon="5.55998">
        <ele>524.68</ele>
        <time>2015-08-06T08:32:55Z</time>
      </trkpt>
      <trkpt lat="43.58918" lon="5.55988">
        <ele>523.57</ele>
        <time>2015-08-06T08:33:01Z</time>
      </trkpt>
      <trkpt lat="43.58901" lon="5.55976">
        <ele>522.31</ele>
        <time>2015-08-06T08:33:07Z</time>
      </trkpt>
      <trkpt lat="43.58892" lon="5.55954">
        <ele>520.49</ele>
        <time>2015-08-06T08:33:28Z</time>
      </trkpt>
      <trkpt lat="43.58876" lon="5.55965">
        <ele>520.37</ele>
        <time>2015-08-06T08:34:00Z</time>
      </trkpt>
      <trkpt lat="43.58857" lon="5.55973">
        <ele>518.8</ele>
        <time>2015-08-06T08:34:08Z</time>
      </trkpt>
      <trkpt lat="43.5884" lon="5.55984">
        <ele>517.59</ele>
        <time>2015-08-06T08:34:15Z</time>
      </trkpt>
      <trkpt lat="43.58821" lon="5.55992">
        <ele>516.31</ele>
        <time>2015-08-06T08:34:22Z</time>
      </trkpt>
      <trkpt lat="43.58803" lon="5.55991">
        <ele>514.89</ele>
        <time>2015-08-06T08:34:29Z</time>
      </trkpt>
      <trkpt lat="43.58785" lon="5.55982">
        <ele>513.4</ele>
        <time>2015-08-06T08:34:36Z</time>
      </trkpt>
      <trkpt lat="43.58766" lon="5.55994">
        <ele>511.96</ele>
        <time>2015-08-06T08:34:43Z</time>
      </trkpt>
      <trkpt lat="43.58756" lon="5.56016">
        <ele>510.7</ele>
        <time>2015-08-06T08:34:49Z</time>
      </trkpt>
      <trkpt lat="43.58744" lon="5.56035">
        <ele>509.82</ele>
        <time>2015-08-06T08:34:55Z</time>
      </trkpt>
      <trkpt lat="43.58724" lon="5.56042">
        <ele>506.29</ele>
        <time>2015-08-06T08:35:01Z</time>
      </trkpt>
      <trkpt lat="43.58705" lon="5.56045">
        <ele>496.67</ele>
        <time>2015-08-06T08:35:06Z</time>
      </trkpt>
      <trkpt lat="43.58687" lon="5.56039">
        <ele>493.69</ele>
        <time>2015-08-06T08:35:11Z</time>
      </trkpt>
      <trkpt lat="43.5867" lon="5.56028">
        <ele>493.16</ele>
        <time>2015-08-06T08:35:19Z</time>
      </trkpt>
      <trkpt lat="43.58668" lon="5.55999">
        <ele>492.44</ele>
        <time>2015-08-06T08:35:25Z</time>
      </trkpt>
      <trkpt lat="43.58665" lon="5.55971">
        <ele>491.38</ele>
        <time>2015-08-06T08:35:32Z</time>
      </trkpt>
      <trkpt lat="43.58661" lon="5.55944">
        <ele>490.34</ele>
        <time>2015-08-06T08:35:38Z</time>
      </trkpt>
      <trkpt lat="43.58653" lon="5.55919">
        <ele>489.64</ele>
        <time>2015-08-06T08:35:44Z</time>
      </trkpt>
      <trkpt lat="43.58638" lon="5.55899">
        <ele>489.07</ele>
        <time>2015-08-06T08:35:50Z</time>
      </trkpt>
      <trkpt lat="43.58622" lon="5.55887">
        <ele>488.3</ele>
        <time>2015-08-06T08:35:55Z</time>
      </trkpt>
      <trkpt lat="43.58602" lon="5.55877">
        <ele>486.4</ele>
        <time>2015-08-06T08:36:01Z</time>
      </trkpt>
      <trkpt lat="43.58583" lon="5.55873">
        <ele>485.95</ele>
        <time>2015-08-06T08:36:07Z</time>
      </trkpt>
      <trkpt lat="43.58563" lon="5.55883">
        <ele>485.88</ele>
        <time>2015-08-06T08:36:13Z</time>
      </trkpt>
      <trkpt lat="43.58545" lon="5.55891">
        <ele>485.63</ele>
        <time>2015-08-06T08:36:19Z</time>
      </trkpt>
      <trkpt lat="43.58528" lon="5.55904">
        <ele>485.35</ele>
        <time>2015-08-06T08:36:25Z</time>
      </trkpt>
      <trkpt lat="43.58511" lon="5.55915">
        <ele>483.8</ele>
        <time>2015-08-06T08:36:31Z</time>
      </trkpt>
      <trkpt lat="43.58496" lon="5.55935">
        <ele>482.76</ele>
        <time>2015-08-06T08:36:37Z</time>
      </trkpt>
      <trkpt lat="43.58481" lon="5.55954">
        <ele>480.26</ele>
        <time>2015-08-06T08:36:42Z</time>
      </trkpt>
      <trkpt lat="43.58468" lon="5.55971">
        <ele>478.06</ele>
        <time>2015-08-06T08:36:46Z</time>
      </trkpt>
      <trkpt lat="43.58451" lon="5.55984">
        <ele>476.54</ele>
        <time>2015-08-06T08:36:51Z</time>
      </trkpt>
      <trkpt lat="43.58432" lon="5.55983">
        <ele>475.35</ele>
        <time>2015-08-06T08:36:56Z</time>
      </trkpt>
      <trkpt lat="43.58414" lon="5.55972">
        <ele>474.31</ele>
        <time>2015-08-06T08:37:02Z</time>
      </trkpt>
      <trkpt lat="43.58399" lon="5.55957">
        <ele>473.3</ele>
        <time>2015-08-06T08:37:07Z</time>
      </trkpt>
      <trkpt lat="43.58382" lon="5.5594">
        <ele>471.9</ele>
        <time>2015-08-06T08:37:13Z</time>
      </trkpt>
      <trkpt lat="43.58373" lon="5.55916">
        <ele>470.65</ele>
        <time>2015-08-06T08:37:19Z</time>
      </trkpt>
      <trkpt lat="43.58359" lon="5.559">
        <ele>469.59</ele>
        <time>2015-08-06T08:37:25Z</time>
      </trkpt>
      <trkpt lat="43.58345" lon="5.55883">
        <ele>468.54</ele>
        <time>2015-08-06T08:37:31Z</time>
      </trkpt>
      <trkpt lat="43.58331" lon="5.55865">
        <ele>467.18</ele>
        <time>2015-08-06T08:37:39Z</time>
      </trkpt>
      <trkpt lat="43.58322" lon="5.5584">
        <ele>465.91</ele>
        <time>2015-08-06T08:37:45Z</time>
      </trkpt>
      <trkpt lat="43.58319" lon="5.55813">
        <ele>464.74</ele>
        <time>2015-08-06T08:37:50Z</time>
      </trkpt>
      <trkpt lat="43.58314" lon="5.55788">
        <ele>463.36</ele>
        <time>2015-08-06T08:37:57Z</time>
      </trkpt>
      <trkpt lat="43.58307" lon="5.55763">
        <ele>462.27</ele>
        <time>2015-08-06T08:38:06Z</time>
      </trkpt>
      <trkpt lat="43.5829" lon="5.55747">
        <ele>461.28</ele>
        <time>2015-08-06T08:38:13Z</time>
      </trkpt>
      <trkpt lat="43.58271" lon="5.55755">
        <ele>460.48</ele>
        <time>2015-08-06T08:38:19Z</time>
      </trkpt>
      <trkpt lat="43.58251" lon="5.55758">
        <ele>459.68</ele>
        <time>2015-08-06T08:38:26Z</time>
      </trkpt>
      <trkpt lat="43.58231" lon="5.55767">
        <ele>457.54</ele>
        <time>2015-08-06T08:38:32Z</time>
      </trkpt>
      <trkpt lat="43.58212" lon="5.55766">
        <ele>454.23</ele>
        <time>2015-08-06T08:38:38Z</time>
      </trkpt>
      <trkpt lat="43.58195" lon="5.55757">
        <ele>453.24</ele>
        <time>2015-08-06T08:38:43Z</time>
      </trkpt>
      <trkpt lat="43.58179" lon="5.55739">
        <ele>451.92</ele>
        <time>2015-08-06T08:38:49Z</time>
      </trkpt>
      <trkpt lat="43.58167" lon="5.5572">
        <ele>450.85</ele>
        <time>2015-08-06T08:38:54Z</time>
      </trkpt>
      <trkpt lat="43.58161" lon="5.55691">
        <ele>449.69</ele>
        <time>2015-08-06T08:39:00Z</time>
      </trkpt>
      <trkpt lat="43.58158" lon="5.55663">
        <ele>448.6</ele>
        <time>2015-08-06T08:39:05Z</time>
      </trkpt>
      <trkpt lat="43.58155" lon="5.55636">
        <ele>447.56</ele>
        <time>2015-08-06T08:39:10Z</time>
      </trkpt>
      <trkpt lat="43.58152" lon="5.55609">
        <ele>446.17</ele>
        <time>2015-08-06T08:39:16Z</time>
      </trkpt>
      <trkpt lat="43.58145" lon="5.55586">
        <ele>445.03</ele>
        <time>2015-08-06T08:39:21Z</time>
      </trkpt>
      <trkpt lat="43.5813" lon="5.55565">
        <ele>441.29</ele>
        <time>2015-08-06T08:39:27Z</time>
      </trkpt>
      <trkpt lat="43.58112" lon="5.55558">
        <ele>437.34</ele>
        <time>2015-08-06T08:39:31Z</time>
      </trkpt>
      <trkpt lat="43.58094" lon="5.55549">
        <ele>434.83</ele>
        <time>2015-08-06T08:39:36Z</time>
      </trkpt>
      <trkpt lat="43.58079" lon="5.55528">
        <ele>433.75</ele>
        <time>2015-08-06T08:39:48Z</time>
      </trkpt>
      <trkpt lat="43.58058" lon="5.55523">
        <ele>433.34</ele>
        <time>2015-08-06T08:39:53Z</time>
      </trkpt>
      <trkpt lat="43.58042" lon="5.55506">
        <ele>433.8</ele>
        <time>2015-08-06T08:39:58Z</time>
      </trkpt>
      <trkpt lat="43.58038" lon="5.55478">
        <ele>436.88</ele>
        <time>2015-08-06T08:40:03Z</time>
      </trkpt>
      <trkpt lat="43.58038" lon="5.55453">
        <ele>438.63</ele>
        <time>2015-08-06T08:40:07Z</time>
      </trkpt>
      <trkpt lat="43.58036" lon="5.55421">
        <ele>441.57</ele>
        <time>2015-08-06T08:40:12Z</time>
      </trkpt>
      <trkpt lat="43.58029" lon="5.55392">
        <ele>444.12</ele>
        <time>2015-08-06T08:40:17Z</time>
      </trkpt>
      <trkpt lat="43.58021" lon="5.55364">
        <ele>446.83</ele>
        <time>2015-08-06T08:40:21Z</time>
      </trkpt>
      <trkpt lat="43.58011" lon="5.55338">
        <ele>446.79</ele>
        <time>2015-08-06T08:40:25Z</time>
      </trkpt>
      <trkpt lat="43.58003" lon="5.55311">
        <ele>448.14</ele>
        <time>2015-08-06T08:40:29Z</time>
      </trkpt>
      <trkpt lat="43.57998" lon="5.55285">
        <ele>450.48</ele>
        <time>2015-08-06T08:40:33Z</time>
      </trkpt>
      <trkpt lat="43.57993" lon="5.5526">
        <ele>453.46</ele>
        <time>2015-08-06T08:40:37Z</time>
      </trkpt>
      <trkpt lat="43.5799" lon="5.55236">
        <ele>456.27</ele>
        <time>2015-08-06T08:40:41Z</time>
      </trkpt>
      <trkpt lat="43.57987" lon="5.55208">
        <ele>459.34</ele>
        <time>2015-08-06T08:40:45Z</time>
      </trkpt>
      <trkpt lat="43.57986" lon="5.55181">
        <ele>461.22</ele>
        <time>2015-08-06T08:40:49Z</time>
      </trkpt>
      <trkpt lat="43.57987" lon="5.55151">
        <ele>461.92</ele>
        <time>2015-08-06T08:40:53Z</time>
      </trkpt>
      <trkpt lat="43.57994" lon="5.55126">
        <ele>463.45</ele>
        <time>2015-08-06T08:40:57Z</time>
      </trkpt>
      <trkpt lat="43.58002" lon="5.55104">
        <ele>464.6</ele>
        <time>2015-08-06T08:41:01Z</time>
      </trkpt>
      <trkpt lat="43.58014" lon="5.55079">
        <ele>465.69</ele>
        <time>2015-08-06T08:41:06Z</time>
      </trkpt>
      <trkpt lat="43.58018" lon="5.55054">
        <ele>468.6</ele>
        <time>2015-08-06T08:41:11Z</time>
      </trkpt>
      <trkpt lat="43.58036" lon="5.55064">
        <ele>475.75</ele>
        <time>2015-08-06T08:43:03Z</time>
      </trkpt>
      <trkpt lat="43.58039" lon="5.5509">
        <ele>476.3</ele>
        <time>2015-08-06T08:43:09Z</time>
      </trkpt>
      <trkpt lat="43.58048" lon="5.55064">
        <ele>477.4</ele>
        <time>2015-08-06T08:43:17Z</time>
      </trkpt>
      <trkpt lat="43.58062" lon="5.55047">
        <ele>478.34</ele>
        <time>2015-08-06T08:43:23Z</time>
      </trkpt>
      <trkpt lat="43.58075" lon="5.55063">
        <ele>480.05</ele>
        <time>2015-08-06T08:43:31Z</time>
      </trkpt>
      <trkpt lat="43.58081" lon="5.55087">
        <ele>481.32</ele>
        <time>2015-08-06T08:43:36Z</time>
      </trkpt>
      <trkpt lat="43.58087" lon="5.55115">
        <ele>489.27</ele>
        <time>2015-08-06T08:43:41Z</time>
      </trkpt>
      <trkpt lat="43.58092" lon="5.55142">
        <ele>494.18</ele>
        <time>2015-08-06T08:43:46Z</time>
      </trkpt>
      <trkpt lat="43.58098" lon="5.55172">
        <ele>497.31</ele>
        <time>2015-08-06T08:43:51Z</time>
      </trkpt>
      <trkpt lat="43.58102" lon="5.55198">
        <ele>499.93</ele>
        <time>2015-08-06T08:43:56Z</time>
      </trkpt>
      <trkpt lat="43.58106" lon="5.55225">
        <ele>502.9</ele>
        <time>2015-08-06T08:44:01Z</time>
      </trkpt>
      <trkpt lat="43.58111" lon="5.55251">
        <ele>506.22</ele>
        <time>2015-08-06T08:44:06Z</time>
      </trkpt>
      <trkpt lat="43.5812" lon="5.55275">
        <ele>508.48</ele>
        <time>2015-08-06T08:44:11Z</time>
      </trkpt>
      <trkpt lat="43.58135" lon="5.55296">
        <ele>513.12</ele>
        <time>2015-08-06T08:44:16Z</time>
      </trkpt>
      <trkpt lat="43.58153" lon="5.55312">
        <ele>515.92</ele>
        <time>2015-08-06T08:44:21Z</time>
      </trkpt>
      <trkpt lat="43.58171" lon="5.5532">
        <ele>517.96</ele>
        <time>2015-08-06T08:44:26Z</time>
      </trkpt>
      <trkpt lat="43.5819" lon="5.55328">
        <ele>519.44</ele>
        <time>2015-08-06T08:44:31Z</time>
      </trkpt>
      <trkpt lat="43.5821" lon="5.55336">
        <ele>521.47</ele>
        <time>2015-08-06T08:44:36Z</time>
      </trkpt>
      <trkpt lat="43.58228" lon="5.55338">
        <ele>523.32</ele>
        <time>2015-08-06T08:44:40Z</time>
      </trkpt>
      <trkpt lat="43.58249" lon="5.55337">
        <ele>524.49</ele>
        <time>2015-08-06T08:44:45Z</time>
      </trkpt>
      <trkpt lat="43.58268" lon="5.55341">
        <ele>524.46</ele>
        <time>2015-08-06T08:44:49Z</time>
      </trkpt>
      <trkpt lat="43.58289" lon="5.5535">
        <ele>523.73</ele>
        <time>2015-08-06T08:44:53Z</time>
      </trkpt>
      <trkpt lat="43.5831" lon="5.55362">
        <ele>522.7</ele>
        <time>2015-08-06T08:44:57Z</time>
      </trkpt>
      <trkpt lat="43.58332" lon="5.55375">
        <ele>521.44</ele>
        <time>2015-08-06T08:45:01Z</time>
      </trkpt>
      <trkpt lat="43.58351" lon="5.55386">
        <ele>521.85</ele>
        <time>2015-08-06T08:45:04Z</time>
      </trkpt>
      <trkpt lat="43.58372" lon="5.55389">
        <ele>524.41</ele>
        <time>2015-08-06T08:45:08Z</time>
      </trkpt>
      <trkpt lat="43.58394" lon="5.55396">
        <ele>528.49</ele>
        <time>2015-08-06T08:45:13Z</time>
      </trkpt>
      <trkpt lat="43.58411" lon="5.55407">
        <ele>529.38</ele>
        <time>2015-08-06T08:45:18Z</time>
      </trkpt>
      <trkpt lat="43.58429" lon="5.55411">
        <ele>529.81</ele>
        <time>2015-08-06T08:45:24Z</time>
      </trkpt>
      <trkpt lat="43.5845" lon="5.55414">
        <ele>532.86</ele>
        <time>2015-08-06T08:45:30Z</time>
      </trkpt>
      <trkpt lat="43.58462" lon="5.55437">
        <ele>534.74</ele>
        <time>2015-08-06T08:45:34Z</time>
      </trkpt>
      <trkpt lat="43.58472" lon="5.55459">
        <ele>535.98</ele>
        <time>2015-08-06T08:45:37Z</time>
      </trkpt>
      <trkpt lat="43.58482" lon="5.55488">
        <ele>537.12</ele>
        <time>2015-08-06T08:45:41Z</time>
      </trkpt>
      <trkpt lat="43.58488" lon="5.55517">
        <ele>538.22</ele>
        <time>2015-08-06T08:45:45Z</time>
      </trkpt>
      <trkpt lat="43.58492" lon="5.55545">
        <ele>539.62</ele>
        <time>2015-08-06T08:45:49Z</time>
      </trkpt>
      <trkpt lat="43.585" lon="5.55571">
        <ele>540.74</ele>
        <time>2015-08-06T08:45:53Z</time>
      </trkpt>
      <trkpt lat="43.58515" lon="5.5559">
        <ele>542.96</ele>
        <time>2015-08-06T08:45:58Z</time>
      </trkpt>
      <trkpt lat="43.58534" lon="5.55605">
        <ele>544.39</ele>
        <time>2015-08-06T08:46:03Z</time>
      </trkpt>
      <trkpt lat="43.58552" lon="5.55616">
        <ele>544.3</ele>
        <time>2015-08-06T08:46:07Z</time>
      </trkpt>
      <trkpt lat="43.58573" lon="5.55626">
        <ele>543.75</ele>
        <time>2015-08-06T08:46:11Z</time>
      </trkpt>
      <trkpt lat="43.58592" lon="5.55636">
        <ele>542.21</ele>
        <time>2015-08-06T08:46:15Z</time>
      </trkpt>
      <trkpt lat="43.58612" lon="5.55644">
        <ele>541.27</ele>
        <time>2015-08-06T08:46:18Z</time>
      </trkpt>
      <trkpt lat="43.5863" lon="5.5565">
        <ele>541.4</ele>
        <time>2015-08-06T08:46:21Z</time>
      </trkpt>
      <trkpt lat="43.58648" lon="5.55653">
        <ele>542.6</ele>
        <time>2015-08-06T08:46:24Z</time>
      </trkpt>
      <trkpt lat="43.58666" lon="5.55649">
        <ele>542.71</ele>
        <time>2015-08-06T08:46:27Z</time>
      </trkpt>
      <trkpt lat="43.58689" lon="5.55649">
        <ele>542.71</ele>
        <time>2015-08-06T08:46:31Z</time>
      </trkpt>
      <trkpt lat="43.58709" lon="5.55659">
        <ele>544.61</ele>
        <time>2015-08-06T08:46:35Z</time>
      </trkpt>
      <trkpt lat="43.5872" lon="5.55683">
        <ele>544.58</ele>
        <time>2015-08-06T08:46:39Z</time>
      </trkpt>
      <trkpt lat="43.58731" lon="5.55704">
        <ele>544.85</ele>
        <time>2015-08-06T08:46:43Z</time>
      </trkpt>
      <trkpt lat="43.58753" lon="5.55711">
        <ele>547.44</ele>
        <time>2015-08-06T08:46:48Z</time>
      </trkpt>
      <trkpt lat="43.58775" lon="5.5571">
        <ele>547.87</ele>
        <time>2015-08-06T08:46:52Z</time>
      </trkpt>
      <trkpt lat="43.58795" lon="5.5571">
        <ele>548.96</ele>
        <time>2015-08-06T08:46:56Z</time>
      </trkpt>
      <trkpt lat="43.58814" lon="5.55704">
        <ele>550.3</ele>
        <time>2015-08-06T08:46:59Z</time>
      </trkpt>
      <trkpt lat="43.58835" lon="5.55697">
        <ele>550.31</ele>
        <time>2015-08-06T08:47:02Z</time>
      </trkpt>
      <trkpt lat="43.58857" lon="5.55685">
        <ele>551.08</ele>
        <time>2015-08-06T08:47:06Z</time>
      </trkpt>
      <trkpt lat="43.58873" lon="5.55673">
        <ele>551.95</ele>
        <time>2015-08-06T08:47:09Z</time>
      </trkpt>
      <trkpt lat="43.5889" lon="5.55658">
        <ele>553.23</ele>
        <time>2015-08-06T08:47:13Z</time>
      </trkpt>
      <trkpt lat="43.58908" lon="5.5565">
        <ele>553.4</ele>
        <time>2015-08-06T08:47:17Z</time>
      </trkpt>
      <trkpt lat="43.58927" lon="5.55657">
        <ele>552.59</ele>
        <time>2015-08-06T08:47:21Z</time>
      </trkpt>
      <trkpt lat="43.58944" lon="5.5568">
        <ele>552.17</ele>
        <time>2015-08-06T08:47:25Z</time>
      </trkpt>
      <trkpt lat="43.58959" lon="5.557">
        <ele>551.74</ele>
        <time>2015-08-06T08:47:29Z</time>
      </trkpt>
      <trkpt lat="43.58974" lon="5.55719">
        <ele>551.97</ele>
        <time>2015-08-06T08:47:33Z</time>
      </trkpt>
      <trkpt lat="43.58992" lon="5.55737">
        <ele>552.88</ele>
        <time>2015-08-06T08:47:37Z</time>
      </trkpt>
      <trkpt lat="43.59009" lon="5.55756">
        <ele>553.14</ele>
        <time>2015-08-06T08:47:41Z</time>
      </trkpt>
      <trkpt lat="43.59027" lon="5.55779">
        <ele>552.87</ele>
        <time>2015-08-06T08:47:45Z</time>
      </trkpt>
      <trkpt lat="43.59044" lon="5.55794">
        <ele>552.82</ele>
        <time>2015-08-06T08:47:48Z</time>
      </trkpt>
      <trkpt lat="43.59063" lon="5.55803">
        <ele>552.85</ele>
        <time>2015-08-06T08:47:51Z</time>
      </trkpt>
      <trkpt lat="43.59085" lon="5.55808">
        <ele>552.75</ele>
        <time>2015-08-06T08:47:55Z</time>
      </trkpt>
      <trkpt lat="43.59103" lon="5.55822">
        <ele>552.63</ele>
        <time>2015-08-06T08:47:59Z</time>
      </trkpt>
      <trkpt lat="43.5912" lon="5.55837">
        <ele>553.47</ele>
        <time>2015-08-06T08:48:03Z</time>
      </trkpt>
      <trkpt lat="43.59138" lon="5.55847">
        <ele>555.2</ele>
        <time>2015-08-06T08:48:07Z</time>
      </trkpt>
      <trkpt lat="43.59159" lon="5.55854">
        <ele>559.01</ele>
        <time>2015-08-06T08:48:11Z</time>
      </trkpt>
      <trkpt lat="43.59177" lon="5.5586">
        <ele>562.05</ele>
        <time>2015-08-06T08:48:15Z</time>
      </trkpt>
      <trkpt lat="43.59196" lon="5.55854">
        <ele>563.21</ele>
        <time>2015-08-06T08:48:19Z</time>
      </trkpt>
      <trkpt lat="43.59218" lon="5.55852">
        <ele>562.69</ele>
        <time>2015-08-06T08:48:24Z</time>
      </trkpt>
      <trkpt lat="43.5924" lon="5.55855">
        <ele>562.03</ele>
        <time>2015-08-06T08:48:29Z</time>
      </trkpt>
      <trkpt lat="43.59258" lon="5.55857">
        <ele>561.75</ele>
        <time>2015-08-06T08:48:33Z</time>
      </trkpt>
      <trkpt lat="43.59276" lon="5.55858">
        <ele>562.72</ele>
        <time>2015-08-06T08:48:37Z</time>
      </trkpt>
      <trkpt lat="43.59297" lon="5.55854">
        <ele>563.32</ele>
        <time>2015-08-06T08:48:42Z</time>
      </trkpt>
      <trkpt lat="43.59319" lon="5.55848">
        <ele>564.2</ele>
        <time>2015-08-06T08:48:47Z</time>
      </trkpt>
      <trkpt lat="43.59338" lon="5.55842">
        <ele>564.76</ele>
        <time>2015-08-06T08:48:51Z</time>
      </trkpt>
      <trkpt lat="43.59356" lon="5.55835">
        <ele>564.5</ele>
        <time>2015-08-06T08:48:55Z</time>
      </trkpt>
      <trkpt lat="43.59378" lon="5.55835">
        <ele>563.34</ele>
        <time>2015-08-06T08:49:00Z</time>
      </trkpt>
      <trkpt lat="43.59398" lon="5.55842">
        <ele>562.2</ele>
        <time>2015-08-06T08:49:04Z</time>
      </trkpt>
      <trkpt lat="43.59417" lon="5.55851">
        <ele>561.46</ele>
        <time>2015-08-06T08:49:08Z</time>
      </trkpt>
      <trkpt lat="43.59433" lon="5.55863">
        <ele>561.46</ele>
        <time>2015-08-06T08:49:12Z</time>
      </trkpt>
      <trkpt lat="43.59454" lon="5.55858">
        <ele>562.2</ele>
        <time>2015-08-06T08:49:17Z</time>
      </trkpt>
      <trkpt lat="43.59474" lon="5.55861">
        <ele>563.57</ele>
        <time>2015-08-06T08:49:21Z</time>
      </trkpt>
      <trkpt lat="43.59491" lon="5.55879">
        <ele>564.45</ele>
        <time>2015-08-06T08:49:26Z</time>
      </trkpt>
      <trkpt lat="43.59503" lon="5.559">
        <ele>564.83</ele>
        <time>2015-08-06T08:49:31Z</time>
      </trkpt>
      <trkpt lat="43.59517" lon="5.5592">
        <ele>565.73</ele>
        <time>2015-08-06T08:49:35Z</time>
      </trkpt>
      <trkpt lat="43.5953" lon="5.55939">
        <ele>564.58</ele>
        <time>2015-08-06T08:49:38Z</time>
      </trkpt>
      <trkpt lat="43.59538" lon="5.55963">
        <ele>561.86</ele>
        <time>2015-08-06T08:49:42Z</time>
      </trkpt>
      <trkpt lat="43.59532" lon="5.55991">
        <ele>560.01</ele>
        <time>2015-08-06T08:49:46Z</time>
      </trkpt>
      <trkpt lat="43.59527" lon="5.56021">
        <ele>558.35</ele>
        <time>2015-08-06T08:49:50Z</time>
      </trkpt>
      <trkpt lat="43.59528" lon="5.56047">
        <ele>558.65</ele>
        <time>2015-08-06T08:49:54Z</time>
      </trkpt>
      <trkpt lat="43.5953" lon="5.56071">
        <ele>560.63</ele>
        <time>2015-08-06T08:49:58Z</time>
      </trkpt>
      <trkpt lat="43.59535" lon="5.56098">
        <ele>561.26</ele>
        <time>2015-08-06T08:50:03Z</time>
      </trkpt>
      <trkpt lat="43.59539" lon="5.56123">
        <ele>561.42</ele>
        <time>2015-08-06T08:50:08Z</time>
      </trkpt>
      <trkpt lat="43.59541" lon="5.5615">
        <ele>562.86</ele>
        <time>2015-08-06T08:50:13Z</time>
      </trkpt>
      <trkpt lat="43.59543" lon="5.5618">
        <ele>563.38</ele>
        <time>2015-08-06T08:50:19Z</time>
      </trkpt>
      <trkpt lat="43.59544" lon="5.56209">
        <ele>564.11</ele>
        <time>2015-08-06T08:50:24Z</time>
      </trkpt>
      <trkpt lat="43.59544" lon="5.56234">
        <ele>563.82</ele>
        <time>2015-08-06T08:50:29Z</time>
      </trkpt>
      <trkpt lat="43.59544" lon="5.56261">
        <ele>563.84</ele>
        <time>2015-08-06T08:50:34Z</time>
      </trkpt>
      <trkpt lat="43.59546" lon="5.56288">
        <ele>563.57</ele>
        <time>2015-08-06T08:50:39Z</time>
      </trkpt>
      <trkpt lat="43.59548" lon="5.56316">
        <ele>563.36</ele>
        <time>2015-08-06T08:50:44Z</time>
      </trkpt>
      <trkpt lat="43.59549" lon="5.56346">
        <ele>563.82</ele>
        <time>2015-08-06T08:50:51Z</time>
      </trkpt>
      <trkpt lat="43.59544" lon="5.56373">
        <ele>566.03</ele>
        <time>2015-08-06T08:50:56Z</time>
      </trkpt>
      <trkpt lat="43.5954" lon="5.56398">
        <ele>566.49</ele>
        <time>2015-08-06T08:51:01Z</time>
      </trkpt>
      <trkpt lat="43.59543" lon="5.56423">
        <ele>566.96</ele>
        <time>2015-08-06T08:51:06Z</time>
      </trkpt>
      <trkpt lat="43.5955" lon="5.56449">
        <ele>569.2</ele>
        <time>2015-08-06T08:51:11Z</time>
      </trkpt>
      <trkpt lat="43.59554" lon="5.56478">
        <ele>572.51</ele>
        <time>2015-08-06T08:51:16Z</time>
      </trkpt>
      <trkpt lat="43.59553" lon="5.56508">
        <ele>573.48</ele>
        <time>2015-08-06T08:51:21Z</time>
      </trkpt>
      <trkpt lat="43.59551" lon="5.56538">
        <ele>574</ele>
        <time>2015-08-06T08:51:26Z</time>
      </trkpt>
      <trkpt lat="43.59549" lon="5.56563">
        <ele>574.43</ele>
        <time>2015-08-06T08:51:30Z</time>
      </trkpt>
      <trkpt lat="43.59547" lon="5.56592">
        <ele>575.83</ele>
        <time>2015-08-06T08:51:34Z</time>
      </trkpt>
      <trkpt lat="43.59545" lon="5.56619">
        <ele>578.54</ele>
        <time>2015-08-06T08:51:38Z</time>
      </trkpt>
      <trkpt lat="43.59543" lon="5.56649">
        <ele>580.04</ele>
        <time>2015-08-06T08:51:42Z</time>
      </trkpt>
      <trkpt lat="43.59547" lon="5.56674">
        <ele>580.37</ele>
        <time>2015-08-06T08:51:46Z</time>
      </trkpt>
      <trkpt lat="43.59559" lon="5.56694">
        <ele>580.37</ele>
        <time>2015-08-06T08:51:50Z</time>
      </trkpt>
      <trkpt lat="43.59572" lon="5.56711">
        <ele>582.13</ele>
        <time>2015-08-06T08:51:54Z</time>
      </trkpt>
      <trkpt lat="43.59582" lon="5.56736">
        <ele>582.71</ele>
        <time>2015-08-06T08:51:59Z</time>
      </trkpt>
      <trkpt lat="43.59597" lon="5.56756">
        <ele>585.19</ele>
        <time>2015-08-06T08:52:04Z</time>
      </trkpt>
      <trkpt lat="43.59611" lon="5.56775">
        <ele>586.88</ele>
        <time>2015-08-06T08:52:08Z</time>
      </trkpt>
      <trkpt lat="43.59623" lon="5.56795">
        <ele>588.05</ele>
        <time>2015-08-06T08:52:12Z</time>
      </trkpt>
      <trkpt lat="43.59628" lon="5.56823">
        <ele>589.06</ele>
        <time>2015-08-06T08:52:17Z</time>
      </trkpt>
      <trkpt lat="43.59636" lon="5.56849">
        <ele>589.89</ele>
        <time>2015-08-06T08:52:22Z</time>
      </trkpt>
      <trkpt lat="43.59646" lon="5.56875">
        <ele>589.39</ele>
        <time>2015-08-06T08:52:27Z</time>
      </trkpt>
      <trkpt lat="43.5965" lon="5.56904">
        <ele>589.48</ele>
        <time>2015-08-06T08:52:32Z</time>
      </trkpt>
      <trkpt lat="43.59643" lon="5.56932">
        <ele>589.65</ele>
        <time>2015-08-06T08:52:38Z</time>
      </trkpt>
      <trkpt lat="43.59639" lon="5.56959">
        <ele>591.16</ele>
        <time>2015-08-06T08:52:42Z</time>
      </trkpt>
      <trkpt lat="43.59638" lon="5.56985">
        <ele>592.49</ele>
        <time>2015-08-06T08:52:46Z</time>
      </trkpt>
      <trkpt lat="43.59638" lon="5.57015">
        <ele>593.59</ele>
        <time>2015-08-06T08:52:51Z</time>
      </trkpt>
      <trkpt lat="43.59642" lon="5.57044">
        <ele>594.09</ele>
        <time>2015-08-06T08:52:57Z</time>
      </trkpt>
      <trkpt lat="43.59652" lon="5.57064">
        <ele>594.25</ele>
        <time>2015-08-06T08:53:05Z</time>
      </trkpt>
      <trkpt lat="43.59669" lon="5.57046">
        <ele>594.16</ele>
        <time>2015-08-06T08:53:11Z</time>
      </trkpt>
      <trkpt lat="43.59684" lon="5.57032">
        <ele>594.2</ele>
        <time>2015-08-06T08:53:16Z</time>
      </trkpt>
      <trkpt lat="43.597" lon="5.57017">
        <ele>594.16</ele>
        <time>2015-08-06T08:53:21Z</time>
      </trkpt>
      <trkpt lat="43.5972" lon="5.57014">
        <ele>593.57</ele>
        <time>2015-08-06T08:53:26Z</time>
      </trkpt>
      <trkpt lat="43.5974" lon="5.57024">
        <ele>593.8</ele>
        <time>2015-08-06T08:53:31Z</time>
      </trkpt>
      <trkpt lat="43.59757" lon="5.5704">
        <ele>594.68</ele>
        <time>2015-08-06T08:53:36Z</time>
      </trkpt>
      <trkpt lat="43.59771" lon="5.57058">
        <ele>594.53</ele>
        <time>2015-08-06T08:53:40Z</time>
      </trkpt>
      <trkpt lat="43.59791" lon="5.5707">
        <ele>593.35</ele>
        <time>2015-08-06T08:53:45Z</time>
      </trkpt>
      <trkpt lat="43.59811" lon="5.57078">
        <ele>593.45</ele>
        <time>2015-08-06T08:53:49Z</time>
      </trkpt>
      <trkpt lat="43.59833" lon="5.57086">
        <ele>593.48</ele>
        <time>2015-08-06T08:53:54Z</time>
      </trkpt>
      <trkpt lat="43.5985" lon="5.57093">
        <ele>592.67</ele>
        <time>2015-08-06T08:53:58Z</time>
      </trkpt>
      <trkpt lat="43.59866" lon="5.5711">
        <ele>592.55</ele>
        <time>2015-08-06T08:54:03Z</time>
      </trkpt>
      <trkpt lat="43.59878" lon="5.57129">
        <ele>592.57</ele>
        <time>2015-08-06T08:54:08Z</time>
      </trkpt>
      <trkpt lat="43.59897" lon="5.57137">
        <ele>592.31</ele>
        <time>2015-08-06T08:54:15Z</time>
      </trkpt>
      <trkpt lat="43.59917" lon="5.57129">
        <ele>588.2</ele>
        <time>2015-08-06T08:54:20Z</time>
      </trkpt>
      <trkpt lat="43.59937" lon="5.57124">
        <ele>584.59</ele>
        <time>2015-08-06T08:54:24Z</time>
      </trkpt>
      <trkpt lat="43.59959" lon="5.57125">
        <ele>580.98</ele>
        <time>2015-08-06T08:54:28Z</time>
      </trkpt>
      <trkpt lat="43.59979" lon="5.5713">
        <ele>577.64</ele>
        <time>2015-08-06T08:54:32Z</time>
      </trkpt>
      <trkpt lat="43.59997" lon="5.57135">
        <ele>574.66</ele>
        <time>2015-08-06T08:54:36Z</time>
      </trkpt>
      <trkpt lat="43.60019" lon="5.57149">
        <ele>572.01</ele>
        <time>2015-08-06T08:54:40Z</time>
      </trkpt>
      <trkpt lat="43.60038" lon="5.57156">
        <ele>570.45</ele>
        <time>2015-08-06T08:54:43Z</time>
      </trkpt>
      <trkpt lat="43.60056" lon="5.57159">
        <ele>569.11</ele>
        <time>2015-08-06T08:54:46Z</time>
      </trkpt>
      <trkpt lat="43.60074" lon="5.5715">
        <ele>567.72</ele>
        <time>2015-08-06T08:54:51Z</time>
      </trkpt>
      <trkpt lat="43.6008" lon="5.57126">
        <ele>567.2</ele>
        <time>2015-08-06T08:54:58Z</time>
      </trkpt>
      <trkpt lat="43.60069" lon="5.57104">
        <ele>566.18</ele>
        <time>2015-08-06T08:55:04Z</time>
      </trkpt>
      <trkpt lat="43.60052" lon="5.57091">
        <ele>564.81</ele>
        <time>2015-08-06T08:55:09Z</time>
      </trkpt>
      <trkpt lat="43.60039" lon="5.57072">
        <ele>562.46</ele>
        <time>2015-08-06T08:55:19Z</time>
      </trkpt>
      <trkpt lat="43.60053" lon="5.57055">
        <ele>561.17</ele>
        <time>2015-08-06T08:55:26Z</time>
      </trkpt>
      <trkpt lat="43.60067" lon="5.57033">
        <ele>559.28</ele>
        <time>2015-08-06T08:55:36Z</time>
      </trkpt>
      <trkpt lat="43.60077" lon="5.57012">
        <ele>557.59</ele>
        <time>2015-08-06T08:55:44Z</time>
      </trkpt>
      <trkpt lat="43.60097" lon="5.57008">
        <ele>554.9</ele>
        <time>2015-08-06T08:55:58Z</time>
      </trkpt>
      <trkpt lat="43.60114" lon="5.57018">
        <ele>552.62</ele>
        <time>2015-08-06T08:56:06Z</time>
      </trkpt>
      <trkpt lat="43.60134" lon="5.57023">
        <ele>550.43</ele>
        <time>2015-08-06T08:56:14Z</time>
      </trkpt>
      <trkpt lat="43.60154" lon="5.57022">
        <ele>547.78</ele>
        <time>2015-08-06T08:56:24Z</time>
      </trkpt>
      <trkpt lat="43.60173" lon="5.57021">
        <ele>545.8</ele>
        <time>2015-08-06T08:56:31Z</time>
      </trkpt>
      <trkpt lat="43.60192" lon="5.57017">
        <ele>543.42</ele>
        <time>2015-08-06T08:56:39Z</time>
      </trkpt>
      <trkpt lat="43.60211" lon="5.57017">
        <ele>541.06</ele>
        <time>2015-08-06T08:56:47Z</time>
      </trkpt>
      <trkpt lat="43.60231" lon="5.57019">
        <ele>539.04</ele>
        <time>2015-08-06T08:56:55Z</time>
      </trkpt>
      <trkpt lat="43.60252" lon="5.57019">
        <ele>537.48</ele>
        <time>2015-08-06T08:57:01Z</time>
      </trkpt>
      <trkpt lat="43.60273" lon="5.57023">
        <ele>535.93</ele>
        <time>2015-08-06T08:57:07Z</time>
      </trkpt>
      <trkpt lat="43.6029" lon="5.57035">
        <ele>533.67</ele>
        <time>2015-08-06T08:57:14Z</time>
      </trkpt>
      <trkpt lat="43.60308" lon="5.57044">
        <ele>532.4</ele>
        <time>2015-08-06T08:57:18Z</time>
      </trkpt>
      <trkpt lat="43.60327" lon="5.5704">
        <ele>530.44</ele>
        <time>2015-08-06T08:57:25Z</time>
      </trkpt>
      <trkpt lat="43.6033" lon="5.57012">
        <ele>528.62</ele>
        <time>2015-08-06T08:57:32Z</time>
      </trkpt>
      <trkpt lat="43.60339" lon="5.56989">
        <ele>526.58</ele>
        <time>2015-08-06T08:57:39Z</time>
      </trkpt>
      <trkpt lat="43.60348" lon="5.56966">
        <ele>525.01</ele>
        <time>2015-08-06T08:57:44Z</time>
      </trkpt>
      <trkpt lat="43.60358" lon="5.56941">
        <ele>523.04</ele>
        <time>2015-08-06T08:57:50Z</time>
      </trkpt>
      <trkpt lat="43.60366" lon="5.56918">
        <ele>520.93</ele>
        <time>2015-08-06T08:57:56Z</time>
      </trkpt>
      <trkpt lat="43.60378" lon="5.56894">
        <ele>518.66</ele>
        <time>2015-08-06T08:58:03Z</time>
      </trkpt>
      <trkpt lat="43.60392" lon="5.56877">
        <ele>516.68</ele>
        <time>2015-08-06T08:58:09Z</time>
      </trkpt>
      <trkpt lat="43.60408" lon="5.56859">
        <ele>514.99</ele>
        <time>2015-08-06T08:58:15Z</time>
      </trkpt>
      <trkpt lat="43.6042" lon="5.56837">
        <ele>513.46</ele>
        <time>2015-08-06T08:58:20Z</time>
      </trkpt>
      <trkpt lat="43.6043" lon="5.56811">
        <ele>511.84</ele>
        <time>2015-08-06T08:58:26Z</time>
      </trkpt>
      <trkpt lat="43.60446" lon="5.56797">
        <ele>509.85</ele>
        <time>2015-08-06T08:58:32Z</time>
      </trkpt>
      <trkpt lat="43.60467" lon="5.56792">
        <ele>508.28</ele>
        <time>2015-08-06T08:58:37Z</time>
      </trkpt>
      <trkpt lat="43.60488" lon="5.56789">
        <ele>505.96</ele>
        <time>2015-08-06T08:58:43Z</time>
      </trkpt>
      <trkpt lat="43.60507" lon="5.56783">
        <ele>502.72</ele>
        <time>2015-08-06T08:59:05Z</time>
      </trkpt>
      <trkpt lat="43.60522" lon="5.56768">
        <ele>500.53</ele>
        <time>2015-08-06T08:59:13Z</time>
      </trkpt>
      <trkpt lat="43.60541" lon="5.56759">
        <ele>498.73</ele>
        <time>2015-08-06T08:59:20Z</time>
      </trkpt>
      <trkpt lat="43.60561" lon="5.56751">
        <ele>497.26</ele>
        <time>2015-08-06T08:59:25Z</time>
      </trkpt>
      <trkpt lat="43.60579" lon="5.5674">
        <ele>495.18</ele>
        <time>2015-08-06T08:59:32Z</time>
      </trkpt>
      <trkpt lat="43.60598" lon="5.56749">
        <ele>493.57</ele>
        <time>2015-08-06T08:59:38Z</time>
      </trkpt>
      <trkpt lat="43.60617" lon="5.56742">
        <ele>491.94</ele>
        <time>2015-08-06T08:59:43Z</time>
      </trkpt>
      <trkpt lat="43.60636" lon="5.56736">
        <ele>490.23</ele>
        <time>2015-08-06T08:59:48Z</time>
      </trkpt>
      <trkpt lat="43.60656" lon="5.56725">
        <ele>488.32</ele>
        <time>2015-08-06T08:59:53Z</time>
      </trkpt>
      <trkpt lat="43.60674" lon="5.5672">
        <ele>486.47</ele>
        <time>2015-08-06T08:59:58Z</time>
      </trkpt>
      <trkpt lat="43.60693" lon="5.56715">
        <ele>484.47</ele>
        <time>2015-08-06T09:00:04Z</time>
      </trkpt>
      <trkpt lat="43.6071" lon="5.56707">
        <ele>482.7</ele>
        <time>2015-08-06T09:00:09Z</time>
      </trkpt>
      <trkpt lat="43.60727" lon="5.56694">
        <ele>480.65</ele>
        <time>2015-08-06T09:00:14Z</time>
      </trkpt>
      <trkpt lat="43.60744" lon="5.5668">
        <ele>474.25</ele>
        <time>2015-08-06T09:00:19Z</time>
      </trkpt>
      <trkpt lat="43.60764" lon="5.5667">
        <ele>464.59</ele>
        <time>2015-08-06T09:00:24Z</time>
      </trkpt>
      <trkpt lat="43.60782" lon="5.56678">
        <ele>463.6</ele>
        <time>2015-08-06T09:00:29Z</time>
      </trkpt>
      <trkpt lat="43.60801" lon="5.56686">
        <ele>461.81</ele>
        <time>2015-08-06T09:00:34Z</time>
      </trkpt>
      <trkpt lat="43.6082" lon="5.56689">
        <ele>460.89</ele>
        <time>2015-08-06T09:00:41Z</time>
      </trkpt>
      <trkpt lat="43.60838" lon="5.56699">
        <ele>460.27</ele>
        <time>2015-08-06T09:00:47Z</time>
      </trkpt>
      <trkpt lat="43.60852" lon="5.56721">
        <ele>458.86</ele>
        <time>2015-08-06T09:00:52Z</time>
      </trkpt>
      <trkpt lat="43.6087" lon="5.56735">
        <ele>457.31</ele>
        <time>2015-08-06T09:00:58Z</time>
      </trkpt>
      <trkpt lat="43.60888" lon="5.5673">
        <ele>456.84</ele>
        <time>2015-08-06T09:01:03Z</time>
      </trkpt>
      <trkpt lat="43.60906" lon="5.5672">
        <ele>456.04</ele>
        <time>2015-08-06T09:01:10Z</time>
      </trkpt>
      <trkpt lat="43.60926" lon="5.56719">
        <ele>455.26</ele>
        <time>2015-08-06T09:01:19Z</time>
      </trkpt>
      <trkpt lat="43.60944" lon="5.56734">
        <ele>455.04</ele>
        <time>2015-08-06T09:01:25Z</time>
      </trkpt>
      <trkpt lat="43.60963" lon="5.56747">
        <ele>454.81</ele>
        <time>2015-08-06T09:01:31Z</time>
      </trkpt>
      <trkpt lat="43.60982" lon="5.56759">
        <ele>454.5</ele>
        <time>2015-08-06T09:01:37Z</time>
      </trkpt>
      <trkpt lat="43.61001" lon="5.56757">
        <ele>454.09</ele>
        <time>2015-08-06T09:01:43Z</time>
      </trkpt>
      <trkpt lat="43.61022" lon="5.56759">
        <ele>451.8</ele>
        <time>2015-08-06T09:01:48Z</time>
      </trkpt>
      <trkpt lat="43.61042" lon="5.56751">
        <ele>449.35</ele>
        <time>2015-08-06T09:01:53Z</time>
      </trkpt>
      <trkpt lat="43.61055" lon="5.56732">
        <ele>446.82</ele>
        <time>2015-08-06T09:01:58Z</time>
      </trkpt>
      <trkpt lat="43.61062" lon="5.56706">
        <ele>444.04</ele>
        <time>2015-08-06T09:02:03Z</time>
      </trkpt>
      <trkpt lat="43.6107" lon="5.5668">
        <ele>440.59</ele>
        <time>2015-08-06T09:02:08Z</time>
      </trkpt>
      <trkpt lat="43.61088" lon="5.56662">
        <ele>438.99</ele>
        <time>2015-08-06T09:02:13Z</time>
      </trkpt>
      <trkpt lat="43.61106" lon="5.56646">
        <ele>437.94</ele>
        <time>2015-08-06T09:02:18Z</time>
      </trkpt>
      <trkpt lat="43.61125" lon="5.56639">
        <ele>437.84</ele>
        <time>2015-08-06T09:02:24Z</time>
      </trkpt>
      <trkpt lat="43.61143" lon="5.56632">
        <ele>437.17</ele>
        <time>2015-08-06T09:02:29Z</time>
      </trkpt>
      <trkpt lat="43.61162" lon="5.56628">
        <ele>437.04</ele>
        <time>2015-08-06T09:02:36Z</time>
      </trkpt>
      <trkpt lat="43.61181" lon="5.56633">
        <ele>437.16</ele>
        <time>2015-08-06T09:02:42Z</time>
      </trkpt>
      <trkpt lat="43.61199" lon="5.56641">
        <ele>437.35</ele>
        <time>2015-08-06T09:02:46Z</time>
      </trkpt>
      <trkpt lat="43.61216" lon="5.56657">
        <ele>437.32</ele>
        <time>2015-08-06T09:02:52Z</time>
      </trkpt>
      <trkpt lat="43.61229" lon="5.5668">
        <ele>437.39</ele>
        <time>2015-08-06T09:02:57Z</time>
      </trkpt>
      <trkpt lat="43.61245" lon="5.5669">
        <ele>438.09</ele>
        <time>2015-08-06T09:03:05Z</time>
      </trkpt>
      <trkpt lat="43.61267" lon="5.56687">
        <ele>437.62</ele>
        <time>2015-08-06T09:03:10Z</time>
      </trkpt>
      <trkpt lat="43.61287" lon="5.56681">
        <ele>434.43</ele>
        <time>2015-08-06T09:03:14Z</time>
      </trkpt>
      <trkpt lat="43.61306" lon="5.56679">
        <ele>433.19</ele>
        <time>2015-08-06T09:03:19Z</time>
      </trkpt>
      <trkpt lat="43.61327" lon="5.5667">
        <ele>432.6</ele>
        <time>2015-08-06T09:03:24Z</time>
      </trkpt>
      <trkpt lat="43.61343" lon="5.56657">
        <ele>430.11</ele>
        <time>2015-08-06T09:03:28Z</time>
      </trkpt>
      <trkpt lat="43.61358" lon="5.56641">
        <ele>426.9</ele>
        <time>2015-08-06T09:03:32Z</time>
      </trkpt>
      <trkpt lat="43.61374" lon="5.56623">
        <ele>423.08</ele>
        <time>2015-08-06T09:03:37Z</time>
      </trkpt>
      <trkpt lat="43.6139" lon="5.56611">
        <ele>422.53</ele>
        <time>2015-08-06T09:03:42Z</time>
      </trkpt>
      <trkpt lat="43.61409" lon="5.56599">
        <ele>422.76</ele>
        <time>2015-08-06T09:03:49Z</time>
      </trkpt>
      <trkpt lat="43.6143" lon="5.56594">
        <ele>423.77</ele>
        <time>2015-08-06T09:03:55Z</time>
      </trkpt>
      <trkpt lat="43.6145" lon="5.56595">
        <ele>424.73</ele>
        <time>2015-08-06T09:04:01Z</time>
      </trkpt>
      <trkpt lat="43.61471" lon="5.56594">
        <ele>425.35</ele>
        <time>2015-08-06T09:04:07Z</time>
      </trkpt>
      <trkpt lat="43.6149" lon="5.56585">
        <ele>425.28</ele>
        <time>2015-08-06T09:04:13Z</time>
      </trkpt>
      <trkpt lat="43.61506" lon="5.56572">
        <ele>424.92</ele>
        <time>2015-08-06T09:04:19Z</time>
      </trkpt>
      <trkpt lat="43.61522" lon="5.56554">
        <ele>424.12</ele>
        <time>2015-08-06T09:04:24Z</time>
      </trkpt>
      <trkpt lat="43.61533" lon="5.56528">
        <ele>420.8</ele>
        <time>2015-08-06T09:04:29Z</time>
      </trkpt>
      <trkpt lat="43.61535" lon="5.56503">
        <ele>417.32</ele>
        <time>2015-08-06T09:04:33Z</time>
      </trkpt>
      <trkpt lat="43.61543" lon="5.56479">
        <ele>416.51</ele>
        <time>2015-08-06T09:04:38Z</time>
      </trkpt>
      <trkpt lat="43.61556" lon="5.5646">
        <ele>415.86</ele>
        <time>2015-08-06T09:04:43Z</time>
      </trkpt>
      <trkpt lat="43.6156" lon="5.56433">
        <ele>414.75</ele>
        <time>2015-08-06T09:04:50Z</time>
      </trkpt>
      <trkpt lat="43.61562" lon="5.56407">
        <ele>414.07</ele>
        <time>2015-08-06T09:04:56Z</time>
      </trkpt>
      <trkpt lat="43.61565" lon="5.56382">
        <ele>413.37</ele>
        <time>2015-08-06T09:05:01Z</time>
      </trkpt>
      <trkpt lat="43.61571" lon="5.56352">
        <ele>411.57</ele>
        <time>2015-08-06T09:05:06Z</time>
      </trkpt>
      <trkpt lat="43.61584" lon="5.56334">
        <ele>409.34</ele>
        <time>2015-08-06T09:05:32Z</time>
      </trkpt>
      <trkpt lat="43.61597" lon="5.56314">
        <ele>406.49</ele>
        <time>2015-08-06T09:05:36Z</time>
      </trkpt>
      <trkpt lat="43.61608" lon="5.56294">
        <ele>402.59</ele>
        <time>2015-08-06T09:05:40Z</time>
      </trkpt>
      <trkpt lat="43.6161" lon="5.56268">
        <ele>401.23</ele>
        <time>2015-08-06T09:05:45Z</time>
      </trkpt>
      <trkpt lat="43.61596" lon="5.56245">
        <ele>400.62</ele>
        <time>2015-08-06T09:05:51Z</time>
      </trkpt>
      <trkpt lat="43.61584" lon="5.56222">
        <ele>399.21</ele>
        <time>2015-08-06T09:05:56Z</time>
      </trkpt>
      <trkpt lat="43.61577" lon="5.56193">
        <ele>397.79</ele>
        <time>2015-08-06T09:06:00Z</time>
      </trkpt>
      <trkpt lat="43.61579" lon="5.56164">
        <ele>397.06</ele>
        <time>2015-08-06T09:06:04Z</time>
      </trkpt>
      <trkpt lat="43.61587" lon="5.5614">
        <ele>396.2</ele>
        <time>2015-08-06T09:06:08Z</time>
      </trkpt>
      <trkpt lat="43.61605" lon="5.56126">
        <ele>395.49</ele>
        <time>2015-08-06T09:06:12Z</time>
      </trkpt>
      <trkpt lat="43.61626" lon="5.56118">
        <ele>394.35</ele>
        <time>2015-08-06T09:06:15Z</time>
      </trkpt>
      <trkpt lat="43.61643" lon="5.56103">
        <ele>393.31</ele>
        <time>2015-08-06T09:06:18Z</time>
      </trkpt>
      <trkpt lat="43.61658" lon="5.56087">
        <ele>392.47</ele>
        <time>2015-08-06T09:06:21Z</time>
      </trkpt>
      <trkpt lat="43.61672" lon="5.56072">
        <ele>391.54</ele>
        <time>2015-08-06T09:06:24Z</time>
      </trkpt>
      <trkpt lat="43.61686" lon="5.56054">
        <ele>390.43</ele>
        <time>2015-08-06T09:06:27Z</time>
      </trkpt>
      <trkpt lat="43.61699" lon="5.56029">
        <ele>388.46</ele>
        <time>2015-08-06T09:06:31Z</time>
      </trkpt>
      <trkpt lat="43.61709" lon="5.55997">
        <ele>384.4</ele>
        <time>2015-08-06T09:07:29Z</time>
      </trkpt>
      <trkpt lat="43.61722" lon="5.55974">
        <ele>383.1</ele>
        <time>2015-08-06T09:10:17Z</time>
      </trkpt>
      <trkpt lat="43.61736" lon="5.55956">
        <ele>383.33</ele>
        <time>2015-08-06T09:10:22Z</time>
      </trkpt>
      <trkpt lat="43.61755" lon="5.5594">
        <ele>383.57</ele>
        <time>2015-08-06T09:10:27Z</time>
      </trkpt>
      <trkpt lat="43.61772" lon="5.55931">
        <ele>383.55</ele>
        <time>2015-08-06T09:10:31Z</time>
      </trkpt>
      <trkpt lat="43.61793" lon="5.55922">
        <ele>382.7</ele>
        <time>2015-08-06T09:10:35Z</time>
      </trkpt>
      <trkpt lat="43.61813" lon="5.55922">
        <ele>381.34</ele>
        <time>2015-08-06T09:10:39Z</time>
      </trkpt>
      <trkpt lat="43.61831" lon="5.5592">
        <ele>379.35</ele>
        <time>2015-08-06T09:10:43Z</time>
      </trkpt>
      <trkpt lat="43.61852" lon="5.55912">
        <ele>376.68</ele>
        <time>2015-08-06T09:10:48Z</time>
      </trkpt>
      <trkpt lat="43.6187" lon="5.55903">
        <ele>376.1</ele>
        <time>2015-08-06T09:10:53Z</time>
      </trkpt>
      <trkpt lat="43.61889" lon="5.55892">
        <ele>376.03</ele>
        <time>2015-08-06T09:10:58Z</time>
      </trkpt>
      <trkpt lat="43.61903" lon="5.55913">
        <ele>375.68</ele>
        <time>2015-08-06T09:11:04Z</time>
      </trkpt>
      <trkpt lat="43.61912" lon="5.55938">
        <ele>374.58</ele>
        <time>2015-08-06T09:11:08Z</time>
      </trkpt>
      <trkpt lat="43.61916" lon="5.55965">
        <ele>372.85</ele>
        <time>2015-08-06T09:11:12Z</time>
      </trkpt>
      <trkpt lat="43.61928" lon="5.55991">
        <ele>371.19</ele>
        <time>2015-08-06T09:11:16Z</time>
      </trkpt>
      <trkpt lat="43.61938" lon="5.56012">
        <ele>369.94</ele>
        <time>2015-08-06T09:11:19Z</time>
      </trkpt>
      <trkpt lat="43.61949" lon="5.56033">
        <ele>369.28</ele>
        <time>2015-08-06T09:11:22Z</time>
      </trkpt>
      <trkpt lat="43.61968" lon="5.56053">
        <ele>367.91</ele>
        <time>2015-08-06T09:11:26Z</time>
      </trkpt>
      <trkpt lat="43.61984" lon="5.56071">
        <ele>365.35</ele>
        <time>2015-08-06T09:11:30Z</time>
      </trkpt>
      <trkpt lat="43.61998" lon="5.56098">
        <ele>363.28</ele>
        <time>2015-08-06T09:11:34Z</time>
      </trkpt>
      <trkpt lat="43.61999" lon="5.56123">
        <ele>364.31</ele>
        <time>2015-08-06T09:11:37Z</time>
      </trkpt>
      <trkpt lat="43.61996" lon="5.5615">
        <ele>365.63</ele>
        <time>2015-08-06T09:11:40Z</time>
      </trkpt>
      <trkpt lat="43.61994" lon="5.56177">
        <ele>365.56</ele>
        <time>2015-08-06T09:11:43Z</time>
      </trkpt>
      <trkpt lat="43.61993" lon="5.56206">
        <ele>365.05</ele>
        <time>2015-08-06T09:11:46Z</time>
      </trkpt>
      <trkpt lat="43.61992" lon="5.56233">
        <ele>364.43</ele>
        <time>2015-08-06T09:11:49Z</time>
      </trkpt>
      <trkpt lat="43.61994" lon="5.56258">
        <ele>363.35</ele>
        <time>2015-08-06T09:11:52Z</time>
      </trkpt>
      <trkpt lat="43.62008" lon="5.56276">
        <ele>361.03</ele>
        <time>2015-08-06T09:11:56Z</time>
      </trkpt>
      <trkpt lat="43.62032" lon="5.56276">
        <ele>361.38</ele>
        <time>2015-08-06T09:12:00Z</time>
      </trkpt>
      <trkpt lat="43.62055" lon="5.56274">
        <ele>361.43</ele>
        <time>2015-08-06T09:12:04Z</time>
      </trkpt>
      <trkpt lat="43.62073" lon="5.56265">
        <ele>361.2</ele>
        <time>2015-08-06T09:12:07Z</time>
      </trkpt>
      <trkpt lat="43.62087" lon="5.56249">
        <ele>360.43</ele>
        <time>2015-08-06T09:12:10Z</time>
      </trkpt>
      <trkpt lat="43.62102" lon="5.5623">
        <ele>358.99</ele>
        <time>2015-08-06T09:12:14Z</time>
      </trkpt>
      <trkpt lat="43.62124" lon="5.56223">
        <ele>356.7</ele>
        <time>2015-08-06T09:12:18Z</time>
      </trkpt>
      <trkpt lat="43.62143" lon="5.5624">
        <ele>354.62</ele>
        <time>2015-08-06T09:12:22Z</time>
      </trkpt>
      <trkpt lat="43.62155" lon="5.56262">
        <ele>354.67</ele>
        <time>2015-08-06T09:12:25Z</time>
      </trkpt>
      <trkpt lat="43.62166" lon="5.56288">
        <ele>351.8</ele>
        <time>2015-08-06T09:12:29Z</time>
      </trkpt>
      <trkpt lat="43.62173" lon="5.56313">
        <ele>349.71</ele>
        <time>2015-08-06T09:12:33Z</time>
      </trkpt>
      <trkpt lat="43.62175" lon="5.56338">
        <ele>349.71</ele>
        <time>2015-08-06T09:12:36Z</time>
      </trkpt>
      <trkpt lat="43.62182" lon="5.56361">
        <ele>349.04</ele>
        <time>2015-08-06T09:12:39Z</time>
      </trkpt>
      <trkpt lat="43.62193" lon="5.56383">
        <ele>347.52</ele>
        <time>2015-08-06T09:12:43Z</time>
      </trkpt>
      <trkpt lat="43.6219" lon="5.56411">
        <ele>347.16</ele>
        <time>2015-08-06T09:12:48Z</time>
      </trkpt>
      <trkpt lat="43.62192" lon="5.56437">
        <ele>346.1</ele>
        <time>2015-08-06T09:12:52Z</time>
      </trkpt>
      <trkpt lat="43.62211" lon="5.56452">
        <ele>345.59</ele>
        <time>2015-08-06T09:12:58Z</time>
      </trkpt>
      <trkpt lat="43.62231" lon="5.56457">
        <ele>344.9</ele>
        <time>2015-08-06T09:13:03Z</time>
      </trkpt>
      <trkpt lat="43.62247" lon="5.56477">
        <ele>343.11</ele>
        <time>2015-08-06T09:13:08Z</time>
      </trkpt>
      <trkpt lat="43.62264" lon="5.56493">
        <ele>341.54</ele>
        <time>2015-08-06T09:13:12Z</time>
      </trkpt>
      <trkpt lat="43.62283" lon="5.56509">
        <ele>339.35</ele>
        <time>2015-08-06T09:13:16Z</time>
      </trkpt>
      <trkpt lat="43.62301" lon="5.56527">
        <ele>337.49</ele>
        <time>2015-08-06T09:13:20Z</time>
      </trkpt>
      <trkpt lat="43.62319" lon="5.56545">
        <ele>336.02</ele>
        <time>2015-08-06T09:13:24Z</time>
      </trkpt>
      <trkpt lat="43.62337" lon="5.56562">
        <ele>335.67</ele>
        <time>2015-08-06T09:13:28Z</time>
      </trkpt>
      <trkpt lat="43.62346" lon="5.56589">
        <ele>336.41</ele>
        <time>2015-08-06T09:13:32Z</time>
      </trkpt>
      <trkpt lat="43.62353" lon="5.56614">
        <ele>335.97</ele>
        <time>2015-08-06T09:13:35Z</time>
      </trkpt>
      <trkpt lat="43.62361" lon="5.56642">
        <ele>334.44</ele>
        <time>2015-08-06T09:13:38Z</time>
      </trkpt>
      <trkpt lat="43.62371" lon="5.56665">
        <ele>333.08</ele>
        <time>2015-08-06T09:13:41Z</time>
      </trkpt>
      <trkpt lat="43.62388" lon="5.56684">
        <ele>331.7</ele>
        <time>2015-08-06T09:13:44Z</time>
      </trkpt>
      <trkpt lat="43.62405" lon="5.567">
        <ele>330.02</ele>
        <time>2015-08-06T09:13:47Z</time>
      </trkpt>
      <trkpt lat="43.62422" lon="5.56715">
        <ele>327.56</ele>
        <time>2015-08-06T09:13:50Z</time>
      </trkpt>
      <trkpt lat="43.62438" lon="5.5673">
        <ele>325.6</ele>
        <time>2015-08-06T09:13:53Z</time>
      </trkpt>
      <trkpt lat="43.62454" lon="5.56744">
        <ele>323.55</ele>
        <time>2015-08-06T09:13:56Z</time>
      </trkpt>
      <trkpt lat="43.62473" lon="5.56756">
        <ele>321.94</ele>
        <time>2015-08-06T09:13:59Z</time>
      </trkpt>
      <trkpt lat="43.62492" lon="5.56765">
        <ele>321.09</ele>
        <time>2015-08-06T09:14:02Z</time>
      </trkpt>
      <trkpt lat="43.62511" lon="5.56775">
        <ele>321.04</ele>
        <time>2015-08-06T09:14:05Z</time>
      </trkpt>
      <trkpt lat="43.62529" lon="5.56786">
        <ele>322.44</ele>
        <time>2015-08-06T09:14:08Z</time>
      </trkpt>
      <trkpt lat="43.62547" lon="5.56796">
        <ele>323.64</ele>
        <time>2015-08-06T09:14:11Z</time>
      </trkpt>
      <trkpt lat="43.62569" lon="5.56809">
        <ele>324.75</ele>
        <time>2015-08-06T09:14:15Z</time>
      </trkpt>
      <trkpt lat="43.62584" lon="5.56829">
        <ele>325.95</ele>
        <time>2015-08-06T09:14:18Z</time>
      </trkpt>
      <trkpt lat="43.62598" lon="5.56849">
        <ele>325.52</ele>
        <time>2015-08-06T09:14:21Z</time>
      </trkpt>
      <trkpt lat="43.62613" lon="5.56862">
        <ele>324.97</ele>
        <time>2015-08-06T09:14:24Z</time>
      </trkpt>
      <trkpt lat="43.6263" lon="5.56875">
        <ele>322.93</ele>
        <time>2015-08-06T09:14:27Z</time>
      </trkpt>
      <trkpt lat="43.62648" lon="5.56888">
        <ele>320.48</ele>
        <time>2015-08-06T09:14:30Z</time>
      </trkpt>
      <trkpt lat="43.62664" lon="5.56898">
        <ele>318.54</ele>
        <time>2015-08-06T09:14:33Z</time>
      </trkpt>
      <trkpt lat="43.62686" lon="5.56896">
        <ele>318.07</ele>
        <time>2015-08-06T09:14:37Z</time>
      </trkpt>
      <trkpt lat="43.62706" lon="5.56888">
        <ele>317.79</ele>
        <time>2015-08-06T09:14:40Z</time>
      </trkpt>
      <trkpt lat="43.62728" lon="5.56886">
        <ele>316.72</ele>
        <time>2015-08-06T09:14:44Z</time>
      </trkpt>
      <trkpt lat="43.62749" lon="5.56889">
        <ele>316.04</ele>
        <time>2015-08-06T09:14:48Z</time>
      </trkpt>
      <trkpt lat="43.62772" lon="5.56891">
        <ele>315.52</ele>
        <time>2015-08-06T09:14:52Z</time>
      </trkpt>
      <trkpt lat="43.62793" lon="5.56882">
        <ele>315.55</ele>
        <time>2015-08-06T09:14:57Z</time>
      </trkpt>
      <trkpt lat="43.62809" lon="5.56857">
        <ele>314.71</ele>
        <time>2015-08-06T09:15:01Z</time>
      </trkpt>
      <trkpt lat="43.62827" lon="5.56841">
        <ele>313.94</ele>
        <time>2015-08-06T09:15:05Z</time>
      </trkpt>
      <trkpt lat="43.62848" lon="5.56834">
        <ele>315.29</ele>
        <time>2015-08-06T09:15:09Z</time>
      </trkpt>
      <trkpt lat="43.62868" lon="5.56829">
        <ele>316.2</ele>
        <time>2015-08-06T09:15:14Z</time>
      </trkpt>
      <trkpt lat="43.6289" lon="5.56822">
        <ele>313.75</ele>
        <time>2015-08-06T09:15:19Z</time>
      </trkpt>
      <trkpt lat="43.62907" lon="5.56808">
        <ele>312.5</ele>
        <time>2015-08-06T09:15:23Z</time>
      </trkpt>
      <trkpt lat="43.62921" lon="5.56791">
        <ele>312.64</ele>
        <time>2015-08-06T09:15:26Z</time>
      </trkpt>
      <trkpt lat="43.62937" lon="5.56775">
        <ele>312.06</ele>
        <time>2015-08-06T09:15:29Z</time>
      </trkpt>
      <trkpt lat="43.62956" lon="5.56761">
        <ele>310.42</ele>
        <time>2015-08-06T09:15:32Z</time>
      </trkpt>
      <trkpt lat="43.62977" lon="5.56751">
        <ele>308.68</ele>
        <time>2015-08-06T09:15:35Z</time>
      </trkpt>
      <trkpt lat="43.62998" lon="5.56745">
        <ele>307.1</ele>
        <time>2015-08-06T09:15:38Z</time>
      </trkpt>
      <trkpt lat="43.63018" lon="5.56742">
        <ele>305.68</ele>
        <time>2015-08-06T09:15:41Z</time>
      </trkpt>
      <trkpt lat="43.63041" lon="5.56736">
        <ele>304.5</ele>
        <time>2015-08-06T09:15:44Z</time>
      </trkpt>
      <trkpt lat="43.63059" lon="5.56719">
        <ele>302.86</ele>
        <time>2015-08-06T09:15:47Z</time>
      </trkpt>
      <trkpt lat="43.63078" lon="5.56715">
        <ele>300.94</ele>
        <time>2015-08-06T09:15:50Z</time>
      </trkpt>
      <trkpt lat="43.63096" lon="5.56722">
        <ele>299.39</ele>
        <time>2015-08-06T09:15:53Z</time>
      </trkpt>
      <trkpt lat="43.63115" lon="5.56716">
        <ele>297.78</ele>
        <time>2015-08-06T09:15:56Z</time>
      </trkpt>
      <trkpt lat="43.63133" lon="5.56704">
        <ele>297.77</ele>
        <time>2015-08-06T09:15:59Z</time>
      </trkpt>
      <trkpt lat="43.63153" lon="5.56701">
        <ele>300.46</ele>
        <time>2015-08-06T09:16:03Z</time>
      </trkpt>
      <trkpt lat="43.63176" lon="5.56694">
        <ele>299.48</ele>
        <time>2015-08-06T09:16:07Z</time>
      </trkpt>
      <trkpt lat="43.63198" lon="5.56683">
        <ele>299.15</ele>
        <time>2015-08-06T09:16:10Z</time>
      </trkpt>
      <trkpt lat="43.63221" lon="5.56669">
        <ele>299.46</ele>
        <time>2015-08-06T09:16:13Z</time>
      </trkpt>
      <trkpt lat="43.63243" lon="5.56651">
        <ele>299.15</ele>
        <time>2015-08-06T09:16:16Z</time>
      </trkpt>
      <trkpt lat="43.63264" lon="5.56631">
        <ele>297.31</ele>
        <time>2015-08-06T09:16:19Z</time>
      </trkpt>
      <trkpt lat="43.6328" lon="5.56614">
        <ele>295.26</ele>
        <time>2015-08-06T09:16:21Z</time>
      </trkpt>
      <trkpt lat="43.63296" lon="5.56595">
        <ele>293.64</ele>
        <time>2015-08-06T09:16:23Z</time>
      </trkpt>
      <trkpt lat="43.6331" lon="5.56579">
        <ele>292.33</ele>
        <time>2015-08-06T09:16:25Z</time>
      </trkpt>
      <trkpt lat="43.63335" lon="5.56565">
        <ele>290.14</ele>
        <time>2015-08-06T09:16:28Z</time>
      </trkpt>
      <trkpt lat="43.63353" lon="5.56558">
        <ele>288.53</ele>
        <time>2015-08-06T09:16:30Z</time>
      </trkpt>
      <trkpt lat="43.63372" lon="5.56552">
        <ele>287.85</ele>
        <time>2015-08-06T09:16:32Z</time>
      </trkpt>
      <trkpt lat="43.63397" lon="5.56551">
        <ele>287.8</ele>
        <time>2015-08-06T09:16:35Z</time>
      </trkpt>
      <trkpt lat="43.63422" lon="5.56558">
        <ele>288.47</ele>
        <time>2015-08-06T09:16:38Z</time>
      </trkpt>
      <trkpt lat="43.63446" lon="5.56567">
        <ele>288.43</ele>
        <time>2015-08-06T09:16:41Z</time>
      </trkpt>
      <trkpt lat="43.63466" lon="5.56575">
        <ele>289.15</ele>
        <time>2015-08-06T09:16:44Z</time>
      </trkpt>
      <trkpt lat="43.63485" lon="5.56581">
        <ele>289.06</ele>
        <time>2015-08-06T09:16:47Z</time>
      </trkpt>
      <trkpt lat="43.63506" lon="5.56586">
        <ele>288.89</ele>
        <time>2015-08-06T09:16:50Z</time>
      </trkpt>
      <trkpt lat="43.6353" lon="5.56593">
        <ele>287.92</ele>
        <time>2015-08-06T09:16:53Z</time>
      </trkpt>
      <trkpt lat="43.63556" lon="5.56605">
        <ele>287.4</ele>
        <time>2015-08-06T09:16:56Z</time>
      </trkpt>
      <trkpt lat="43.63579" lon="5.5662">
        <ele>285.68</ele>
        <time>2015-08-06T09:16:59Z</time>
      </trkpt>
      <trkpt lat="43.63602" lon="5.56639">
        <ele>283.53</ele>
        <time>2015-08-06T09:17:02Z</time>
      </trkpt>
      <trkpt lat="43.63617" lon="5.56653">
        <ele>282.96</ele>
        <time>2015-08-06T09:17:04Z</time>
      </trkpt>
      <trkpt lat="43.63633" lon="5.56667">
        <ele>282.98</ele>
        <time>2015-08-06T09:17:07Z</time>
      </trkpt>
      <trkpt lat="43.63648" lon="5.56682">
        <ele>283.45</ele>
        <time>2015-08-06T09:17:12Z</time>
      </trkpt>
      <trkpt lat="43.63666" lon="5.56697">
        <ele>283.75</ele>
        <time>2015-08-06T09:17:24Z</time>
      </trkpt>
      <trkpt lat="43.63681" lon="5.56713">
        <ele>283.78</ele>
        <time>2015-08-06T09:17:28Z</time>
      </trkpt>
      <trkpt lat="43.63694" lon="5.56735">
        <ele>284.04</ele>
        <time>2015-08-06T09:17:32Z</time>
      </trkpt>
      <trkpt lat="43.63715" lon="5.56748">
        <ele>283.44</ele>
        <time>2015-08-06T09:17:36Z</time>
      </trkpt>
      <trkpt lat="43.63736" lon="5.56753">
        <ele>282.53</ele>
        <time>2015-08-06T09:17:40Z</time>
      </trkpt>
      <trkpt lat="43.63758" lon="5.56753">
        <ele>281.88</ele>
        <time>2015-08-06T09:17:44Z</time>
      </trkpt>
      <trkpt lat="43.63781" lon="5.56753">
        <ele>281.36</ele>
        <time>2015-08-06T09:17:48Z</time>
      </trkpt>
      <trkpt lat="43.63804" lon="5.56754">
        <ele>280.07</ele>
        <time>2015-08-06T09:17:52Z</time>
      </trkpt>
      <trkpt lat="43.63824" lon="5.56755">
        <ele>279.11</ele>
        <time>2015-08-06T09:17:56Z</time>
      </trkpt>
      <trkpt lat="43.63838" lon="5.56772">
        <ele>278.11</ele>
        <time>2015-08-06T09:18:00Z</time>
      </trkpt>
      <trkpt lat="43.63843" lon="5.56796">
        <ele>279.07</ele>
        <time>2015-08-06T09:18:03Z</time>
      </trkpt>
      <trkpt lat="43.63846" lon="5.56821">
        <ele>280.9</ele>
        <time>2015-08-06T09:18:06Z</time>
      </trkpt>
      <trkpt lat="43.63848" lon="5.56851">
        <ele>281.47</ele>
        <time>2015-08-06T09:18:10Z</time>
      </trkpt>
      <trkpt lat="43.63848" lon="5.56882">
        <ele>280.06</ele>
        <time>2015-08-06T09:18:14Z</time>
      </trkpt>
      <trkpt lat="43.63849" lon="5.56912">
        <ele>279.08</ele>
        <time>2015-08-06T09:18:18Z</time>
      </trkpt>
      <trkpt lat="43.6385" lon="5.56943">
        <ele>278.59</ele>
        <time>2015-08-06T09:18:22Z</time>
      </trkpt>
      <trkpt lat="43.6385" lon="5.56969">
        <ele>278.97</ele>
        <time>2015-08-06T09:18:26Z</time>
      </trkpt>
      <trkpt lat="43.6385" lon="5.57">
        <ele>279.11</ele>
        <time>2015-08-06T09:18:30Z</time>
      </trkpt>
      <trkpt lat="43.6385" lon="5.57026">
        <ele>278.7</ele>
        <time>2015-08-06T09:18:33Z</time>
      </trkpt>
      <trkpt lat="43.6385" lon="5.57057">
        <ele>277.97</ele>
        <time>2015-08-06T09:18:37Z</time>
      </trkpt>
      <trkpt lat="43.63852" lon="5.57089">
        <ele>278.09</ele>
        <time>2015-08-06T09:18:41Z</time>
      </trkpt>
      <trkpt lat="43.63856" lon="5.5712">
        <ele>278.24</ele>
        <time>2015-08-06T09:18:45Z</time>
      </trkpt>
      <trkpt lat="43.63859" lon="5.5715">
        <ele>278.04</ele>
        <time>2015-08-06T09:18:49Z</time>
      </trkpt>
      <trkpt lat="43.63864" lon="5.5718">
        <ele>278.01</ele>
        <time>2015-08-06T09:18:53Z</time>
      </trkpt>
      <trkpt lat="43.6387" lon="5.57208">
        <ele>277.84</ele>
        <time>2015-08-06T09:18:57Z</time>
      </trkpt>
      <trkpt lat="43.63877" lon="5.57237">
        <ele>278.34</ele>
        <time>2015-08-06T09:19:01Z</time>
      </trkpt>
      <trkpt lat="43.63883" lon="5.57261">
        <ele>278.31</ele>
        <time>2015-08-06T09:19:04Z</time>
      </trkpt>
      <trkpt lat="43.63889" lon="5.57286">
        <ele>278.16</ele>
        <time>2015-08-06T09:19:07Z</time>
      </trkpt>
      <trkpt lat="43.63897" lon="5.57317">
        <ele>277.38</ele>
        <time>2015-08-06T09:19:11Z</time>
      </trkpt>
      <trkpt lat="43.63903" lon="5.57342">
        <ele>277.48</ele>
        <time>2015-08-06T09:19:14Z</time>
      </trkpt>
      <trkpt lat="43.63909" lon="5.57367">
        <ele>277.79</ele>
        <time>2015-08-06T09:19:17Z</time>
      </trkpt>
      <trkpt lat="43.63914" lon="5.57398">
        <ele>278.28</ele>
        <time>2015-08-06T09:19:21Z</time>
      </trkpt>
      <trkpt lat="43.6392" lon="5.57427">
        <ele>278.25</ele>
        <time>2015-08-06T09:19:25Z</time>
      </trkpt>
      <trkpt lat="43.63926" lon="5.57453">
        <ele>277.55</ele>
        <time>2015-08-06T09:19:28Z</time>
      </trkpt>
      <trkpt lat="43.63932" lon="5.57479">
        <ele>276.8</ele>
        <time>2015-08-06T09:19:31Z</time>
      </trkpt>
      <trkpt lat="43.63939" lon="5.57508">
        <ele>277.62</ele>
        <time>2015-08-06T09:19:35Z</time>
      </trkpt>
      <trkpt lat="43.63945" lon="5.57534">
        <ele>278.48</ele>
        <time>2015-08-06T09:19:38Z</time>
      </trkpt>
      <trkpt lat="43.63952" lon="5.57561">
        <ele>279.05</ele>
        <time>2015-08-06T09:19:41Z</time>
      </trkpt>
      <trkpt lat="43.63959" lon="5.57585">
        <ele>278.8</ele>
        <time>2015-08-06T09:19:44Z</time>
      </trkpt>
      <trkpt lat="43.63964" lon="5.57609">
        <ele>278.37</ele>
        <time>2015-08-06T09:19:47Z</time>
      </trkpt>
      <trkpt lat="43.6397" lon="5.57634">
        <ele>277.73</ele>
        <time>2015-08-06T09:19:50Z</time>
      </trkpt>
      <trkpt lat="43.63976" lon="5.5766">
        <ele>276.64</ele>
        <time>2015-08-06T09:19:53Z</time>
      </trkpt>
      <trkpt lat="43.63982" lon="5.57688">
        <ele>276.14</ele>
        <time>2015-08-06T09:19:56Z</time>
      </trkpt>
      <trkpt lat="43.63988" lon="5.57712">
        <ele>275.74</ele>
        <time>2015-08-06T09:19:59Z</time>
      </trkpt>
      <trkpt lat="43.63993" lon="5.57737">
        <ele>276.55</ele>
        <time>2015-08-06T09:20:02Z</time>
      </trkpt>
      <trkpt lat="43.63998" lon="5.57761">
        <ele>278.91</ele>
        <time>2015-08-06T09:20:05Z</time>
      </trkpt>
      <trkpt lat="43.64003" lon="5.57793">
        <ele>281.31</ele>
        <time>2015-08-06T09:20:09Z</time>
      </trkpt>
      <trkpt lat="43.64005" lon="5.5782">
        <ele>281.22</ele>
        <time>2015-08-06T09:20:13Z</time>
      </trkpt>
      <trkpt lat="43.64024" lon="5.57827">
        <ele>280.04</ele>
        <time>2015-08-06T09:20:18Z</time>
      </trkpt>
      <trkpt lat="43.64042" lon="5.5782">
        <ele>278.45</ele>
        <time>2015-08-06T09:20:21Z</time>
      </trkpt>
      <trkpt lat="43.64059" lon="5.57811">
        <ele>277.76</ele>
        <time>2015-08-06T09:20:24Z</time>
      </trkpt>
      <trkpt lat="43.64076" lon="5.57819">
        <ele>277.75</ele>
        <time>2015-08-06T09:20:28Z</time>
      </trkpt>
      <trkpt lat="43.64086" lon="5.57847">
        <ele>278.77</ele>
        <time>2015-08-06T09:20:32Z</time>
      </trkpt>
      <trkpt lat="43.64092" lon="5.57873">
        <ele>279</ele>
        <time>2015-08-06T09:20:35Z</time>
      </trkpt>
      <trkpt lat="43.64097" lon="5.57901">
        <ele>279.29</ele>
        <time>2015-08-06T09:20:38Z</time>
      </trkpt>
      <trkpt lat="43.64104" lon="5.57928">
        <ele>278.59</ele>
        <time>2015-08-06T09:20:41Z</time>
      </trkpt>
      <trkpt lat="43.64113" lon="5.57956">
        <ele>277.33</ele>
        <time>2015-08-06T09:20:44Z</time>
      </trkpt>
      <trkpt lat="43.6412" lon="5.57983">
        <ele>276.08</ele>
        <time>2015-08-06T09:20:47Z</time>
      </trkpt>
      <trkpt lat="43.64129" lon="5.5801">
        <ele>275.61</ele>
        <time>2015-08-06T09:20:50Z</time>
      </trkpt>
      <trkpt lat="43.64138" lon="5.58033">
        <ele>275.41</ele>
        <time>2015-08-06T09:20:53Z</time>
      </trkpt>
      <trkpt lat="43.64148" lon="5.58056">
        <ele>274.76</ele>
        <time>2015-08-06T09:20:56Z</time>
      </trkpt>
      <trkpt lat="43.64158" lon="5.58078">
        <ele>273.6</ele>
        <time>2015-08-06T09:20:59Z</time>
      </trkpt>
      <trkpt lat="43.64171" lon="5.581">
        <ele>272.91</ele>
        <time>2015-08-06T09:21:02Z</time>
      </trkpt>
      <trkpt lat="43.64185" lon="5.58119">
        <ele>271.95</ele>
        <time>2015-08-06T09:21:05Z</time>
      </trkpt>
      <trkpt lat="43.64199" lon="5.5814">
        <ele>271.54</ele>
        <time>2015-08-06T09:21:08Z</time>
      </trkpt>
      <trkpt lat="43.64213" lon="5.58159">
        <ele>271.3</ele>
        <time>2015-08-06T09:21:11Z</time>
      </trkpt>
      <trkpt lat="43.64228" lon="5.58178">
        <ele>270.87</ele>
        <time>2015-08-06T09:21:14Z</time>
      </trkpt>
      <trkpt lat="43.64246" lon="5.58192">
        <ele>270.12</ele>
        <time>2015-08-06T09:21:17Z</time>
      </trkpt>
      <trkpt lat="43.64267" lon="5.58199">
        <ele>268.54</ele>
        <time>2015-08-06T09:21:20Z</time>
      </trkpt>
      <trkpt lat="43.64286" lon="5.58202">
        <ele>267.26</ele>
        <time>2015-08-06T09:21:23Z</time>
      </trkpt>
      <trkpt lat="43.64306" lon="5.58205">
        <ele>266.85</ele>
        <time>2015-08-06T09:21:26Z</time>
      </trkpt>
      <trkpt lat="43.64325" lon="5.58207">
        <ele>267.47</ele>
        <time>2015-08-06T09:21:29Z</time>
      </trkpt>
      <trkpt lat="43.64349" lon="5.58209">
        <ele>269</ele>
        <time>2015-08-06T09:21:33Z</time>
      </trkpt>
      <trkpt lat="43.64371" lon="5.58212">
        <ele>269.25</ele>
        <time>2015-08-06T09:21:37Z</time>
      </trkpt>
      <trkpt lat="43.6439" lon="5.58206">
        <ele>268.87</ele>
        <time>2015-08-06T09:21:41Z</time>
      </trkpt>
      <trkpt lat="43.64408" lon="5.58207">
        <ele>268.28</ele>
        <time>2015-08-06T09:21:45Z</time>
      </trkpt>
      <trkpt lat="43.64429" lon="5.58222">
        <ele>268.38</ele>
        <time>2015-08-06T09:21:49Z</time>
      </trkpt>
      <trkpt lat="43.64451" lon="5.58228">
        <ele>268.9</ele>
        <time>2015-08-06T09:21:53Z</time>
      </trkpt>
      <trkpt lat="43.6447" lon="5.5823">
        <ele>269.74</ele>
        <time>2015-08-06T09:21:57Z</time>
      </trkpt>
      <trkpt lat="43.64492" lon="5.58232">
        <ele>269.53</ele>
        <time>2015-08-06T09:22:01Z</time>
      </trkpt>
      <trkpt lat="43.64514" lon="5.58235">
        <ele>268.16</ele>
        <time>2015-08-06T09:22:05Z</time>
      </trkpt>
      <trkpt lat="43.64536" lon="5.58231">
        <ele>266.6</ele>
        <time>2015-08-06T09:22:09Z</time>
      </trkpt>
      <trkpt lat="43.64556" lon="5.58219">
        <ele>266.08</ele>
        <time>2015-08-06T09:22:13Z</time>
      </trkpt>
      <trkpt lat="43.64575" lon="5.58205">
        <ele>266.1</ele>
        <time>2015-08-06T09:22:17Z</time>
      </trkpt>
      <trkpt lat="43.64596" lon="5.58206">
        <ele>265.68</ele>
        <time>2015-08-06T09:22:21Z</time>
      </trkpt>
      <trkpt lat="43.64615" lon="5.58216">
        <ele>267.22</ele>
        <time>2015-08-06T09:22:25Z</time>
      </trkpt>
      <trkpt lat="43.64632" lon="5.58225">
        <ele>269.1</ele>
        <time>2015-08-06T09:22:35Z</time>
      </trkpt>
      <trkpt lat="43.64646" lon="5.58245">
        <ele>269.85</ele>
        <time>2015-08-06T09:22:39Z</time>
      </trkpt>
      <trkpt lat="43.64645" lon="5.58277">
        <ele>269.84</ele>
        <time>2015-08-06T09:22:43Z</time>
      </trkpt>
      <trkpt lat="43.64646" lon="5.58308">
        <ele>268.33</ele>
        <time>2015-08-06T09:22:47Z</time>
      </trkpt>
      <trkpt lat="43.6465" lon="5.58333">
        <ele>267.59</ele>
        <time>2015-08-06T09:22:53Z</time>
      </trkpt>
      <trkpt lat="43.64668" lon="5.58342">
        <ele>267.88</ele>
        <time>2015-08-06T09:22:57Z</time>
      </trkpt>
      <trkpt lat="43.64688" lon="5.58348">
        <ele>269.2</ele>
        <time>2015-08-06T09:23:02Z</time>
      </trkpt>
      <trkpt lat="43.64708" lon="5.5835">
        <ele>274.84</ele>
        <time>2015-08-06T09:23:07Z</time>
      </trkpt>
      <trkpt lat="43.64728" lon="5.5835">
        <ele>279.27</ele>
        <time>2015-08-06T09:23:12Z</time>
      </trkpt>
      <trkpt lat="43.64749" lon="5.5835">
        <ele>279.17</ele>
        <time>2015-08-06T09:23:20Z</time>
      </trkpt>
      <trkpt lat="43.64765" lon="5.58364">
        <ele>278.6</ele>
        <time>2015-08-06T09:23:26Z</time>
      </trkpt>
      <trkpt lat="43.64785" lon="5.58366">
        <ele>276.69</ele>
        <time>2015-08-06T09:23:34Z</time>
      </trkpt>
      <trkpt lat="43.64795" lon="5.58342">
        <ele>275</ele>
        <time>2015-08-06T09:23:40Z</time>
      </trkpt>
      <trkpt lat="43.64804" lon="5.5832">
        <ele>273.91</ele>
        <time>2015-08-06T09:23:50Z</time>
      </trkpt>
      <trkpt lat="43.64815" lon="5.58342">
        <ele>273.71</ele>
        <time>2015-08-06T09:23:57Z</time>
      </trkpt>
      <trkpt lat="43.64812" lon="5.5837">
        <ele>273.21</ele>
        <time>2015-08-06T09:24:04Z</time>
      </trkpt>
      <trkpt lat="43.6482" lon="5.58347">
        <ele>272.39</ele>
        <time>2015-08-06T09:24:22Z</time>
      </trkpt>
      <trkpt lat="43.64814" lon="5.5832">
        <ele>272.33</ele>
        <time>2015-08-06T09:24:29Z</time>
      </trkpt>
      <trkpt lat="43.64813" lon="5.58295">
        <ele>272.55</ele>
        <time>2015-08-06T09:24:35Z</time>
      </trkpt>
      <trkpt lat="43.64831" lon="5.58294">
        <ele>272.1</ele>
        <time>2015-08-06T09:24:42Z</time>
      </trkpt>
      <trkpt lat="43.64841" lon="5.58317">
        <ele>271.67</ele>
        <time>2015-08-06T09:24:48Z</time>
      </trkpt>
      <trkpt lat="43.6482" lon="5.58318">
        <ele>271.37</ele>
        <time>2015-08-06T09:25:06Z</time>
      </trkpt>
      <trkpt lat="43.64813" lon="5.5829">
        <ele>272.32</ele>
        <time>2015-08-06T09:25:16Z</time>
      </trkpt>
      <trkpt lat="43.64811" lon="5.58263">
        <ele>272.81</ele>
        <time>2015-08-06T09:25:19Z</time>
      </trkpt>
      <trkpt lat="43.64809" lon="5.58236">
        <ele>271.92</ele>
        <time>2015-08-06T09:25:22Z</time>
      </trkpt>
      <trkpt lat="43.64806" lon="5.58209">
        <ele>270.09</ele>
        <time>2015-08-06T09:25:25Z</time>
      </trkpt>
      <trkpt lat="43.64802" lon="5.58182">
        <ele>268.81</ele>
        <time>2015-08-06T09:25:29Z</time>
      </trkpt>
      <trkpt lat="43.64803" lon="5.58156">
        <ele>267.13</ele>
        <time>2015-08-06T09:25:34Z</time>
      </trkpt>
      <trkpt lat="43.6482" lon="5.58139">
        <ele>266.05</ele>
        <time>2015-08-06T09:25:39Z</time>
      </trkpt>
      <trkpt lat="43.64841" lon="5.58132">
        <ele>265.6</ele>
        <time>2015-08-06T09:27:30Z</time>
      </trkpt>
      <trkpt lat="43.64857" lon="5.58118">
        <ele>265.26</ele>
        <time>2015-08-06T09:27:36Z</time>
      </trkpt>
      <trkpt lat="43.64875" lon="5.58109">
        <ele>264.15</ele>
        <time>2015-08-06T09:27:41Z</time>
      </trkpt>
      <trkpt lat="43.64893" lon="5.58101">
        <ele>263.64</ele>
        <time>2015-08-06T09:27:46Z</time>
      </trkpt>
      <trkpt lat="43.64912" lon="5.58098">
        <ele>264.13</ele>
        <time>2015-08-06T09:27:51Z</time>
      </trkpt>
      <trkpt lat="43.64935" lon="5.58094">
        <ele>266.7</ele>
        <time>2015-08-06T09:27:55Z</time>
      </trkpt>
      <trkpt lat="43.64958" lon="5.5809">
        <ele>267</ele>
        <time>2015-08-06T09:27:59Z</time>
      </trkpt>
      <trkpt lat="43.64978" lon="5.58087">
        <ele>266.02</ele>
        <time>2015-08-06T09:28:02Z</time>
      </trkpt>
      <trkpt lat="43.64999" lon="5.58085">
        <ele>264.71</ele>
        <time>2015-08-06T09:28:05Z</time>
      </trkpt>
      <trkpt lat="43.65017" lon="5.58084">
        <ele>264.18</ele>
        <time>2015-08-06T09:28:08Z</time>
      </trkpt>
      <trkpt lat="43.65036" lon="5.58081">
        <ele>264.31</ele>
        <time>2015-08-06T09:28:11Z</time>
      </trkpt>
      <trkpt lat="43.65057" lon="5.58078">
        <ele>264.38</ele>
        <time>2015-08-06T09:28:15Z</time>
      </trkpt>
      <trkpt lat="43.65078" lon="5.58074">
        <ele>263.62</ele>
        <time>2015-08-06T09:28:19Z</time>
      </trkpt>
      <trkpt lat="43.651" lon="5.5807">
        <ele>262.44</ele>
        <time>2015-08-06T09:28:23Z</time>
      </trkpt>
      <trkpt lat="43.65121" lon="5.58067">
        <ele>261.22</ele>
        <time>2015-08-06T09:28:27Z</time>
      </trkpt>
      <trkpt lat="43.65144" lon="5.58065">
        <ele>259.82</ele>
        <time>2015-08-06T09:28:31Z</time>
      </trkpt>
      <trkpt lat="43.65166" lon="5.58065">
        <ele>258.84</ele>
        <time>2015-08-06T09:28:35Z</time>
      </trkpt>
      <trkpt lat="43.65187" lon="5.58072">
        <ele>258.71</ele>
        <time>2015-08-06T09:28:39Z</time>
      </trkpt>
      <trkpt lat="43.65204" lon="5.58096">
        <ele>259.63</ele>
        <time>2015-08-06T09:28:43Z</time>
      </trkpt>
      <trkpt lat="43.65213" lon="5.5812">
        <ele>260.82</ele>
        <time>2015-08-06T09:28:46Z</time>
      </trkpt>
      <trkpt lat="43.6522" lon="5.58144">
        <ele>261.7</ele>
        <time>2015-08-06T09:28:49Z</time>
      </trkpt>
      <trkpt lat="43.65231" lon="5.58174">
        <ele>262.29</ele>
        <time>2015-08-06T09:28:53Z</time>
      </trkpt>
      <trkpt lat="43.6524" lon="5.58201">
        <ele>263.14</ele>
        <time>2015-08-06T09:28:57Z</time>
      </trkpt>
      <trkpt lat="43.65247" lon="5.58229">
        <ele>263.54</ele>
        <time>2015-08-06T09:29:01Z</time>
      </trkpt>
      <trkpt lat="43.65243" lon="5.58263">
        <ele>263.7</ele>
        <time>2015-08-06T09:29:05Z</time>
      </trkpt>
      <trkpt lat="43.65234" lon="5.5829">
        <ele>263.63</ele>
        <time>2015-08-06T09:29:08Z</time>
      </trkpt>
      <trkpt lat="43.65224" lon="5.58315">
        <ele>263.38</ele>
        <time>2015-08-06T09:29:11Z</time>
      </trkpt>
      <trkpt lat="43.65214" lon="5.58339">
        <ele>263.17</ele>
        <time>2015-08-06T09:29:14Z</time>
      </trkpt>
      <trkpt lat="43.65203" lon="5.58366">
        <ele>263.61</ele>
        <time>2015-08-06T09:29:18Z</time>
      </trkpt>
      <trkpt lat="43.65194" lon="5.58394">
        <ele>264.45</ele>
        <time>2015-08-06T09:29:22Z</time>
      </trkpt>
      <trkpt lat="43.65185" lon="5.58421">
        <ele>264.41</ele>
        <time>2015-08-06T09:29:26Z</time>
      </trkpt>
      <trkpt lat="43.65176" lon="5.58445">
        <ele>264.1</ele>
        <time>2015-08-06T09:29:30Z</time>
      </trkpt>
      <trkpt lat="43.6517" lon="5.58469">
        <ele>263.97</ele>
        <time>2015-08-06T09:29:34Z</time>
      </trkpt>
      <trkpt lat="43.65165" lon="5.58496">
        <ele>264.82</ele>
        <time>2015-08-06T09:29:39Z</time>
      </trkpt>
      <trkpt lat="43.65174" lon="5.58518">
        <ele>265</ele>
        <time>2015-08-06T09:29:47Z</time>
      </trkpt>
      <trkpt lat="43.65192" lon="5.58522">
        <ele>265.18</ele>
        <time>2015-08-06T09:29:54Z</time>
      </trkpt>
      <trkpt lat="43.65197" lon="5.58546">
        <ele>265.3</ele>
        <time>2015-08-06T09:29:59Z</time>
      </trkpt>
      <trkpt lat="43.65197" lon="5.58576">
        <ele>265.07</ele>
        <time>2015-08-06T09:30:04Z</time>
      </trkpt>
      <trkpt lat="43.65197" lon="5.58603">
        <ele>264.98</ele>
        <time>2015-08-06T09:30:13Z</time>
      </trkpt>
      <trkpt lat="43.65207" lon="5.58625">
        <ele>264.99</ele>
        <time>2015-08-06T09:30:20Z</time>
      </trkpt>
      <trkpt lat="43.65209" lon="5.58653">
        <ele>264.8</ele>
        <time>2015-08-06T09:30:26Z</time>
      </trkpt>
      <trkpt lat="43.65204" lon="5.58679">
        <ele>264.24</ele>
        <time>2015-08-06T09:30:31Z</time>
      </trkpt>
      <trkpt lat="43.65203" lon="5.5871">
        <ele>263.12</ele>
        <time>2015-08-06T09:30:36Z</time>
      </trkpt>
      <trkpt lat="43.65206" lon="5.58738">
        <ele>263.16</ele>
        <time>2015-08-06T09:30:41Z</time>
      </trkpt>
      <trkpt lat="43.65211" lon="5.58763">
        <ele>263.12</ele>
        <time>2015-08-06T09:30:46Z</time>
      </trkpt>
      <trkpt lat="43.65215" lon="5.58789">
        <ele>263.39</ele>
        <time>2015-08-06T09:30:50Z</time>
      </trkpt>
      <trkpt lat="43.65218" lon="5.5882">
        <ele>263.67</ele>
        <time>2015-08-06T09:30:54Z</time>
      </trkpt>
      <trkpt lat="43.65218" lon="5.58848">
        <ele>264.27</ele>
        <time>2015-08-06T09:30:58Z</time>
      </trkpt>
      <trkpt lat="43.65219" lon="5.58879">
        <ele>263.33</ele>
        <time>2015-08-06T09:31:02Z</time>
      </trkpt>
      <trkpt lat="43.65219" lon="5.58905">
        <ele>262.89</ele>
        <time>2015-08-06T09:31:07Z</time>
      </trkpt>
      <trkpt lat="43.65228" lon="5.58929">
        <ele>262.81</ele>
        <time>2015-08-06T09:31:13Z</time>
      </trkpt>
      <trkpt lat="43.65234" lon="5.58959">
        <ele>262.82</ele>
        <time>2015-08-06T09:31:19Z</time>
      </trkpt>
      <trkpt lat="43.65241" lon="5.58983">
        <ele>261.97</ele>
        <time>2015-08-06T09:31:23Z</time>
      </trkpt>
      <trkpt lat="43.65243" lon="5.59007">
        <ele>261.67</ele>
        <time>2015-08-06T09:31:28Z</time>
      </trkpt>
      <trkpt lat="43.6524" lon="5.58983">
        <ele>260.36</ele>
        <time>2015-08-06T09:42:56Z</time>
      </trkpt>
      <trkpt lat="43.65232" lon="5.5896">
        <ele>261.84</ele>
        <time>2015-08-06T09:43:01Z</time>
      </trkpt>
      <trkpt lat="43.65227" lon="5.5893">
        <ele>262.53</ele>
        <time>2015-08-06T09:43:05Z</time>
      </trkpt>
      <trkpt lat="43.6522" lon="5.589">
        <ele>262.4</ele>
        <time>2015-08-06T09:43:09Z</time>
      </trkpt>
      <trkpt lat="43.65219" lon="5.58868">
        <ele>262.54</ele>
        <time>2015-08-06T09:43:13Z</time>
      </trkpt>
      <trkpt lat="43.65217" lon="5.58841">
        <ele>262.21</ele>
        <time>2015-08-06T09:43:16Z</time>
      </trkpt>
      <trkpt lat="43.65217" lon="5.5881">
        <ele>262.05</ele>
        <time>2015-08-06T09:43:20Z</time>
      </trkpt>
      <trkpt lat="43.65215" lon="5.58778">
        <ele>261.77</ele>
        <time>2015-08-06T09:43:24Z</time>
      </trkpt>
      <trkpt lat="43.65211" lon="5.58753">
        <ele>261.39</ele>
        <time>2015-08-06T09:43:27Z</time>
      </trkpt>
      <trkpt lat="43.65207" lon="5.58724">
        <ele>260.91</ele>
        <time>2015-08-06T09:43:30Z</time>
      </trkpt>
      <trkpt lat="43.65204" lon="5.58697">
        <ele>260.55</ele>
        <time>2015-08-06T09:43:33Z</time>
      </trkpt>
      <trkpt lat="43.65203" lon="5.58665">
        <ele>260.71</ele>
        <time>2015-08-06T09:43:37Z</time>
      </trkpt>
      <trkpt lat="43.65207" lon="5.58637">
        <ele>260.96</ele>
        <time>2015-08-06T09:43:41Z</time>
      </trkpt>
      <trkpt lat="43.65203" lon="5.58608">
        <ele>261.64</ele>
        <time>2015-08-06T09:43:46Z</time>
      </trkpt>
      <trkpt lat="43.65201" lon="5.58579">
        <ele>262.2</ele>
        <time>2015-08-06T09:43:52Z</time>
      </trkpt>
      <trkpt lat="43.65198" lon="5.58553">
        <ele>263.25</ele>
        <time>2015-08-06T09:43:56Z</time>
      </trkpt>
      <trkpt lat="43.65197" lon="5.58524">
        <ele>264.32</ele>
        <time>2015-08-06T09:44:00Z</time>
      </trkpt>
      <trkpt lat="43.65184" lon="5.58503">
        <ele>264.49</ele>
        <time>2015-08-06T09:44:08Z</time>
      </trkpt>
      <trkpt lat="43.65174" lon="5.5848">
        <ele>264.56</ele>
        <time>2015-08-06T09:44:14Z</time>
      </trkpt>
      <trkpt lat="43.65179" lon="5.58453">
        <ele>263.99</ele>
        <time>2015-08-06T09:44:18Z</time>
      </trkpt>
      <trkpt lat="43.65188" lon="5.58427">
        <ele>262.54</ele>
        <time>2015-08-06T09:44:22Z</time>
      </trkpt>
      <trkpt lat="43.65196" lon="5.58403">
        <ele>261.59</ele>
        <time>2015-08-06T09:44:26Z</time>
      </trkpt>
      <trkpt lat="43.65205" lon="5.58379">
        <ele>261.31</ele>
        <time>2015-08-06T09:44:30Z</time>
      </trkpt>
      <trkpt lat="43.65213" lon="5.58353">
        <ele>260.89</ele>
        <time>2015-08-06T09:44:34Z</time>
      </trkpt>
      <trkpt lat="43.65221" lon="5.5833">
        <ele>260.69</ele>
        <time>2015-08-06T09:44:38Z</time>
      </trkpt>
      <trkpt lat="43.6523" lon="5.58306">
        <ele>261.88</ele>
        <time>2015-08-06T09:44:42Z</time>
      </trkpt>
      <trkpt lat="43.65238" lon="5.5828">
        <ele>262.43</ele>
        <time>2015-08-06T09:44:46Z</time>
      </trkpt>
      <trkpt lat="43.65248" lon="5.58254">
        <ele>262.37</ele>
        <time>2015-08-06T09:44:50Z</time>
      </trkpt>
      <trkpt lat="43.65251" lon="5.58227">
        <ele>262.23</ele>
        <time>2015-08-06T09:44:54Z</time>
      </trkpt>
      <trkpt lat="43.65245" lon="5.58199">
        <ele>262.18</ele>
        <time>2015-08-06T09:44:58Z</time>
      </trkpt>
      <trkpt lat="43.65234" lon="5.58175">
        <ele>262.18</ele>
        <time>2015-08-06T09:45:02Z</time>
      </trkpt>
      <trkpt lat="43.65229" lon="5.58146">
        <ele>262.65</ele>
        <time>2015-08-06T09:45:06Z</time>
      </trkpt>
      <trkpt lat="43.65227" lon="5.58118">
        <ele>262.77</ele>
        <time>2015-08-06T09:45:09Z</time>
      </trkpt>
      <trkpt lat="43.65225" lon="5.58092">
        <ele>262.64</ele>
        <time>2015-08-06T09:45:12Z</time>
      </trkpt>
      <trkpt lat="43.65223" lon="5.5806">
        <ele>262.14</ele>
        <time>2015-08-06T09:45:16Z</time>
      </trkpt>
      <trkpt lat="43.6524" lon="5.58047">
        <ele>261.31</ele>
        <time>2015-08-06T09:45:20Z</time>
      </trkpt>
      <trkpt lat="43.65262" lon="5.58043">
        <ele>260.25</ele>
        <time>2015-08-06T09:45:24Z</time>
      </trkpt>
      <trkpt lat="43.65281" lon="5.5803">
        <ele>259.86</ele>
        <time>2015-08-06T09:45:28Z</time>
      </trkpt>
      <trkpt lat="43.6529" lon="5.58006">
        <ele>259.17</ele>
        <time>2015-08-06T09:45:31Z</time>
      </trkpt>
      <trkpt lat="43.6529" lon="5.57981">
        <ele>259.75</ele>
        <time>2015-08-06T09:45:34Z</time>
      </trkpt>
      <trkpt lat="43.65288" lon="5.57956">
        <ele>261.34</ele>
        <time>2015-08-06T09:45:37Z</time>
      </trkpt>
      <trkpt lat="43.65287" lon="5.57924">
        <ele>261.96</ele>
        <time>2015-08-06T09:45:41Z</time>
      </trkpt>
      <trkpt lat="43.65285" lon="5.57899">
        <ele>261.54</ele>
        <time>2015-08-06T09:45:44Z</time>
      </trkpt>
      <trkpt lat="43.65281" lon="5.57868">
        <ele>261.47</ele>
        <time>2015-08-06T09:45:48Z</time>
      </trkpt>
      <trkpt lat="43.65277" lon="5.57838">
        <ele>261.51</ele>
        <time>2015-08-06T09:45:52Z</time>
      </trkpt>
      <trkpt lat="43.65274" lon="5.57808">
        <ele>261.32</ele>
        <time>2015-08-06T09:45:56Z</time>
      </trkpt>
      <trkpt lat="43.65272" lon="5.57778">
        <ele>261.51</ele>
        <time>2015-08-06T09:46:00Z</time>
      </trkpt>
      <trkpt lat="43.65271" lon="5.57747">
        <ele>261.69</ele>
        <time>2015-08-06T09:46:04Z</time>
      </trkpt>
      <trkpt lat="43.65273" lon="5.57721">
        <ele>261.86</ele>
        <time>2015-08-06T09:46:07Z</time>
      </trkpt>
      <trkpt lat="43.65277" lon="5.57693">
        <ele>261.85</ele>
        <time>2015-08-06T09:46:10Z</time>
      </trkpt>
      <trkpt lat="43.65281" lon="5.57667">
        <ele>261.9</ele>
        <time>2015-08-06T09:46:13Z</time>
      </trkpt>
      <trkpt lat="43.65286" lon="5.57642">
        <ele>261.86</ele>
        <time>2015-08-06T09:46:16Z</time>
      </trkpt>
      <trkpt lat="43.65292" lon="5.57618">
        <ele>261.64</ele>
        <time>2015-08-06T09:46:19Z</time>
      </trkpt>
      <trkpt lat="43.65297" lon="5.57593">
        <ele>261.4</ele>
        <time>2015-08-06T09:46:22Z</time>
      </trkpt>
      <trkpt lat="43.65304" lon="5.57569">
        <ele>261.02</ele>
        <time>2015-08-06T09:46:25Z</time>
      </trkpt>
      <trkpt lat="43.65311" lon="5.57541">
        <ele>260.76</ele>
        <time>2015-08-06T09:46:29Z</time>
      </trkpt>
      <trkpt lat="43.65309" lon="5.57513">
        <ele>260.93</ele>
        <time>2015-08-06T09:46:35Z</time>
      </trkpt>
      <trkpt lat="43.65313" lon="5.57488">
        <ele>260.81</ele>
        <time>2015-08-06T09:46:41Z</time>
      </trkpt>
      <trkpt lat="43.65316" lon="5.57458">
        <ele>260.81</ele>
        <time>2015-08-06T09:46:45Z</time>
      </trkpt>
      <trkpt lat="43.65317" lon="5.5743">
        <ele>260.34</ele>
        <time>2015-08-06T09:46:49Z</time>
      </trkpt>
      <trkpt lat="43.65318" lon="5.57405">
        <ele>260.07</ele>
        <time>2015-08-06T09:46:53Z</time>
      </trkpt>
      <trkpt lat="43.65319" lon="5.5738">
        <ele>259.98</ele>
        <time>2015-08-06T09:46:57Z</time>
      </trkpt>
      <trkpt lat="43.65321" lon="5.57354">
        <ele>259.73</ele>
        <time>2015-08-06T09:47:01Z</time>
      </trkpt>
      <trkpt lat="43.65322" lon="5.57326">
        <ele>259.64</ele>
        <time>2015-08-06T09:47:05Z</time>
      </trkpt>
      <trkpt lat="43.65321" lon="5.57295">
        <ele>259.55</ele>
        <time>2015-08-06T09:47:09Z</time>
      </trkpt>
      <trkpt lat="43.65317" lon="5.5727">
        <ele>259.4</ele>
        <time>2015-08-06T09:47:12Z</time>
      </trkpt>
      <trkpt lat="43.6531" lon="5.57246">
        <ele>259.62</ele>
        <time>2015-08-06T09:47:15Z</time>
      </trkpt>
      <trkpt lat="43.65303" lon="5.57222">
        <ele>260.17</ele>
        <time>2015-08-06T09:47:18Z</time>
      </trkpt>
      <trkpt lat="43.65295" lon="5.57197">
        <ele>260.13</ele>
        <time>2015-08-06T09:47:21Z</time>
      </trkpt>
      <trkpt lat="43.65287" lon="5.57174">
        <ele>259.76</ele>
        <time>2015-08-06T09:47:24Z</time>
      </trkpt>
      <trkpt lat="43.65279" lon="5.5715">
        <ele>259.38</ele>
        <time>2015-08-06T09:47:27Z</time>
      </trkpt>
      <trkpt lat="43.65272" lon="5.57127">
        <ele>259.27</ele>
        <time>2015-08-06T09:47:30Z</time>
      </trkpt>
      <trkpt lat="43.65265" lon="5.57104">
        <ele>259.48</ele>
        <time>2015-08-06T09:47:33Z</time>
      </trkpt>
      <trkpt lat="43.65256" lon="5.57073">
        <ele>259.7</ele>
        <time>2015-08-06T09:47:37Z</time>
      </trkpt>
      <trkpt lat="43.65249" lon="5.57048">
        <ele>259.53</ele>
        <time>2015-08-06T09:47:40Z</time>
      </trkpt>
      <trkpt lat="43.65242" lon="5.57024">
        <ele>259.37</ele>
        <time>2015-08-06T09:47:43Z</time>
      </trkpt>
      <trkpt lat="43.65234" lon="5.56998">
        <ele>259.05</ele>
        <time>2015-08-06T09:47:46Z</time>
      </trkpt>
      <trkpt lat="43.65227" lon="5.56975">
        <ele>258.88</ele>
        <time>2015-08-06T09:47:49Z</time>
      </trkpt>
      <trkpt lat="43.6522" lon="5.5695">
        <ele>258.75</ele>
        <time>2015-08-06T09:47:52Z</time>
      </trkpt>
      <trkpt lat="43.65213" lon="5.56926">
        <ele>258.7</ele>
        <time>2015-08-06T09:47:55Z</time>
      </trkpt>
      <trkpt lat="43.65205" lon="5.56901">
        <ele>258.74</ele>
        <time>2015-08-06T09:47:58Z</time>
      </trkpt>
      <trkpt lat="43.65197" lon="5.56875">
        <ele>258.74</ele>
        <time>2015-08-06T09:48:01Z</time>
      </trkpt>
      <trkpt lat="43.6519" lon="5.56849">
        <ele>258.49</ele>
        <time>2015-08-06T09:48:04Z</time>
      </trkpt>
      <trkpt lat="43.65183" lon="5.56825">
        <ele>258.45</ele>
        <time>2015-08-06T09:48:07Z</time>
      </trkpt>
      <trkpt lat="43.65176" lon="5.56802">
        <ele>258.62</ele>
        <time>2015-08-06T09:48:10Z</time>
      </trkpt>
      <trkpt lat="43.65168" lon="5.56777">
        <ele>258.93</ele>
        <time>2015-08-06T09:48:13Z</time>
      </trkpt>
      <trkpt lat="43.6516" lon="5.56751">
        <ele>258.91</ele>
        <time>2015-08-06T09:48:16Z</time>
      </trkpt>
      <trkpt lat="43.65153" lon="5.56727">
        <ele>259.06</ele>
        <time>2015-08-06T09:48:19Z</time>
      </trkpt>
      <trkpt lat="43.65145" lon="5.56702">
        <ele>259.32</ele>
        <time>2015-08-06T09:48:22Z</time>
      </trkpt>
      <trkpt lat="43.65138" lon="5.56676">
        <ele>259.26</ele>
        <time>2015-08-06T09:48:25Z</time>
      </trkpt>
      <trkpt lat="43.65131" lon="5.56652">
        <ele>258.93</ele>
        <time>2015-08-06T09:48:28Z</time>
      </trkpt>
      <trkpt lat="43.6512" lon="5.56624">
        <ele>258.6</ele>
        <time>2015-08-06T09:48:32Z</time>
      </trkpt>
      <trkpt lat="43.65103" lon="5.5661">
        <ele>258.07</ele>
        <time>2015-08-06T09:48:36Z</time>
      </trkpt>
      <trkpt lat="43.65082" lon="5.56605">
        <ele>257.89</ele>
        <time>2015-08-06T09:48:41Z</time>
      </trkpt>
      <trkpt lat="43.65087" lon="5.56577">
        <ele>258.99</ele>
        <time>2015-08-06T09:48:48Z</time>
      </trkpt>
      <trkpt lat="43.65098" lon="5.56557">
        <ele>258.86</ele>
        <time>2015-08-06T09:48:52Z</time>
      </trkpt>
      <trkpt lat="43.6511" lon="5.56535">
        <ele>258.5</ele>
        <time>2015-08-06T09:48:56Z</time>
      </trkpt>
      <trkpt lat="43.65123" lon="5.56512">
        <ele>257.73</ele>
        <time>2015-08-06T09:49:00Z</time>
      </trkpt>
      <trkpt lat="43.65136" lon="5.56488">
        <ele>256.61</ele>
        <time>2015-08-06T09:49:04Z</time>
      </trkpt>
      <trkpt lat="43.65149" lon="5.56465">
        <ele>256.49</ele>
        <time>2015-08-06T09:49:08Z</time>
      </trkpt>
      <trkpt lat="43.65161" lon="5.56442">
        <ele>257.48</ele>
        <time>2015-08-06T09:49:12Z</time>
      </trkpt>
      <trkpt lat="43.65173" lon="5.56419">
        <ele>258.47</ele>
        <time>2015-08-06T09:49:16Z</time>
      </trkpt>
      <trkpt lat="43.65186" lon="5.56393">
        <ele>258.32</ele>
        <time>2015-08-06T09:49:20Z</time>
      </trkpt>
      <trkpt lat="43.65198" lon="5.56369">
        <ele>257.99</ele>
        <time>2015-08-06T09:49:24Z</time>
      </trkpt>
      <trkpt lat="43.65207" lon="5.56341">
        <ele>258</ele>
        <time>2015-08-06T09:49:28Z</time>
      </trkpt>
      <trkpt lat="43.65211" lon="5.56312">
        <ele>257.9</ele>
        <time>2015-08-06T09:49:32Z</time>
      </trkpt>
      <trkpt lat="43.65214" lon="5.56281">
        <ele>257.11</ele>
        <time>2015-08-06T09:49:36Z</time>
      </trkpt>
      <trkpt lat="43.65219" lon="5.56251">
        <ele>256.64</ele>
        <time>2015-08-06T09:49:40Z</time>
      </trkpt>
      <trkpt lat="43.65224" lon="5.56221">
        <ele>256.47</ele>
        <time>2015-08-06T09:49:44Z</time>
      </trkpt>
      <trkpt lat="43.65228" lon="5.56191">
        <ele>256.62</ele>
        <time>2015-08-06T09:49:48Z</time>
      </trkpt>
      <trkpt lat="43.65229" lon="5.5616">
        <ele>256.76</ele>
        <time>2015-08-06T09:49:52Z</time>
      </trkpt>
      <trkpt lat="43.65231" lon="5.56134">
        <ele>256.81</ele>
        <time>2015-08-06T09:49:55Z</time>
      </trkpt>
      <trkpt lat="43.65235" lon="5.56108">
        <ele>256.87</ele>
        <time>2015-08-06T09:49:58Z</time>
      </trkpt>
      <trkpt lat="43.6524" lon="5.56077">
        <ele>256.92</ele>
        <time>2015-08-06T09:50:02Z</time>
      </trkpt>
      <trkpt lat="43.65243" lon="5.56052">
        <ele>256.91</ele>
        <time>2015-08-06T09:50:05Z</time>
      </trkpt>
      <trkpt lat="43.65245" lon="5.56019">
        <ele>256.65</ele>
        <time>2015-08-06T09:50:09Z</time>
      </trkpt>
      <trkpt lat="43.65244" lon="5.55987">
        <ele>256.42</ele>
        <time>2015-08-06T09:50:13Z</time>
      </trkpt>
      <trkpt lat="43.65242" lon="5.55955">
        <ele>256.22</ele>
        <time>2015-08-06T09:50:17Z</time>
      </trkpt>
      <trkpt lat="43.65239" lon="5.55924">
        <ele>256.11</ele>
        <time>2015-08-06T09:50:21Z</time>
      </trkpt>
      <trkpt lat="43.65235" lon="5.55893">
        <ele>256.14</ele>
        <time>2015-08-06T09:50:25Z</time>
      </trkpt>
      <trkpt lat="43.65231" lon="5.55862">
        <ele>255.95</ele>
        <time>2015-08-06T09:50:29Z</time>
      </trkpt>
      <trkpt lat="43.65226" lon="5.55832">
        <ele>255.44</ele>
        <time>2015-08-06T09:50:33Z</time>
      </trkpt>
      <trkpt lat="43.65214" lon="5.55802">
        <ele>255.32</ele>
        <time>2015-08-06T09:50:37Z</time>
      </trkpt>
      <trkpt lat="43.65201" lon="5.55782">
        <ele>255.17</ele>
        <time>2015-08-06T09:50:40Z</time>
      </trkpt>
      <trkpt lat="43.6519" lon="5.55758">
        <ele>255.57</ele>
        <time>2015-08-06T09:50:44Z</time>
      </trkpt>
      <trkpt lat="43.65188" lon="5.55731">
        <ele>256.23</ele>
        <time>2015-08-06T09:50:48Z</time>
      </trkpt>
      <trkpt lat="43.65184" lon="5.55702">
        <ele>256.27</ele>
        <time>2015-08-06T09:50:52Z</time>
      </trkpt>
      <trkpt lat="43.65177" lon="5.55677">
        <ele>257.03</ele>
        <time>2015-08-06T09:52:43Z</time>
      </trkpt>
      <trkpt lat="43.6517" lon="5.5565">
        <ele>257.24</ele>
        <time>2015-08-06T09:52:49Z</time>
      </trkpt>
      <trkpt lat="43.65165" lon="5.55626">
        <ele>257.51</ele>
        <time>2015-08-06T09:52:54Z</time>
      </trkpt>
      <trkpt lat="43.65155" lon="5.556">
        <ele>257.75</ele>
        <time>2015-08-06T09:52:59Z</time>
      </trkpt>
      <trkpt lat="43.65135" lon="5.55593">
        <ele>258.11</ele>
        <time>2015-08-06T09:53:04Z</time>
      </trkpt>
      <trkpt lat="43.65114" lon="5.55592">
        <ele>258.6</ele>
        <time>2015-08-06T09:53:08Z</time>
      </trkpt>
      <trkpt lat="43.65093" lon="5.55594">
        <ele>258.28</ele>
        <time>2015-08-06T09:53:12Z</time>
      </trkpt>
      <trkpt lat="43.65074" lon="5.55597">
        <ele>257.4</ele>
        <time>2015-08-06T09:53:16Z</time>
      </trkpt>
      <trkpt lat="43.65055" lon="5.55597">
        <ele>257.03</ele>
        <time>2015-08-06T09:53:20Z</time>
      </trkpt>
      <trkpt lat="43.65036" lon="5.55599">
        <ele>256.34</ele>
        <time>2015-08-06T09:53:24Z</time>
      </trkpt>
      <trkpt lat="43.65016" lon="5.55595">
        <ele>255.59</ele>
        <time>2015-08-06T09:53:28Z</time>
      </trkpt>
      <trkpt lat="43.65008" lon="5.5557">
        <ele>255.54</ele>
        <time>2015-08-06T09:53:32Z</time>
      </trkpt>
      <trkpt lat="43.65011" lon="5.55539">
        <ele>255.89</ele>
        <time>2015-08-06T09:53:36Z</time>
      </trkpt>
      <trkpt lat="43.65014" lon="5.55509">
        <ele>256.27</ele>
        <time>2015-08-06T09:53:40Z</time>
      </trkpt>
      <trkpt lat="43.65016" lon="5.55481">
        <ele>256.44</ele>
        <time>2015-08-06T09:53:44Z</time>
      </trkpt>
      <trkpt lat="43.65009" lon="5.55456">
        <ele>257.2</ele>
        <time>2015-08-06T09:53:48Z</time>
      </trkpt>
      <trkpt lat="43.6499" lon="5.55454">
        <ele>257.61</ele>
        <time>2015-08-06T09:53:52Z</time>
      </trkpt>
      <trkpt lat="43.6497" lon="5.55458">
        <ele>257.65</ele>
        <time>2015-08-06T09:53:56Z</time>
      </trkpt>
      <trkpt lat="43.64948" lon="5.5546">
        <ele>257.06</ele>
        <time>2015-08-06T09:54:00Z</time>
      </trkpt>
      <trkpt lat="43.64928" lon="5.55461">
        <ele>255.69</ele>
        <time>2015-08-06T09:54:04Z</time>
      </trkpt>
      <trkpt lat="43.64906" lon="5.55462">
        <ele>254.94</ele>
        <time>2015-08-06T09:54:08Z</time>
      </trkpt>
      <trkpt lat="43.64884" lon="5.55464">
        <ele>255.07</ele>
        <time>2015-08-06T09:54:12Z</time>
      </trkpt>
      <trkpt lat="43.64864" lon="5.55465">
        <ele>255.42</ele>
        <time>2015-08-06T09:54:16Z</time>
      </trkpt>
      <trkpt lat="43.64843" lon="5.55466">
        <ele>255.41</ele>
        <time>2015-08-06T09:54:20Z</time>
      </trkpt>
      <trkpt lat="43.64823" lon="5.55467">
        <ele>255.27</ele>
        <time>2015-08-06T09:54:24Z</time>
      </trkpt>
      <trkpt lat="43.64804" lon="5.55468">
        <ele>255.63</ele>
        <time>2015-08-06T09:54:28Z</time>
      </trkpt>
      <trkpt lat="43.64785" lon="5.55468">
        <ele>255.73</ele>
        <time>2015-08-06T09:54:32Z</time>
      </trkpt>
      <trkpt lat="43.64769" lon="5.55457">
        <ele>255.09</ele>
        <time>2015-08-06T09:54:39Z</time>
      </trkpt>
      <trkpt lat="43.64769" lon="5.55429">
        <ele>255.1</ele>
        <time>2015-08-06T09:54:42Z</time>
      </trkpt>
      <trkpt lat="43.64768" lon="5.55401">
        <ele>254.83</ele>
        <time>2015-08-06T09:54:45Z</time>
      </trkpt>
      <trkpt lat="43.64767" lon="5.55374">
        <ele>254.67</ele>
        <time>2015-08-06T09:54:48Z</time>
      </trkpt>
      <trkpt lat="43.64765" lon="5.55341">
        <ele>254.69</ele>
        <time>2015-08-06T09:54:52Z</time>
      </trkpt>
      <trkpt lat="43.64765" lon="5.55316">
        <ele>254.96</ele>
        <time>2015-08-06T09:54:55Z</time>
      </trkpt>
      <trkpt lat="43.64765" lon="5.5529">
        <ele>255.24</ele>
        <time>2015-08-06T09:54:58Z</time>
      </trkpt>
      <trkpt lat="43.64765" lon="5.55256">
        <ele>255.41</ele>
        <time>2015-08-06T09:55:01Z</time>
      </trkpt>
      <trkpt lat="43.64764" lon="5.55229">
        <ele>255.3</ele>
        <time>2015-08-06T09:55:03Z</time>
      </trkpt>
      <trkpt lat="43.64764" lon="5.55201">
        <ele>255.05</ele>
        <time>2015-08-06T09:55:05Z</time>
      </trkpt>
      <trkpt lat="43.64764" lon="5.55174">
        <ele>254.85</ele>
        <time>2015-08-06T09:55:07Z</time>
      </trkpt>
      <trkpt lat="43.64763" lon="5.55148">
        <ele>254.69</ele>
        <time>2015-08-06T09:55:09Z</time>
      </trkpt>
      <trkpt lat="43.64763" lon="5.55122">
        <ele>254.51</ele>
        <time>2015-08-06T09:55:11Z</time>
      </trkpt>
      <trkpt lat="43.64763" lon="5.55097">
        <ele>254.31</ele>
        <time>2015-08-06T09:55:13Z</time>
      </trkpt>
      <trkpt lat="43.64763" lon="5.55061">
        <ele>254.19</ele>
        <time>2015-08-06T09:55:16Z</time>
      </trkpt>
      <trkpt lat="43.64763" lon="5.55026">
        <ele>254.31</ele>
        <time>2015-08-06T09:55:19Z</time>
      </trkpt>
      <trkpt lat="43.64762" lon="5.54993">
        <ele>254.38</ele>
        <time>2015-08-06T09:55:22Z</time>
      </trkpt>
      <trkpt lat="43.64762" lon="5.54962">
        <ele>254.52</ele>
        <time>2015-08-06T09:55:25Z</time>
      </trkpt>
      <trkpt lat="43.64763" lon="5.54928">
        <ele>254.61</ele>
        <time>2015-08-06T09:55:28Z</time>
      </trkpt>
      <trkpt lat="43.64764" lon="5.54893">
        <ele>254.9</ele>
        <time>2015-08-06T09:55:31Z</time>
      </trkpt>
      <trkpt lat="43.64765" lon="5.5486">
        <ele>255.37</ele>
        <time>2015-08-06T09:55:34Z</time>
      </trkpt>
      <trkpt lat="43.64768" lon="5.54829">
        <ele>255.41</ele>
        <time>2015-08-06T09:55:37Z</time>
      </trkpt>
      <trkpt lat="43.64773" lon="5.54801">
        <ele>254.89</ele>
        <time>2015-08-06T09:55:40Z</time>
      </trkpt>
      <trkpt lat="43.6478" lon="5.54772">
        <ele>254.56</ele>
        <time>2015-08-06T09:55:43Z</time>
      </trkpt>
      <trkpt lat="43.6479" lon="5.54741">
        <ele>254.92</ele>
        <time>2015-08-06T09:55:46Z</time>
      </trkpt>
      <trkpt lat="43.64801" lon="5.54708">
        <ele>255.69</ele>
        <time>2015-08-06T09:55:49Z</time>
      </trkpt>
      <trkpt lat="43.64811" lon="5.54675">
        <ele>256.82</ele>
        <time>2015-08-06T09:55:52Z</time>
      </trkpt>
      <trkpt lat="43.64821" lon="5.54643">
        <ele>257.87</ele>
        <time>2015-08-06T09:55:55Z</time>
      </trkpt>
      <trkpt lat="43.64828" lon="5.54614">
        <ele>258.9</ele>
        <time>2015-08-06T09:55:58Z</time>
      </trkpt>
      <trkpt lat="43.64833" lon="5.54585">
        <ele>259.29</ele>
        <time>2015-08-06T09:56:01Z</time>
      </trkpt>
      <trkpt lat="43.64837" lon="5.54557">
        <ele>259.25</ele>
        <time>2015-08-06T09:56:04Z</time>
      </trkpt>
      <trkpt lat="43.64839" lon="5.54527">
        <ele>258.74</ele>
        <time>2015-08-06T09:56:07Z</time>
      </trkpt>
      <trkpt lat="43.64842" lon="5.54495">
        <ele>257.93</ele>
        <time>2015-08-06T09:56:10Z</time>
      </trkpt>
      <trkpt lat="43.64845" lon="5.54462">
        <ele>257.07</ele>
        <time>2015-08-06T09:56:13Z</time>
      </trkpt>
      <trkpt lat="43.64849" lon="5.54429">
        <ele>256.41</ele>
        <time>2015-08-06T09:56:16Z</time>
      </trkpt>
      <trkpt lat="43.64854" lon="5.54396">
        <ele>255.87</ele>
        <time>2015-08-06T09:56:19Z</time>
      </trkpt>
      <trkpt lat="43.64862" lon="5.54366">
        <ele>255.39</ele>
        <time>2015-08-06T09:56:22Z</time>
      </trkpt>
      <trkpt lat="43.64872" lon="5.54339">
        <ele>255.1</ele>
        <time>2015-08-06T09:56:25Z</time>
      </trkpt>
      <trkpt lat="43.64883" lon="5.54313">
        <ele>254.95</ele>
        <time>2015-08-06T09:56:28Z</time>
      </trkpt>
      <trkpt lat="43.64893" lon="5.54289">
        <ele>254.92</ele>
        <time>2015-08-06T09:56:31Z</time>
      </trkpt>
      <trkpt lat="43.64905" lon="5.5426">
        <ele>255.14</ele>
        <time>2015-08-06T09:56:34Z</time>
      </trkpt>
      <trkpt lat="43.64914" lon="5.54238">
        <ele>255.35</ele>
        <time>2015-08-06T09:56:36Z</time>
      </trkpt>
      <trkpt lat="43.64923" lon="5.54214">
        <ele>255.49</ele>
        <time>2015-08-06T09:56:38Z</time>
      </trkpt>
      <trkpt lat="43.64932" lon="5.54192">
        <ele>255.6</ele>
        <time>2015-08-06T09:56:40Z</time>
      </trkpt>
      <trkpt lat="43.6494" lon="5.5417">
        <ele>255.68</ele>
        <time>2015-08-06T09:56:42Z</time>
      </trkpt>
      <trkpt lat="43.64951" lon="5.54136">
        <ele>255.71</ele>
        <time>2015-08-06T09:56:45Z</time>
      </trkpt>
      <trkpt lat="43.64959" lon="5.54102">
        <ele>255.65</ele>
        <time>2015-08-06T09:56:48Z</time>
      </trkpt>
      <trkpt lat="43.64965" lon="5.54068">
        <ele>255.54</ele>
        <time>2015-08-06T09:56:51Z</time>
      </trkpt>
      <trkpt lat="43.64969" lon="5.54032">
        <ele>255.49</ele>
        <time>2015-08-06T09:56:54Z</time>
      </trkpt>
      <trkpt lat="43.6497" lon="5.53996">
        <ele>255.43</ele>
        <time>2015-08-06T09:56:57Z</time>
      </trkpt>
      <trkpt lat="43.64969" lon="5.53962">
        <ele>255.31</ele>
        <time>2015-08-06T09:57:00Z</time>
      </trkpt>
      <trkpt lat="43.64967" lon="5.53929">
        <ele>255.21</ele>
        <time>2015-08-06T09:57:03Z</time>
      </trkpt>
      <trkpt lat="43.64963" lon="5.53897">
        <ele>255.16</ele>
        <time>2015-08-06T09:57:06Z</time>
      </trkpt>
      <trkpt lat="43.64957" lon="5.53865">
        <ele>255.02</ele>
        <time>2015-08-06T09:57:09Z</time>
      </trkpt>
      <trkpt lat="43.64951" lon="5.53836">
        <ele>254.84</ele>
        <time>2015-08-06T09:57:12Z</time>
      </trkpt>
      <trkpt lat="43.64945" lon="5.53803">
        <ele>254.83</ele>
        <time>2015-08-06T09:57:15Z</time>
      </trkpt>
      <trkpt lat="43.64939" lon="5.53767">
        <ele>254.93</ele>
        <time>2015-08-06T09:57:18Z</time>
      </trkpt>
      <trkpt lat="43.64936" lon="5.53742">
        <ele>255.01</ele>
        <time>2015-08-06T09:57:20Z</time>
      </trkpt>
      <trkpt lat="43.64935" lon="5.53706">
        <ele>255.08</ele>
        <time>2015-08-06T09:57:23Z</time>
      </trkpt>
      <trkpt lat="43.64937" lon="5.53672">
        <ele>254.99</ele>
        <time>2015-08-06T09:57:26Z</time>
      </trkpt>
      <trkpt lat="43.64941" lon="5.53639">
        <ele>254.62</ele>
        <time>2015-08-06T09:57:29Z</time>
      </trkpt>
      <trkpt lat="43.64945" lon="5.53606">
        <ele>254.51</ele>
        <time>2015-08-06T09:57:32Z</time>
      </trkpt>
      <trkpt lat="43.64948" lon="5.53581">
        <ele>254.5</ele>
        <time>2015-08-06T09:57:34Z</time>
      </trkpt>
      <trkpt lat="43.64951" lon="5.53555">
        <ele>254.36</ele>
        <time>2015-08-06T09:57:36Z</time>
      </trkpt>
      <trkpt lat="43.64956" lon="5.53519">
        <ele>254.13</ele>
        <time>2015-08-06T09:57:39Z</time>
      </trkpt>
      <trkpt lat="43.64959" lon="5.53485">
        <ele>253.89</ele>
        <time>2015-08-06T09:57:42Z</time>
      </trkpt>
      <trkpt lat="43.64963" lon="5.53452">
        <ele>253.66</ele>
        <time>2015-08-06T09:57:45Z</time>
      </trkpt>
      <trkpt lat="43.64967" lon="5.53421">
        <ele>253.55</ele>
        <time>2015-08-06T09:57:48Z</time>
      </trkpt>
      <trkpt lat="43.6497" lon="5.53389">
        <ele>253.62</ele>
        <time>2015-08-06T09:57:51Z</time>
      </trkpt>
      <trkpt lat="43.64973" lon="5.53364">
        <ele>253.69</ele>
        <time>2015-08-06T09:57:53Z</time>
      </trkpt>
      <trkpt lat="43.64976" lon="5.53338">
        <ele>253.66</ele>
        <time>2015-08-06T09:57:55Z</time>
      </trkpt>
      <trkpt lat="43.6498" lon="5.53302">
        <ele>253.55</ele>
        <time>2015-08-06T09:57:58Z</time>
      </trkpt>
      <trkpt lat="43.64984" lon="5.53266">
        <ele>253.38</ele>
        <time>2015-08-06T09:58:01Z</time>
      </trkpt>
      <trkpt lat="43.64987" lon="5.53233">
        <ele>253.24</ele>
        <time>2015-08-06T09:58:04Z</time>
      </trkpt>
      <trkpt lat="43.64991" lon="5.532">
        <ele>253.18</ele>
        <time>2015-08-06T09:58:07Z</time>
      </trkpt>
      <trkpt lat="43.64994" lon="5.5317">
        <ele>253.17</ele>
        <time>2015-08-06T09:58:10Z</time>
      </trkpt>
      <trkpt lat="43.64997" lon="5.53139">
        <ele>253.12</ele>
        <time>2015-08-06T09:58:13Z</time>
      </trkpt>
      <trkpt lat="43.65" lon="5.53108">
        <ele>253.01</ele>
        <time>2015-08-06T09:58:16Z</time>
      </trkpt>
      <trkpt lat="43.65002" lon="5.53078">
        <ele>252.88</ele>
        <time>2015-08-06T09:58:19Z</time>
      </trkpt>
      <trkpt lat="43.65001" lon="5.53049">
        <ele>252.7</ele>
        <time>2015-08-06T09:58:22Z</time>
      </trkpt>
      <trkpt lat="43.65002" lon="5.53022">
        <ele>252.56</ele>
        <time>2015-08-06T09:58:25Z</time>
      </trkpt>
      <trkpt lat="43.65005" lon="5.52995">
        <ele>252.47</ele>
        <time>2015-08-06T09:58:28Z</time>
      </trkpt>
      <trkpt lat="43.65009" lon="5.52965">
        <ele>252.37</ele>
        <time>2015-08-06T09:58:32Z</time>
      </trkpt>
      <trkpt lat="43.64992" lon="5.5295">
        <ele>252.22</ele>
        <time>2015-08-06T09:58:39Z</time>
      </trkpt>
      <trkpt lat="43.64974" lon="5.52941">
        <ele>251.87</ele>
        <time>2015-08-06T09:58:45Z</time>
      </trkpt>
      <trkpt lat="43.64956" lon="5.52931">
        <ele>251.53</ele>
        <time>2015-08-06T09:58:49Z</time>
      </trkpt>
      <trkpt lat="43.64933" lon="5.52919">
        <ele>251.13</ele>
        <time>2015-08-06T09:58:53Z</time>
      </trkpt>
      <trkpt lat="43.64914" lon="5.52912">
        <ele>251.08</ele>
        <time>2015-08-06T09:58:56Z</time>
      </trkpt>
      <trkpt lat="43.64893" lon="5.52905">
        <ele>251.11</ele>
        <time>2015-08-06T09:58:59Z</time>
      </trkpt>
      <trkpt lat="43.6487" lon="5.529">
        <ele>251.2</ele>
        <time>2015-08-06T09:59:02Z</time>
      </trkpt>
      <trkpt lat="43.64847" lon="5.52893">
        <ele>251.31</ele>
        <time>2015-08-06T09:59:05Z</time>
      </trkpt>
      <trkpt lat="43.64825" lon="5.52882">
        <ele>251.44</ele>
        <time>2015-08-06T09:59:08Z</time>
      </trkpt>
      <trkpt lat="43.64802" lon="5.52871">
        <ele>251.73</ele>
        <time>2015-08-06T09:59:11Z</time>
      </trkpt>
      <trkpt lat="43.64781" lon="5.52861">
        <ele>252.05</ele>
        <time>2015-08-06T09:59:14Z</time>
      </trkpt>
      <trkpt lat="43.6476" lon="5.52852">
        <ele>252.37</ele>
        <time>2015-08-06T09:59:17Z</time>
      </trkpt>
      <trkpt lat="43.64735" lon="5.52843">
        <ele>252.68</ele>
        <time>2015-08-06T09:59:20Z</time>
      </trkpt>
      <trkpt lat="43.64718" lon="5.52835">
        <ele>253.06</ele>
        <time>2015-08-06T09:59:22Z</time>
      </trkpt>
      <trkpt lat="43.64694" lon="5.52823">
        <ele>253.53</ele>
        <time>2015-08-06T09:59:25Z</time>
      </trkpt>
      <trkpt lat="43.64673" lon="5.5281">
        <ele>253.79</ele>
        <time>2015-08-06T09:59:28Z</time>
      </trkpt>
      <trkpt lat="43.64653" lon="5.528">
        <ele>253.88</ele>
        <time>2015-08-06T09:59:31Z</time>
      </trkpt>
      <trkpt lat="43.64633" lon="5.52793">
        <ele>254.13</ele>
        <time>2015-08-06T09:59:34Z</time>
      </trkpt>
      <trkpt lat="43.64609" lon="5.52788">
        <ele>254.55</ele>
        <time>2015-08-06T09:59:37Z</time>
      </trkpt>
      <trkpt lat="43.64583" lon="5.52788">
        <ele>254.95</ele>
        <time>2015-08-06T09:59:40Z</time>
      </trkpt>
      <trkpt lat="43.64558" lon="5.52789">
        <ele>255.15</ele>
        <time>2015-08-06T09:59:43Z</time>
      </trkpt>
      <trkpt lat="43.64537" lon="5.52788">
        <ele>255.16</ele>
        <time>2015-08-06T09:59:46Z</time>
      </trkpt>
      <trkpt lat="43.64519" lon="5.52782">
        <ele>255.45</ele>
        <time>2015-08-06T09:59:49Z</time>
      </trkpt>
      <trkpt lat="43.64502" lon="5.52773">
        <ele>256.01</ele>
        <time>2015-08-06T09:59:53Z</time>
      </trkpt>
      <trkpt lat="43.64509" lon="5.5275">
        <ele>256.1</ele>
        <time>2015-08-06T09:59:59Z</time>
      </trkpt>
      <trkpt lat="43.64525" lon="5.52734">
        <ele>256.88</ele>
        <time>2015-08-06T10:00:02Z</time>
      </trkpt>
      <trkpt lat="43.64542" lon="5.52711">
        <ele>257.49</ele>
        <time>2015-08-06T10:00:05Z</time>
      </trkpt>
      <trkpt lat="43.64555" lon="5.52688">
        <ele>257.46</ele>
        <time>2015-08-06T10:00:08Z</time>
      </trkpt>
      <trkpt lat="43.64567" lon="5.52665">
        <ele>257.51</ele>
        <time>2015-08-06T10:00:11Z</time>
      </trkpt>
      <trkpt lat="43.6458" lon="5.52635">
        <ele>257.82</ele>
        <time>2015-08-06T10:00:14Z</time>
      </trkpt>
      <trkpt lat="43.64589" lon="5.52602">
        <ele>258.17</ele>
        <time>2015-08-06T10:00:17Z</time>
      </trkpt>
      <trkpt lat="43.64594" lon="5.52572">
        <ele>258.38</ele>
        <time>2015-08-06T10:00:20Z</time>
      </trkpt>
      <trkpt lat="43.64597" lon="5.5254">
        <ele>258.22</ele>
        <time>2015-08-06T10:00:23Z</time>
      </trkpt>
      <trkpt lat="43.64598" lon="5.5251">
        <ele>257.38</ele>
        <time>2015-08-06T10:00:26Z</time>
      </trkpt>
      <trkpt lat="43.64596" lon="5.52481">
        <ele>256.85</ele>
        <time>2015-08-06T10:00:29Z</time>
      </trkpt>
      <trkpt lat="43.64592" lon="5.5245">
        <ele>256.45</ele>
        <time>2015-08-06T10:00:32Z</time>
      </trkpt>
      <trkpt lat="43.64587" lon="5.52418">
        <ele>255.89</ele>
        <time>2015-08-06T10:00:35Z</time>
      </trkpt>
      <trkpt lat="43.64578" lon="5.52387">
        <ele>255.53</ele>
        <time>2015-08-06T10:00:38Z</time>
      </trkpt>
      <trkpt lat="43.64568" lon="5.52358">
        <ele>255.52</ele>
        <time>2015-08-06T10:00:41Z</time>
      </trkpt>
      <trkpt lat="43.64559" lon="5.52331">
        <ele>255.33</ele>
        <time>2015-08-06T10:00:44Z</time>
      </trkpt>
      <trkpt lat="43.6455" lon="5.52306">
        <ele>255.41</ele>
        <time>2015-08-06T10:00:47Z</time>
      </trkpt>
      <trkpt lat="43.6454" lon="5.5228">
        <ele>256.21</ele>
        <time>2015-08-06T10:00:50Z</time>
      </trkpt>
      <trkpt lat="43.6453" lon="5.52253">
        <ele>256.78</ele>
        <time>2015-08-06T10:00:53Z</time>
      </trkpt>
      <trkpt lat="43.64521" lon="5.52228">
        <ele>256.63</ele>
        <time>2015-08-06T10:00:56Z</time>
      </trkpt>
      <trkpt lat="43.64512" lon="5.52202">
        <ele>256.42</ele>
        <time>2015-08-06T10:00:59Z</time>
      </trkpt>
      <trkpt lat="43.64504" lon="5.52176">
        <ele>255.47</ele>
        <time>2015-08-06T10:01:02Z</time>
      </trkpt>
      <trkpt lat="43.64496" lon="5.52152">
        <ele>255.02</ele>
        <time>2015-08-06T10:01:05Z</time>
      </trkpt>
      <trkpt lat="43.64488" lon="5.52128">
        <ele>254.99</ele>
        <time>2015-08-06T10:01:08Z</time>
      </trkpt>
      <trkpt lat="43.64479" lon="5.52102">
        <ele>254.72</ele>
        <time>2015-08-06T10:01:11Z</time>
      </trkpt>
      <trkpt lat="43.64471" lon="5.52077">
        <ele>254.22</ele>
        <time>2015-08-06T10:01:14Z</time>
      </trkpt>
      <trkpt lat="43.64463" lon="5.52052">
        <ele>253.81</ele>
        <time>2015-08-06T10:01:17Z</time>
      </trkpt>
      <trkpt lat="43.64456" lon="5.52021">
        <ele>253.81</ele>
        <time>2015-08-06T10:01:20Z</time>
      </trkpt>
      <trkpt lat="43.64453" lon="5.5199">
        <ele>253.87</ele>
        <time>2015-08-06T10:01:23Z</time>
      </trkpt>
      <trkpt lat="43.6445" lon="5.51962">
        <ele>254.38</ele>
        <time>2015-08-06T10:01:26Z</time>
      </trkpt>
      <trkpt lat="43.64445" lon="5.51934">
        <ele>255.22</ele>
        <time>2015-08-06T10:01:29Z</time>
      </trkpt>
      <trkpt lat="43.64438" lon="5.51905">
        <ele>256.14</ele>
        <time>2015-08-06T10:01:32Z</time>
      </trkpt>
      <trkpt lat="43.6443" lon="5.5188">
        <ele>257.05</ele>
        <time>2015-08-06T10:01:35Z</time>
      </trkpt>
      <trkpt lat="43.64421" lon="5.51853">
        <ele>257.99</ele>
        <time>2015-08-06T10:01:39Z</time>
      </trkpt>
      <trkpt lat="43.64412" lon="5.51827">
        <ele>258.15</ele>
        <time>2015-08-06T10:01:44Z</time>
      </trkpt>
      <trkpt lat="43.64398" lon="5.51811">
        <ele>258.22</ele>
        <time>2015-08-06T10:01:49Z</time>
      </trkpt>
      <trkpt lat="43.64388" lon="5.51784">
        <ele>258.01</ele>
        <time>2015-08-06T10:01:53Z</time>
      </trkpt>
      <trkpt lat="43.64381" lon="5.5176">
        <ele>257.83</ele>
        <time>2015-08-06T10:01:56Z</time>
      </trkpt>
      <trkpt lat="43.64374" lon="5.51735">
        <ele>257.46</ele>
        <time>2015-08-06T10:01:59Z</time>
      </trkpt>
      <trkpt lat="43.64369" lon="5.51706">
        <ele>257.12</ele>
        <time>2015-08-06T10:02:02Z</time>
      </trkpt>
      <trkpt lat="43.64364" lon="5.51676">
        <ele>256.56</ele>
        <time>2015-08-06T10:02:05Z</time>
      </trkpt>
      <trkpt lat="43.6436" lon="5.5165">
        <ele>255.63</ele>
        <time>2015-08-06T10:02:08Z</time>
      </trkpt>
      <trkpt lat="43.64341" lon="5.5165">
        <ele>253.81</ele>
        <time>2015-08-06T10:02:15Z</time>
      </trkpt>
      <trkpt lat="43.64336" lon="5.5168">
        <ele>254.11</ele>
        <time>2015-08-06T10:02:19Z</time>
      </trkpt>
      <trkpt lat="43.64332" lon="5.51707">
        <ele>255.4</ele>
        <time>2015-08-06T10:02:23Z</time>
      </trkpt>
      <trkpt lat="43.64327" lon="5.51732">
        <ele>257.18</ele>
        <time>2015-08-06T10:02:27Z</time>
      </trkpt>
      <trkpt lat="43.64322" lon="5.51757">
        <ele>257.58</ele>
        <time>2015-08-06T10:02:31Z</time>
      </trkpt>
      <trkpt lat="43.64319" lon="5.51785">
        <ele>257.27</ele>
        <time>2015-08-06T10:02:35Z</time>
      </trkpt>
      <trkpt lat="43.64316" lon="5.51813">
        <ele>257.01</ele>
        <time>2015-08-06T10:02:39Z</time>
      </trkpt>
      <trkpt lat="43.64314" lon="5.51841">
        <ele>256.8</ele>
        <time>2015-08-06T10:02:43Z</time>
      </trkpt>
      <trkpt lat="43.64313" lon="5.51872">
        <ele>257.89</ele>
        <time>2015-08-06T10:02:47Z</time>
      </trkpt>
      <trkpt lat="43.64311" lon="5.51898">
        <ele>258.01</ele>
        <time>2015-08-06T10:02:50Z</time>
      </trkpt>
      <trkpt lat="43.64309" lon="5.51931">
        <ele>258.05</ele>
        <time>2015-08-06T10:02:54Z</time>
      </trkpt>
      <trkpt lat="43.64308" lon="5.51963">
        <ele>258.39</ele>
        <time>2015-08-06T10:02:58Z</time>
      </trkpt>
      <trkpt lat="43.64306" lon="5.51988">
        <ele>258.76</ele>
        <time>2015-08-06T10:03:01Z</time>
      </trkpt>
      <trkpt lat="43.64303" lon="5.52021">
        <ele>259.99</ele>
        <time>2015-08-06T10:03:05Z</time>
      </trkpt>
      <trkpt lat="43.64301" lon="5.52047">
        <ele>260.74</ele>
        <time>2015-08-06T10:03:08Z</time>
      </trkpt>
      <trkpt lat="43.643" lon="5.52072">
        <ele>261.13</ele>
        <time>2015-08-06T10:03:11Z</time>
      </trkpt>
      <trkpt lat="43.64298" lon="5.52105">
        <ele>262.36</ele>
        <time>2015-08-06T10:03:15Z</time>
      </trkpt>
      <trkpt lat="43.64293" lon="5.52136">
        <ele>264.23</ele>
        <time>2015-08-06T10:03:19Z</time>
      </trkpt>
      <trkpt lat="43.64298" lon="5.52165">
        <ele>264.85</ele>
        <time>2015-08-06T10:03:23Z</time>
      </trkpt>
      <trkpt lat="43.64304" lon="5.5219">
        <ele>265.66</ele>
        <time>2015-08-06T10:03:26Z</time>
      </trkpt>
      <trkpt lat="43.64302" lon="5.52218">
        <ele>266.45</ele>
        <time>2015-08-06T10:03:29Z</time>
      </trkpt>
      <trkpt lat="43.64283" lon="5.52227">
        <ele>267.36</ele>
        <time>2015-08-06T10:03:33Z</time>
      </trkpt>
      <trkpt lat="43.64273" lon="5.52205">
        <ele>268.76</ele>
        <time>2015-08-06T10:03:36Z</time>
      </trkpt>
      <trkpt lat="43.64265" lon="5.52182">
        <ele>270.32</ele>
        <time>2015-08-06T10:03:40Z</time>
      </trkpt>
      <trkpt lat="43.64256" lon="5.52158">
        <ele>270.37</ele>
        <time>2015-08-06T10:03:44Z</time>
      </trkpt>
      <trkpt lat="43.6425" lon="5.52134">
        <ele>270.22</ele>
        <time>2015-08-06T10:03:47Z</time>
      </trkpt>
      <trkpt lat="43.64243" lon="5.5211">
        <ele>269.71</ele>
        <time>2015-08-06T10:03:50Z</time>
      </trkpt>
      <trkpt lat="43.64238" lon="5.52085">
        <ele>269.27</ele>
        <time>2015-08-06T10:03:53Z</time>
      </trkpt>
      <trkpt lat="43.64237" lon="5.52052">
        <ele>269.48</ele>
        <time>2015-08-06T10:03:57Z</time>
      </trkpt>
      <trkpt lat="43.64237" lon="5.52025">
        <ele>269.05</ele>
        <time>2015-08-06T10:04:00Z</time>
      </trkpt>
      <trkpt lat="43.64237" lon="5.52">
        <ele>268.9</ele>
        <time>2015-08-06T10:04:03Z</time>
      </trkpt>
      <trkpt lat="43.64237" lon="5.51974">
        <ele>269.17</ele>
        <time>2015-08-06T10:04:06Z</time>
      </trkpt>
      <trkpt lat="43.64237" lon="5.51942">
        <ele>270.25</ele>
        <time>2015-08-06T10:04:10Z</time>
      </trkpt>
      <trkpt lat="43.64237" lon="5.51915">
        <ele>271.38</ele>
        <time>2015-08-06T10:04:13Z</time>
      </trkpt>
      <trkpt lat="43.64235" lon="5.51889">
        <ele>272.34</ele>
        <time>2015-08-06T10:04:16Z</time>
      </trkpt>
      <trkpt lat="43.64233" lon="5.51861">
        <ele>272.96</ele>
        <time>2015-08-06T10:04:19Z</time>
      </trkpt>
      <trkpt lat="43.64232" lon="5.51833">
        <ele>272.76</ele>
        <time>2015-08-06T10:04:22Z</time>
      </trkpt>
      <trkpt lat="43.64231" lon="5.51806">
        <ele>271.69</ele>
        <time>2015-08-06T10:04:25Z</time>
      </trkpt>
      <trkpt lat="43.6423" lon="5.5178">
        <ele>270.57</ele>
        <time>2015-08-06T10:04:28Z</time>
      </trkpt>
      <trkpt lat="43.6423" lon="5.5175">
        <ele>269.62</ele>
        <time>2015-08-06T10:04:31Z</time>
      </trkpt>
      <trkpt lat="43.64229" lon="5.51722">
        <ele>268.65</ele>
        <time>2015-08-06T10:04:34Z</time>
      </trkpt>
      <trkpt lat="43.64228" lon="5.51695">
        <ele>267.78</ele>
        <time>2015-08-06T10:04:37Z</time>
      </trkpt>
      <trkpt lat="43.64227" lon="5.51667">
        <ele>267.42</ele>
        <time>2015-08-06T10:04:40Z</time>
      </trkpt>
      <trkpt lat="43.64224" lon="5.51636">
        <ele>267.17</ele>
        <time>2015-08-06T10:04:43Z</time>
      </trkpt>
      <trkpt lat="43.64221" lon="5.51607">
        <ele>267.14</ele>
        <time>2015-08-06T10:04:46Z</time>
      </trkpt>
      <trkpt lat="43.64217" lon="5.51581">
        <ele>267.08</ele>
        <time>2015-08-06T10:04:49Z</time>
      </trkpt>
      <trkpt lat="43.6421" lon="5.5155">
        <ele>267.36</ele>
        <time>2015-08-06T10:04:53Z</time>
      </trkpt>
      <trkpt lat="43.64203" lon="5.51522">
        <ele>267.88</ele>
        <time>2015-08-06T10:04:56Z</time>
      </trkpt>
      <trkpt lat="43.64195" lon="5.51491">
        <ele>268.27</ele>
        <time>2015-08-06T10:04:59Z</time>
      </trkpt>
      <trkpt lat="43.64186" lon="5.51464">
        <ele>268.46</ele>
        <time>2015-08-06T10:05:02Z</time>
      </trkpt>
      <trkpt lat="43.64177" lon="5.51439">
        <ele>268.73</ele>
        <time>2015-08-06T10:05:05Z</time>
      </trkpt>
      <trkpt lat="43.64166" lon="5.51411">
        <ele>268.94</ele>
        <time>2015-08-06T10:05:08Z</time>
      </trkpt>
      <trkpt lat="43.64157" lon="5.51379">
        <ele>269.54</ele>
        <time>2015-08-06T10:05:11Z</time>
      </trkpt>
      <trkpt lat="43.64151" lon="5.51349">
        <ele>270.6</ele>
        <time>2015-08-06T10:05:14Z</time>
      </trkpt>
      <trkpt lat="43.64148" lon="5.51317">
        <ele>273</ele>
        <time>2015-08-06T10:05:18Z</time>
      </trkpt>
      <trkpt lat="43.64145" lon="5.51287">
        <ele>275.38</ele>
        <time>2015-08-06T10:05:22Z</time>
      </trkpt>
      <trkpt lat="43.64141" lon="5.51254">
        <ele>277.1</ele>
        <time>2015-08-06T10:05:26Z</time>
      </trkpt>
      <trkpt lat="43.64138" lon="5.51226">
        <ele>277.99</ele>
        <time>2015-08-06T10:05:29Z</time>
      </trkpt>
      <trkpt lat="43.64134" lon="5.51199">
        <ele>278.45</ele>
        <time>2015-08-06T10:05:32Z</time>
      </trkpt>
      <trkpt lat="43.6413" lon="5.51167">
        <ele>279.16</ele>
        <time>2015-08-06T10:05:36Z</time>
      </trkpt>
      <trkpt lat="43.64126" lon="5.51135">
        <ele>279.58</ele>
        <time>2015-08-06T10:05:40Z</time>
      </trkpt>
      <trkpt lat="43.6411" lon="5.5112">
        <ele>279.53</ele>
        <time>2015-08-06T10:05:44Z</time>
      </trkpt>
      <trkpt lat="43.64086" lon="5.51128">
        <ele>278.2</ele>
        <time>2015-08-06T10:05:48Z</time>
      </trkpt>
      <trkpt lat="43.64066" lon="5.51134">
        <ele>277.56</ele>
        <time>2015-08-06T10:05:51Z</time>
      </trkpt>
      <trkpt lat="43.64044" lon="5.51141">
        <ele>277.38</ele>
        <time>2015-08-06T10:05:54Z</time>
      </trkpt>
      <trkpt lat="43.64023" lon="5.51148">
        <ele>277.26</ele>
        <time>2015-08-06T10:05:57Z</time>
      </trkpt>
      <trkpt lat="43.64003" lon="5.51154">
        <ele>278.07</ele>
        <time>2015-08-06T10:06:00Z</time>
      </trkpt>
      <trkpt lat="43.63983" lon="5.51161">
        <ele>279.18</ele>
        <time>2015-08-06T10:06:03Z</time>
      </trkpt>
      <trkpt lat="43.63964" lon="5.51165">
        <ele>280.92</ele>
        <time>2015-08-06T10:06:06Z</time>
      </trkpt>
      <trkpt lat="43.63944" lon="5.51163">
        <ele>283.15</ele>
        <time>2015-08-06T10:06:09Z</time>
      </trkpt>
      <trkpt lat="43.63924" lon="5.51162">
        <ele>284.92</ele>
        <time>2015-08-06T10:06:12Z</time>
      </trkpt>
      <trkpt lat="43.63903" lon="5.51159">
        <ele>285.92</ele>
        <time>2015-08-06T10:06:15Z</time>
      </trkpt>
      <trkpt lat="43.63883" lon="5.51156">
        <ele>286.3</ele>
        <time>2015-08-06T10:06:18Z</time>
      </trkpt>
      <trkpt lat="43.63863" lon="5.51154">
        <ele>287.1</ele>
        <time>2015-08-06T10:06:21Z</time>
      </trkpt>
      <trkpt lat="43.63843" lon="5.51151">
        <ele>287.28</ele>
        <time>2015-08-06T10:06:24Z</time>
      </trkpt>
      <trkpt lat="43.63824" lon="5.5115">
        <ele>287.47</ele>
        <time>2015-08-06T10:06:27Z</time>
      </trkpt>
      <trkpt lat="43.63804" lon="5.51149">
        <ele>288.35</ele>
        <time>2015-08-06T10:06:30Z</time>
      </trkpt>
      <trkpt lat="43.63782" lon="5.51151">
        <ele>289.76</ele>
        <time>2015-08-06T10:06:34Z</time>
      </trkpt>
      <trkpt lat="43.6376" lon="5.51159">
        <ele>290.73</ele>
        <time>2015-08-06T10:06:37Z</time>
      </trkpt>
      <trkpt lat="43.63737" lon="5.51167">
        <ele>290.62</ele>
        <time>2015-08-06T10:06:40Z</time>
      </trkpt>
      <trkpt lat="43.63713" lon="5.51175">
        <ele>290.37</ele>
        <time>2015-08-06T10:06:43Z</time>
      </trkpt>
      <trkpt lat="43.63693" lon="5.51183">
        <ele>290.33</ele>
        <time>2015-08-06T10:06:46Z</time>
      </trkpt>
      <trkpt lat="43.63672" lon="5.5118">
        <ele>291.75</ele>
        <time>2015-08-06T10:06:50Z</time>
      </trkpt>
      <trkpt lat="43.63656" lon="5.51165">
        <ele>292.38</ele>
        <time>2015-08-06T10:06:53Z</time>
      </trkpt>
      <trkpt lat="43.63645" lon="5.51142">
        <ele>294.86</ele>
        <time>2015-08-06T10:06:57Z</time>
      </trkpt>
      <trkpt lat="43.63647" lon="5.51113">
        <ele>295.54</ele>
        <time>2015-08-06T10:07:01Z</time>
      </trkpt>
      <trkpt lat="43.63654" lon="5.51085">
        <ele>294.82</ele>
        <time>2015-08-06T10:07:04Z</time>
      </trkpt>
      <trkpt lat="43.63658" lon="5.51059">
        <ele>294.67</ele>
        <time>2015-08-06T10:07:07Z</time>
      </trkpt>
      <trkpt lat="43.63663" lon="5.51034">
        <ele>294.83</ele>
        <time>2015-08-06T10:07:10Z</time>
      </trkpt>
      <trkpt lat="43.6367" lon="5.51011">
        <ele>294.2</ele>
        <time>2015-08-06T10:07:13Z</time>
      </trkpt>
      <trkpt lat="43.6368" lon="5.50982">
        <ele>292.67</ele>
        <time>2015-08-06T10:07:17Z</time>
      </trkpt>
      <trkpt lat="43.63682" lon="5.50952">
        <ele>292.2</ele>
        <time>2015-08-06T10:07:20Z</time>
      </trkpt>
      <trkpt lat="43.63679" lon="5.50918">
        <ele>291.5</ele>
        <time>2015-08-06T10:07:23Z</time>
      </trkpt>
      <trkpt lat="43.63669" lon="5.50885">
        <ele>290.32</ele>
        <time>2015-08-06T10:07:26Z</time>
      </trkpt>
      <trkpt lat="43.63659" lon="5.50855">
        <ele>288.71</ele>
        <time>2015-08-06T10:07:29Z</time>
      </trkpt>
      <trkpt lat="43.63653" lon="5.50826">
        <ele>286.74</ele>
        <time>2015-08-06T10:07:32Z</time>
      </trkpt>
      <trkpt lat="43.6365" lon="5.50799">
        <ele>285.87</ele>
        <time>2015-08-06T10:07:35Z</time>
      </trkpt>
      <trkpt lat="43.63651" lon="5.50773">
        <ele>286.03</ele>
        <time>2015-08-06T10:07:38Z</time>
      </trkpt>
      <trkpt lat="43.63651" lon="5.50745">
        <ele>286.95</ele>
        <time>2015-08-06T10:07:41Z</time>
      </trkpt>
      <trkpt lat="43.63652" lon="5.50714">
        <ele>288.79</ele>
        <time>2015-08-06T10:07:44Z</time>
      </trkpt>
      <trkpt lat="43.63656" lon="5.5068">
        <ele>289.68</ele>
        <time>2015-08-06T10:07:47Z</time>
      </trkpt>
      <trkpt lat="43.63651" lon="5.50653">
        <ele>287.95</ele>
        <time>2015-08-06T10:07:51Z</time>
      </trkpt>
      <trkpt lat="43.6363" lon="5.50647">
        <ele>288.77</ele>
        <time>2015-08-06T10:07:56Z</time>
      </trkpt>
      <trkpt lat="43.63609" lon="5.50656">
        <ele>291.58</ele>
        <time>2015-08-06T10:08:00Z</time>
      </trkpt>
      <trkpt lat="43.6359" lon="5.50663">
        <ele>295.27</ele>
        <time>2015-08-06T10:08:04Z</time>
      </trkpt>
      <trkpt lat="43.63566" lon="5.50672">
        <ele>298.31</ele>
        <time>2015-08-06T10:08:08Z</time>
      </trkpt>
      <trkpt lat="43.63547" lon="5.50679">
        <ele>299.35</ele>
        <time>2015-08-06T10:08:11Z</time>
      </trkpt>
      <trkpt lat="43.63528" lon="5.50685">
        <ele>301.33</ele>
        <time>2015-08-06T10:08:14Z</time>
      </trkpt>
      <trkpt lat="43.63508" lon="5.50695">
        <ele>303.92</ele>
        <time>2015-08-06T10:08:18Z</time>
      </trkpt>
      <trkpt lat="43.63488" lon="5.50701">
        <ele>306.99</ele>
        <time>2015-08-06T10:08:22Z</time>
      </trkpt>
      <trkpt lat="43.63466" lon="5.50701">
        <ele>308.93</ele>
        <time>2015-08-06T10:08:26Z</time>
      </trkpt>
      <trkpt lat="43.63446" lon="5.50715">
        <ele>310.82</ele>
        <time>2015-08-06T10:08:30Z</time>
      </trkpt>
      <trkpt lat="43.63431" lon="5.50738">
        <ele>312.64</ele>
        <time>2015-08-06T10:08:33Z</time>
      </trkpt>
      <trkpt lat="43.63416" lon="5.50765">
        <ele>314.04</ele>
        <time>2015-08-06T10:08:36Z</time>
      </trkpt>
      <trkpt lat="43.63402" lon="5.50793">
        <ele>314.74</ele>
        <time>2015-08-06T10:08:39Z</time>
      </trkpt>
      <trkpt lat="43.63391" lon="5.50817">
        <ele>314.55</ele>
        <time>2015-08-06T10:08:42Z</time>
      </trkpt>
      <trkpt lat="43.63381" lon="5.5084">
        <ele>314.73</ele>
        <time>2015-08-06T10:08:45Z</time>
      </trkpt>
      <trkpt lat="43.63369" lon="5.50868">
        <ele>317.39</ele>
        <time>2015-08-06T10:08:49Z</time>
      </trkpt>
      <trkpt lat="43.63359" lon="5.50893">
        <ele>318.4</ele>
        <time>2015-08-06T10:08:52Z</time>
      </trkpt>
      <trkpt lat="43.63347" lon="5.50921">
        <ele>318.72</ele>
        <time>2015-08-06T10:08:55Z</time>
      </trkpt>
      <trkpt lat="43.63335" lon="5.50949">
        <ele>319.77</ele>
        <time>2015-08-06T10:08:58Z</time>
      </trkpt>
      <trkpt lat="43.63317" lon="5.50973">
        <ele>320.34</ele>
        <time>2015-08-06T10:09:01Z</time>
      </trkpt>
      <trkpt lat="43.63299" lon="5.50984">
        <ele>322.22</ele>
        <time>2015-08-06T10:09:04Z</time>
      </trkpt>
      <trkpt lat="43.63279" lon="5.50994">
        <ele>324.27</ele>
        <time>2015-08-06T10:09:07Z</time>
      </trkpt>
      <trkpt lat="43.63262" lon="5.51005">
        <ele>326.46</ele>
        <time>2015-08-06T10:09:11Z</time>
      </trkpt>
      <trkpt lat="43.63279" lon="5.51025">
        <ele>328.93</ele>
        <time>2015-08-06T10:10:21Z</time>
      </trkpt>
    </trkseg>
  </trk>
</gpx>